<?xml version="1.0" encoding="UTF-8" standalone="no" ?>
<gpx xmlns="http://www.topografix.com/GPX/1/1" xmlns:xsi="http://www.w3.org/2001/XMLSchema-instance" xsi:schemaLocation="http://www.topografix.com/GPX/1/1 http://www.topografix.com/GPX/1/1/gpx.xsd" version="1.1" creator="VisuGPX - https://www.visugpx.com">
  <metadata>
    <name>Sortie du 05/04/10</name>
    <desc><![CDATA[Lionel &J érôme]]></desc>
  </metadata>
  <trk>
    <name><![CDATA[Sortie du 05/04/10_1]]></name>
    <trkseg>
      <trkpt lat="45.67586" lon="4.69511">
        <ele>284</ele>
        <time>2010-04-05T00:00:00Z</time>
      </trkpt>
      <trkpt lat="45.67592" lon="4.695">
        <ele>285</ele>
        <time>2010-04-05T00:00:03Z</time>
      </trkpt>
      <trkpt lat="45.67599" lon="4.69487">
        <ele>285</ele>
        <time>2010-04-05T00:00:05Z</time>
      </trkpt>
      <trkpt lat="45.67615" lon="4.69466">
        <ele>286</ele>
        <time>2010-04-05T00:00:10Z</time>
      </trkpt>
      <trkpt lat="45.67638" lon="4.69435">
        <ele>287</ele>
        <time>2010-04-05T00:00:17Z</time>
      </trkpt>
      <trkpt lat="45.67672" lon="4.69403">
        <ele>289</ele>
        <time>2010-04-05T00:00:27Z</time>
      </trkpt>
      <trkpt lat="45.67698" lon="4.69379">
        <ele>290</ele>
        <time>2010-04-05T00:00:33Z</time>
      </trkpt>
      <trkpt lat="45.67724" lon="4.69346">
        <ele>290</ele>
        <time>2010-04-05T00:00:38Z</time>
      </trkpt>
      <trkpt lat="45.67732" lon="4.69336">
        <ele>291</ele>
        <time>2010-04-05T00:00:42Z</time>
      </trkpt>
      <trkpt lat="45.67742" lon="4.69322">
        <ele>291</ele>
        <time>2010-04-05T00:00:44Z</time>
      </trkpt>
      <trkpt lat="45.67742" lon="4.69322">
        <ele>291</ele>
        <time>2010-04-05T00:00:45Z</time>
      </trkpt>
      <trkpt lat="45.67767" lon="4.69312">
        <ele>291</ele>
        <time>2010-04-05T00:00:48Z</time>
      </trkpt>
      <trkpt lat="45.67772" lon="4.69262">
        <ele>290</ele>
        <time>2010-04-05T00:00:53Z</time>
      </trkpt>
      <trkpt lat="45.67782" lon="4.69219">
        <ele>289</ele>
        <time>2010-04-05T00:00:57Z</time>
      </trkpt>
      <trkpt lat="45.6779" lon="4.69177">
        <ele>288</ele>
        <time>2010-04-05T00:01:01Z</time>
      </trkpt>
      <trkpt lat="45.67803" lon="4.69115">
        <ele>287</ele>
        <time>2010-04-05T00:01:07Z</time>
      </trkpt>
      <trkpt lat="45.67813" lon="4.69064">
        <ele>287</ele>
        <time>2010-04-05T00:01:12Z</time>
      </trkpt>
      <trkpt lat="45.67815" lon="4.69047">
        <ele>287</ele>
        <time>2010-04-05T00:01:14Z</time>
      </trkpt>
      <trkpt lat="45.67825" lon="4.68983">
        <ele>287</ele>
        <time>2010-04-05T00:01:20Z</time>
      </trkpt>
      <trkpt lat="45.67828" lon="4.68966">
        <ele>287</ele>
        <time>2010-04-05T00:01:22Z</time>
      </trkpt>
      <trkpt lat="45.67822" lon="4.68857">
        <ele>285</ele>
        <time>2010-04-05T00:01:32Z</time>
      </trkpt>
      <trkpt lat="45.67817" lon="4.68781">
        <ele>284</ele>
        <time>2010-04-05T00:01:39Z</time>
      </trkpt>
      <trkpt lat="45.67805" lon="4.68701">
        <ele>283</ele>
        <time>2010-04-05T00:01:47Z</time>
      </trkpt>
      <trkpt lat="45.67796" lon="4.68619">
        <ele>281</ele>
        <time>2010-04-05T00:01:54Z</time>
      </trkpt>
      <trkpt lat="45.67795" lon="4.68533">
        <ele>280</ele>
        <time>2010-04-05T00:02:02Z</time>
      </trkpt>
      <trkpt lat="45.67804" lon="4.68396">
        <ele>280</ele>
        <time>2010-04-05T00:02:15Z</time>
      </trkpt>
      <trkpt lat="45.67808" lon="4.68338">
        <ele>281</ele>
        <time>2010-04-05T00:02:23Z</time>
      </trkpt>
      <trkpt lat="45.67811" lon="4.68287">
        <ele>282</ele>
        <time>2010-04-05T00:02:30Z</time>
      </trkpt>
      <trkpt lat="45.67814" lon="4.68233">
        <ele>284</ele>
        <time>2010-04-05T00:02:40Z</time>
      </trkpt>
      <trkpt lat="45.67817" lon="4.68197">
        <ele>285</ele>
        <time>2010-04-05T00:02:46Z</time>
      </trkpt>
      <trkpt lat="45.67819" lon="4.68163">
        <ele>286</ele>
        <time>2010-04-05T00:02:52Z</time>
      </trkpt>
      <trkpt lat="45.6782" lon="4.6815">
        <ele>287</ele>
        <time>2010-04-05T00:02:55Z</time>
      </trkpt>
      <trkpt lat="45.67823" lon="4.68073">
        <ele>290</ele>
        <time>2010-04-05T00:03:10Z</time>
      </trkpt>
      <trkpt lat="45.6782" lon="4.6801">
        <ele>291</ele>
        <time>2010-04-05T00:03:18Z</time>
      </trkpt>
      <trkpt lat="45.67814" lon="4.67959">
        <ele>292</ele>
        <time>2010-04-05T00:03:25Z</time>
      </trkpt>
      <trkpt lat="45.67805" lon="4.67903">
        <ele>291</ele>
        <time>2010-04-05T00:03:30Z</time>
      </trkpt>
      <trkpt lat="45.67793" lon="4.67853">
        <ele>289</ele>
        <time>2010-04-05T00:03:35Z</time>
      </trkpt>
      <trkpt lat="45.67777" lon="4.67788">
        <ele>286</ele>
        <time>2010-04-05T00:03:42Z</time>
      </trkpt>
      <trkpt lat="45.67772" lon="4.67765">
        <ele>285</ele>
        <time>2010-04-05T00:03:44Z</time>
      </trkpt>
      <trkpt lat="45.67769" lon="4.67695">
        <ele>283</ele>
        <time>2010-04-05T00:03:51Z</time>
      </trkpt>
      <trkpt lat="45.6777" lon="4.67668">
        <ele>282</ele>
        <time>2010-04-05T00:03:53Z</time>
      </trkpt>
      <trkpt lat="45.67776" lon="4.67625">
        <ele>281</ele>
        <time>2010-04-05T00:03:57Z</time>
      </trkpt>
      <trkpt lat="45.67778" lon="4.67611">
        <ele>281</ele>
        <time>2010-04-05T00:03:59Z</time>
      </trkpt>
      <trkpt lat="45.67781" lon="4.67526">
        <ele>279</ele>
        <time>2010-04-05T00:04:06Z</time>
      </trkpt>
      <trkpt lat="45.67783" lon="4.67435">
        <ele>279</ele>
        <time>2010-04-05T00:04:15Z</time>
      </trkpt>
      <trkpt lat="45.67785" lon="4.67317">
        <ele>278</ele>
        <time>2010-04-05T00:04:26Z</time>
      </trkpt>
      <trkpt lat="45.67777" lon="4.67226">
        <ele>277</ele>
        <time>2010-04-05T00:04:35Z</time>
      </trkpt>
      <trkpt lat="45.67785" lon="4.67145">
        <ele>275</ele>
        <time>2010-04-05T00:04:42Z</time>
      </trkpt>
      <trkpt lat="45.67791" lon="4.67075">
        <ele>274</ele>
        <time>2010-04-05T00:04:49Z</time>
      </trkpt>
      <trkpt lat="45.67801" lon="4.66961">
        <ele>273</ele>
        <time>2010-04-05T00:05:00Z</time>
      </trkpt>
      <trkpt lat="45.67806" lon="4.66889">
        <ele>270</ele>
        <time>2010-04-05T00:05:06Z</time>
      </trkpt>
      <trkpt lat="45.67793" lon="4.66786">
        <ele>268</ele>
        <time>2010-04-05T00:05:16Z</time>
      </trkpt>
      <trkpt lat="45.67799" lon="4.66714">
        <ele>266</ele>
        <time>2010-04-05T00:05:23Z</time>
      </trkpt>
      <trkpt lat="45.67828" lon="4.66656">
        <ele>266</ele>
        <time>2010-04-05T00:05:30Z</time>
      </trkpt>
      <trkpt lat="45.67862" lon="4.66584">
        <ele>264</ele>
        <time>2010-04-05T00:05:38Z</time>
      </trkpt>
      <trkpt lat="45.67882" lon="4.66501">
        <ele>263</ele>
        <time>2010-04-05T00:05:46Z</time>
      </trkpt>
      <trkpt lat="45.67886" lon="4.66465">
        <ele>261</ele>
        <time>2010-04-05T00:05:49Z</time>
      </trkpt>
      <trkpt lat="45.67892" lon="4.66417">
        <ele>258</ele>
        <time>2010-04-05T00:05:54Z</time>
      </trkpt>
      <trkpt lat="45.67896" lon="4.66308">
        <ele>256</ele>
        <time>2010-04-05T00:06:04Z</time>
      </trkpt>
      <trkpt lat="45.67892" lon="4.66217">
        <ele>251</ele>
        <time>2010-04-05T00:06:12Z</time>
      </trkpt>
      <trkpt lat="45.6789" lon="4.66184">
        <ele>250</ele>
        <time>2010-04-05T00:06:16Z</time>
      </trkpt>
      <trkpt lat="45.67888" lon="4.66151">
        <ele>250</ele>
        <time>2010-04-05T00:06:19Z</time>
      </trkpt>
      <trkpt lat="45.67874" lon="4.66039">
        <ele>251</ele>
        <time>2010-04-05T00:06:32Z</time>
      </trkpt>
      <trkpt lat="45.67876" lon="4.6599">
        <ele>250</ele>
        <time>2010-04-05T00:06:36Z</time>
      </trkpt>
      <trkpt lat="45.67879" lon="4.6598">
        <ele>250</ele>
        <time>2010-04-05T00:06:37Z</time>
      </trkpt>
      <trkpt lat="45.67889" lon="4.65954">
        <ele>252</ele>
        <time>2010-04-05T00:06:45Z</time>
      </trkpt>
      <trkpt lat="45.67901" lon="4.65936">
        <ele>253</ele>
        <time>2010-04-05T00:06:50Z</time>
      </trkpt>
      <trkpt lat="45.67913" lon="4.65932">
        <ele>254</ele>
        <time>2010-04-05T00:06:54Z</time>
      </trkpt>
      <trkpt lat="45.67926" lon="4.65949">
        <ele>255</ele>
        <time>2010-04-05T00:06:58Z</time>
      </trkpt>
      <trkpt lat="45.67936" lon="4.65963">
        <ele>256</ele>
        <time>2010-04-05T00:07:03Z</time>
      </trkpt>
      <trkpt lat="45.67939" lon="4.6601">
        <ele>257</ele>
        <time>2010-04-05T00:07:09Z</time>
      </trkpt>
      <trkpt lat="45.67956" lon="4.66052">
        <ele>258</ele>
        <time>2010-04-05T00:07:16Z</time>
      </trkpt>
      <trkpt lat="45.67983" lon="4.66097">
        <ele>260</ele>
        <time>2010-04-05T00:07:27Z</time>
      </trkpt>
      <trkpt lat="45.68008" lon="4.66141">
        <ele>262</ele>
        <time>2010-04-05T00:07:37Z</time>
      </trkpt>
      <trkpt lat="45.68021" lon="4.66164">
        <ele>263</ele>
        <time>2010-04-05T00:07:42Z</time>
      </trkpt>
      <trkpt lat="45.68069" lon="4.66234">
        <ele>262</ele>
        <time>2010-04-05T00:07:51Z</time>
      </trkpt>
      <trkpt lat="45.68098" lon="4.66266">
        <ele>262</ele>
        <time>2010-04-05T00:07:56Z</time>
      </trkpt>
      <trkpt lat="45.68128" lon="4.66299">
        <ele>263</ele>
        <time>2010-04-05T00:08:03Z</time>
      </trkpt>
      <trkpt lat="45.68162" lon="4.6634">
        <ele>263</ele>
        <time>2010-04-05T00:08:09Z</time>
      </trkpt>
      <trkpt lat="45.68193" lon="4.66391">
        <ele>264</ele>
        <time>2010-04-05T00:08:18Z</time>
      </trkpt>
      <trkpt lat="45.68222" lon="4.66438">
        <ele>264</ele>
        <time>2010-04-05T00:08:24Z</time>
      </trkpt>
      <trkpt lat="45.6827" lon="4.66529">
        <ele>264</ele>
        <time>2010-04-05T00:08:35Z</time>
      </trkpt>
      <trkpt lat="45.68295" lon="4.66577">
        <ele>264</ele>
        <time>2010-04-05T00:08:40Z</time>
      </trkpt>
      <trkpt lat="45.68335" lon="4.66655">
        <ele>265</ele>
        <time>2010-04-05T00:08:52Z</time>
      </trkpt>
      <trkpt lat="45.68363" lon="4.667">
        <ele>266</ele>
        <time>2010-04-05T00:09:00Z</time>
      </trkpt>
      <trkpt lat="45.68386" lon="4.6673">
        <ele>266</ele>
        <time>2010-04-05T00:09:04Z</time>
      </trkpt>
      <trkpt lat="45.68436" lon="4.66801">
        <ele>267</ele>
        <time>2010-04-05T00:09:16Z</time>
      </trkpt>
      <trkpt lat="45.68484" lon="4.66863">
        <ele>267</ele>
        <time>2010-04-05T00:09:24Z</time>
      </trkpt>
      <trkpt lat="45.68514" lon="4.66906">
        <ele>267</ele>
        <time>2010-04-05T00:09:30Z</time>
      </trkpt>
      <trkpt lat="45.68547" lon="4.66965">
        <ele>268</ele>
        <time>2010-04-05T00:09:39Z</time>
      </trkpt>
      <trkpt lat="45.68588" lon="4.67038">
        <ele>268</ele>
        <time>2010-04-05T00:09:48Z</time>
      </trkpt>
      <trkpt lat="45.68621" lon="4.67098">
        <ele>268</ele>
        <time>2010-04-05T00:09:55Z</time>
      </trkpt>
      <trkpt lat="45.68666" lon="4.67157">
        <ele>268</ele>
        <time>2010-04-05T00:10:03Z</time>
      </trkpt>
      <trkpt lat="45.687" lon="4.67199">
        <ele>268</ele>
        <time>2010-04-05T00:10:09Z</time>
      </trkpt>
      <trkpt lat="45.68728" lon="4.67239">
        <ele>267</ele>
        <time>2010-04-05T00:10:15Z</time>
      </trkpt>
      <trkpt lat="45.6877" lon="4.67311">
        <ele>267</ele>
        <time>2010-04-05T00:10:23Z</time>
      </trkpt>
      <trkpt lat="45.68774" lon="4.67319">
        <ele>267</ele>
        <time>2010-04-05T00:10:24Z</time>
      </trkpt>
      <trkpt lat="45.68794" lon="4.67358">
        <ele>267</ele>
        <time>2010-04-05T00:10:29Z</time>
      </trkpt>
      <trkpt lat="45.68809" lon="4.67388">
        <ele>266</ele>
        <time>2010-04-05T00:10:32Z</time>
      </trkpt>
      <trkpt lat="45.68815" lon="4.674">
        <ele>267</ele>
        <time>2010-04-05T00:10:36Z</time>
      </trkpt>
      <trkpt lat="45.68815" lon="4.67425">
        <ele>267</ele>
        <time>2010-04-05T00:10:38Z</time>
      </trkpt>
      <trkpt lat="45.68857" lon="4.67412">
        <ele>267</ele>
        <time>2010-04-05T00:10:44Z</time>
      </trkpt>
      <trkpt lat="45.68873" lon="4.67411">
        <ele>267</ele>
        <time>2010-04-05T00:10:46Z</time>
      </trkpt>
      <trkpt lat="45.68893" lon="4.67411">
        <ele>268</ele>
        <time>2010-04-05T00:10:51Z</time>
      </trkpt>
      <trkpt lat="45.68938" lon="4.67408">
        <ele>269</ele>
        <time>2010-04-05T00:11:00Z</time>
      </trkpt>
      <trkpt lat="45.68977" lon="4.67408">
        <ele>270</ele>
        <time>2010-04-05T00:11:07Z</time>
      </trkpt>
      <trkpt lat="45.69015" lon="4.67408">
        <ele>271</ele>
        <time>2010-04-05T00:11:15Z</time>
      </trkpt>
      <trkpt lat="45.69059" lon="4.67408">
        <ele>273</ele>
        <time>2010-04-05T00:11:26Z</time>
      </trkpt>
      <trkpt lat="45.69115" lon="4.67408">
        <ele>274</ele>
        <time>2010-04-05T00:11:36Z</time>
      </trkpt>
      <trkpt lat="45.69159" lon="4.67408">
        <ele>275</ele>
        <time>2010-04-05T00:11:44Z</time>
      </trkpt>
      <trkpt lat="45.69193" lon="4.67421">
        <ele>276</ele>
        <time>2010-04-05T00:11:51Z</time>
      </trkpt>
      <trkpt lat="45.69225" lon="4.67441">
        <ele>277</ele>
        <time>2010-04-05T00:11:58Z</time>
      </trkpt>
      <trkpt lat="45.69257" lon="4.67462">
        <ele>279</ele>
        <time>2010-04-05T00:12:07Z</time>
      </trkpt>
      <trkpt lat="45.69287" lon="4.67481">
        <ele>280</ele>
        <time>2010-04-05T00:12:14Z</time>
      </trkpt>
      <trkpt lat="45.69309" lon="4.67494">
        <ele>282</ele>
        <time>2010-04-05T00:12:22Z</time>
      </trkpt>
      <trkpt lat="45.69355" lon="4.67491">
        <ele>284</ele>
        <time>2010-04-05T00:12:33Z</time>
      </trkpt>
      <trkpt lat="45.69376" lon="4.67487">
        <ele>287</ele>
        <time>2010-04-05T00:12:43Z</time>
      </trkpt>
      <trkpt lat="45.69391" lon="4.67484">
        <ele>288</ele>
        <time>2010-04-05T00:12:48Z</time>
      </trkpt>
      <trkpt lat="45.69407" lon="4.67481">
        <ele>290</ele>
        <time>2010-04-05T00:12:55Z</time>
      </trkpt>
      <trkpt lat="45.69438" lon="4.67477">
        <ele>293</ele>
        <time>2010-04-05T00:13:06Z</time>
      </trkpt>
      <trkpt lat="45.6946" lon="4.67469">
        <ele>296</ele>
        <time>2010-04-05T00:13:16Z</time>
      </trkpt>
      <trkpt lat="45.69482" lon="4.6746">
        <ele>298</ele>
        <time>2010-04-05T00:13:24Z</time>
      </trkpt>
      <trkpt lat="45.69502" lon="4.67451">
        <ele>301</ele>
        <time>2010-04-05T00:13:34Z</time>
      </trkpt>
      <trkpt lat="45.69531" lon="4.67437">
        <ele>303</ele>
        <time>2010-04-05T00:13:43Z</time>
      </trkpt>
      <trkpt lat="45.69552" lon="4.67428">
        <ele>305</ele>
        <time>2010-04-05T00:13:51Z</time>
      </trkpt>
      <trkpt lat="45.69571" lon="4.67424">
        <ele>307</ele>
        <time>2010-04-05T00:13:58Z</time>
      </trkpt>
      <trkpt lat="45.69591" lon="4.67422">
        <ele>308</ele>
        <time>2010-04-05T00:14:03Z</time>
      </trkpt>
      <trkpt lat="45.69616" lon="4.67426">
        <ele>309</ele>
        <time>2010-04-05T00:14:09Z</time>
      </trkpt>
      <trkpt lat="45.69643" lon="4.67428">
        <ele>310</ele>
        <time>2010-04-05T00:14:15Z</time>
      </trkpt>
      <trkpt lat="45.69662" lon="4.6742">
        <ele>312</ele>
        <time>2010-04-05T00:14:22Z</time>
      </trkpt>
      <trkpt lat="45.69681" lon="4.67412">
        <ele>312</ele>
        <time>2010-04-05T00:14:25Z</time>
      </trkpt>
      <trkpt lat="45.6969" lon="4.67408">
        <ele>312</ele>
        <time>2010-04-05T00:14:26Z</time>
      </trkpt>
      <trkpt lat="45.6969" lon="4.67408">
        <ele>313</ele>
        <time>2010-04-05T00:14:29Z</time>
      </trkpt>
      <trkpt lat="45.6969" lon="4.67408">
        <ele>313</ele>
        <time>2010-04-05T00:14:30Z</time>
      </trkpt>
      <trkpt lat="45.6969" lon="4.67408">
        <ele>314</ele>
        <time>2010-04-05T00:14:32Z</time>
      </trkpt>
      <trkpt lat="45.69712" lon="4.67415">
        <ele>314</ele>
        <time>2010-04-05T00:14:35Z</time>
      </trkpt>
      <trkpt lat="45.69719" lon="4.67418">
        <ele>314</ele>
        <time>2010-04-05T00:14:36Z</time>
      </trkpt>
      <trkpt lat="45.69719" lon="4.67418">
        <ele>314</ele>
        <time>2010-04-05T00:14:37Z</time>
      </trkpt>
      <trkpt lat="45.69719" lon="4.67418">
        <ele>314</ele>
        <time>2010-04-05T00:14:38Z</time>
      </trkpt>
      <trkpt lat="45.69729" lon="4.67421">
        <ele>314</ele>
        <time>2010-04-05T00:14:39Z</time>
      </trkpt>
      <trkpt lat="45.69729" lon="4.67422">
        <ele>314</ele>
        <time>2010-04-05T00:14:39Z</time>
      </trkpt>
      <trkpt lat="45.69733" lon="4.67428">
        <ele>314</ele>
        <time>2010-04-05T00:14:40Z</time>
      </trkpt>
      <trkpt lat="45.69733" lon="4.67428">
        <ele>314</ele>
        <time>2010-04-05T00:14:41Z</time>
      </trkpt>
      <trkpt lat="45.69738" lon="4.67435">
        <ele>314</ele>
        <time>2010-04-05T00:14:42Z</time>
      </trkpt>
      <trkpt lat="45.69738" lon="4.67435">
        <ele>315</ele>
        <time>2010-04-05T00:14:45Z</time>
      </trkpt>
      <trkpt lat="45.69746" lon="4.67444">
        <ele>315</ele>
        <time>2010-04-05T00:14:46Z</time>
      </trkpt>
      <trkpt lat="45.69751" lon="4.67451">
        <ele>315</ele>
        <time>2010-04-05T00:14:47Z</time>
      </trkpt>
      <trkpt lat="45.6976" lon="4.67455">
        <ele>315</ele>
        <time>2010-04-05T00:14:48Z</time>
      </trkpt>
      <trkpt lat="45.69767" lon="4.67455">
        <ele>315</ele>
        <time>2010-04-05T00:14:49Z</time>
      </trkpt>
      <trkpt lat="45.69774" lon="4.67455">
        <ele>315</ele>
        <time>2010-04-05T00:14:50Z</time>
      </trkpt>
      <trkpt lat="45.69779" lon="4.67455">
        <ele>315</ele>
        <time>2010-04-05T00:14:51Z</time>
      </trkpt>
      <trkpt lat="45.69779" lon="4.67455">
        <ele>315</ele>
        <time>2010-04-05T00:14:52Z</time>
      </trkpt>
      <trkpt lat="45.69786" lon="4.67455">
        <ele>315</ele>
        <time>2010-04-05T00:14:53Z</time>
      </trkpt>
      <trkpt lat="45.69788" lon="4.67455">
        <ele>315</ele>
        <time>2010-04-05T00:14:53Z</time>
      </trkpt>
      <trkpt lat="45.69788" lon="4.67455">
        <ele>315</ele>
        <time>2010-04-05T00:14:54Z</time>
      </trkpt>
      <trkpt lat="45.69789" lon="4.67455">
        <ele>316</ele>
        <time>2010-04-05T00:14:56Z</time>
      </trkpt>
      <trkpt lat="45.69789" lon="4.67455">
        <ele>317</ele>
        <time>2010-04-05T00:14:59Z</time>
      </trkpt>
      <trkpt lat="45.69814" lon="4.67455">
        <ele>317</ele>
        <time>2010-04-05T00:15:02Z</time>
      </trkpt>
      <trkpt lat="45.69815" lon="4.67455">
        <ele>317</ele>
        <time>2010-04-05T00:15:02Z</time>
      </trkpt>
      <trkpt lat="45.6982" lon="4.67455">
        <ele>317</ele>
        <time>2010-04-05T00:15:03Z</time>
      </trkpt>
      <trkpt lat="45.69832" lon="4.67454">
        <ele>317</ele>
        <time>2010-04-05T00:15:04Z</time>
      </trkpt>
      <trkpt lat="45.6984" lon="4.67453">
        <ele>317</ele>
        <time>2010-04-05T00:15:06Z</time>
      </trkpt>
      <trkpt lat="45.69851" lon="4.67453">
        <ele>317</ele>
        <time>2010-04-05T00:15:07Z</time>
      </trkpt>
      <trkpt lat="45.69861" lon="4.67452">
        <ele>317</ele>
        <time>2010-04-05T00:15:08Z</time>
      </trkpt>
      <trkpt lat="45.69872" lon="4.67452">
        <ele>317</ele>
        <time>2010-04-05T00:15:10Z</time>
      </trkpt>
      <trkpt lat="45.69878" lon="4.67451">
        <ele>317</ele>
        <time>2010-04-05T00:15:11Z</time>
      </trkpt>
      <trkpt lat="45.69878" lon="4.67451">
        <ele>317</ele>
        <time>2010-04-05T00:15:12Z</time>
      </trkpt>
      <trkpt lat="45.69879" lon="4.67451">
        <ele>318</ele>
        <time>2010-04-05T00:15:14Z</time>
      </trkpt>
      <trkpt lat="45.69905" lon="4.67437">
        <ele>319</ele>
        <time>2010-04-05T00:15:20Z</time>
      </trkpt>
      <trkpt lat="45.69923" lon="4.67428">
        <ele>319</ele>
        <time>2010-04-05T00:15:23Z</time>
      </trkpt>
      <trkpt lat="45.69944" lon="4.67419">
        <ele>319</ele>
        <time>2010-04-05T00:15:26Z</time>
      </trkpt>
      <trkpt lat="45.69953" lon="4.67415">
        <ele>319</ele>
        <time>2010-04-05T00:15:27Z</time>
      </trkpt>
      <trkpt lat="45.69965" lon="4.6741">
        <ele>319</ele>
        <time>2010-04-05T00:15:29Z</time>
      </trkpt>
      <trkpt lat="45.70001" lon="4.67408">
        <ele>319</ele>
        <time>2010-04-05T00:15:34Z</time>
      </trkpt>
      <trkpt lat="45.70022" lon="4.67404">
        <ele>319</ele>
        <time>2010-04-05T00:15:36Z</time>
      </trkpt>
      <trkpt lat="45.70035" lon="4.67402">
        <ele>319</ele>
        <time>2010-04-05T00:15:38Z</time>
      </trkpt>
      <trkpt lat="45.70068" lon="4.67397">
        <ele>319</ele>
        <time>2010-04-05T00:15:43Z</time>
      </trkpt>
      <trkpt lat="45.70116" lon="4.67384">
        <ele>320</ele>
        <time>2010-04-05T00:15:51Z</time>
      </trkpt>
      <trkpt lat="45.70153" lon="4.67373">
        <ele>321</ele>
        <time>2010-04-05T00:15:59Z</time>
      </trkpt>
      <trkpt lat="45.70195" lon="4.67362">
        <ele>322</ele>
        <time>2010-04-05T00:16:07Z</time>
      </trkpt>
      <trkpt lat="45.70197" lon="4.67361">
        <ele>322</ele>
        <time>2010-04-05T00:16:07Z</time>
      </trkpt>
      <trkpt lat="45.70264" lon="4.67352">
        <ele>322</ele>
        <time>2010-04-05T00:16:16Z</time>
      </trkpt>
      <trkpt lat="45.70291" lon="4.67348">
        <ele>320</ele>
        <time>2010-04-05T00:16:20Z</time>
      </trkpt>
      <trkpt lat="45.70291" lon="4.67348">
        <ele>319</ele>
        <time>2010-04-05T00:16:21Z</time>
      </trkpt>
      <trkpt lat="45.70347" lon="4.67331">
        <ele>317</ele>
        <time>2010-04-05T00:16:28Z</time>
      </trkpt>
      <trkpt lat="45.7037" lon="4.6731">
        <ele>315</ele>
        <time>2010-04-05T00:16:32Z</time>
      </trkpt>
      <trkpt lat="45.70376" lon="4.67291">
        <ele>314</ele>
        <time>2010-04-05T00:16:34Z</time>
      </trkpt>
      <trkpt lat="45.70383" lon="4.67272">
        <ele>313</ele>
        <time>2010-04-05T00:16:36Z</time>
      </trkpt>
      <trkpt lat="45.70398" lon="4.6723">
        <ele>311</ele>
        <time>2010-04-05T00:16:41Z</time>
      </trkpt>
      <trkpt lat="45.70421" lon="4.67214">
        <ele>310</ele>
        <time>2010-04-05T00:16:44Z</time>
      </trkpt>
      <trkpt lat="45.70437" lon="4.67211">
        <ele>311</ele>
        <time>2010-04-05T00:16:49Z</time>
      </trkpt>
      <trkpt lat="45.70437" lon="4.67211">
        <ele>311</ele>
        <time>2010-04-05T00:16:50Z</time>
      </trkpt>
      <trkpt lat="45.70489" lon="4.67211">
        <ele>312</ele>
        <time>2010-04-05T00:16:59Z</time>
      </trkpt>
      <trkpt lat="45.70509" lon="4.67211">
        <ele>314</ele>
        <time>2010-04-05T00:17:06Z</time>
      </trkpt>
      <trkpt lat="45.70529" lon="4.67211">
        <ele>317</ele>
        <time>2010-04-05T00:17:16Z</time>
      </trkpt>
      <trkpt lat="45.70536" lon="4.67211">
        <ele>318</ele>
        <time>2010-04-05T00:17:20Z</time>
      </trkpt>
      <trkpt lat="45.70536" lon="4.67211">
        <ele>320</ele>
        <time>2010-04-05T00:17:24Z</time>
      </trkpt>
      <trkpt lat="45.70576" lon="4.67211">
        <ele>322</ele>
        <time>2010-04-05T00:17:35Z</time>
      </trkpt>
      <trkpt lat="45.70582" lon="4.6721">
        <ele>323</ele>
        <time>2010-04-05T00:17:38Z</time>
      </trkpt>
      <trkpt lat="45.70607" lon="4.67206">
        <ele>326</ele>
        <time>2010-04-05T00:17:48Z</time>
      </trkpt>
      <trkpt lat="45.70641" lon="4.67201">
        <ele>329</ele>
        <time>2010-04-05T00:18:00Z</time>
      </trkpt>
      <trkpt lat="45.70656" lon="4.67198">
        <ele>331</ele>
        <time>2010-04-05T00:18:07Z</time>
      </trkpt>
      <trkpt lat="45.70688" lon="4.67195">
        <ele>333</ele>
        <time>2010-04-05T00:18:16Z</time>
      </trkpt>
      <trkpt lat="45.70715" lon="4.67192">
        <ele>335</ele>
        <time>2010-04-05T00:18:24Z</time>
      </trkpt>
      <trkpt lat="45.70746" lon="4.67189">
        <ele>338</ele>
        <time>2010-04-05T00:18:36Z</time>
      </trkpt>
      <trkpt lat="45.70791" lon="4.67188">
        <ele>338</ele>
        <time>2010-04-05T00:18:42Z</time>
      </trkpt>
      <trkpt lat="45.70799" lon="4.67188">
        <ele>338</ele>
        <time>2010-04-05T00:18:43Z</time>
      </trkpt>
      <trkpt lat="45.70832" lon="4.67187">
        <ele>336</ele>
        <time>2010-04-05T00:18:47Z</time>
      </trkpt>
      <trkpt lat="45.7086" lon="4.67186">
        <ele>335</ele>
        <time>2010-04-05T00:18:51Z</time>
      </trkpt>
      <trkpt lat="45.70879" lon="4.67185">
        <ele>333</ele>
        <time>2010-04-05T00:18:53Z</time>
      </trkpt>
      <trkpt lat="45.70915" lon="4.67173">
        <ele>331</ele>
        <time>2010-04-05T00:18:58Z</time>
      </trkpt>
      <trkpt lat="45.70925" lon="4.67169">
        <ele>330</ele>
        <time>2010-04-05T00:19:00Z</time>
      </trkpt>
      <trkpt lat="45.70943" lon="4.67161">
        <ele>329</ele>
        <time>2010-04-05T00:19:02Z</time>
      </trkpt>
      <trkpt lat="45.70992" lon="4.67142">
        <ele>326</ele>
        <time>2010-04-05T00:19:09Z</time>
      </trkpt>
      <trkpt lat="45.71006" lon="4.67143">
        <ele>325</ele>
        <time>2010-04-05T00:19:11Z</time>
      </trkpt>
      <trkpt lat="45.71051" lon="4.67146">
        <ele>325</ele>
        <time>2010-04-05T00:19:17Z</time>
      </trkpt>
      <trkpt lat="45.71088" lon="4.67143">
        <ele>327</ele>
        <time>2010-04-05T00:19:27Z</time>
      </trkpt>
      <trkpt lat="45.71113" lon="4.67139">
        <ele>329</ele>
        <time>2010-04-05T00:19:35Z</time>
      </trkpt>
      <trkpt lat="45.71141" lon="4.67134">
        <ele>330</ele>
        <time>2010-04-05T00:19:41Z</time>
      </trkpt>
      <trkpt lat="45.7118" lon="4.67128">
        <ele>331</ele>
        <time>2010-04-05T00:19:49Z</time>
      </trkpt>
      <trkpt lat="45.71218" lon="4.67122">
        <ele>331</ele>
        <time>2010-04-05T00:19:54Z</time>
      </trkpt>
      <trkpt lat="45.71263" lon="4.67116">
        <ele>332</ele>
        <time>2010-04-05T00:20:02Z</time>
      </trkpt>
      <trkpt lat="45.71305" lon="4.67113">
        <ele>332</ele>
        <time>2010-04-05T00:20:08Z</time>
      </trkpt>
      <trkpt lat="45.71338" lon="4.6711">
        <ele>332</ele>
        <time>2010-04-05T00:20:12Z</time>
      </trkpt>
      <trkpt lat="45.71388" lon="4.67106">
        <ele>333</ele>
        <time>2010-04-05T00:20:21Z</time>
      </trkpt>
      <trkpt lat="45.71438" lon="4.67094">
        <ele>334</ele>
        <time>2010-04-05T00:20:31Z</time>
      </trkpt>
      <trkpt lat="45.71455" lon="4.67087">
        <ele>335</ele>
        <time>2010-04-05T00:20:35Z</time>
      </trkpt>
      <trkpt lat="45.71486" lon="4.67074">
        <ele>337</ele>
        <time>2010-04-05T00:20:44Z</time>
      </trkpt>
      <trkpt lat="45.71497" lon="4.67069">
        <ele>338</ele>
        <time>2010-04-05T00:20:48Z</time>
      </trkpt>
      <trkpt lat="45.71497" lon="4.67069">
        <ele>338</ele>
        <time>2010-04-05T00:20:49Z</time>
      </trkpt>
      <trkpt lat="45.71544" lon="4.67052">
        <ele>337</ele>
        <time>2010-04-05T00:20:56Z</time>
      </trkpt>
      <trkpt lat="45.7157" lon="4.67046">
        <ele>336</ele>
        <time>2010-04-05T00:20:59Z</time>
      </trkpt>
      <trkpt lat="45.71587" lon="4.67043">
        <ele>335</ele>
        <time>2010-04-05T00:21:02Z</time>
      </trkpt>
      <trkpt lat="45.71629" lon="4.67059">
        <ele>336</ele>
        <time>2010-04-05T00:21:10Z</time>
      </trkpt>
      <trkpt lat="45.71655" lon="4.67075">
        <ele>337</ele>
        <time>2010-04-05T00:21:16Z</time>
      </trkpt>
      <trkpt lat="45.71692" lon="4.67096">
        <ele>335</ele>
        <time>2010-04-05T00:21:21Z</time>
      </trkpt>
      <trkpt lat="45.71726" lon="4.67116">
        <ele>330</ele>
        <time>2010-04-05T00:21:26Z</time>
      </trkpt>
      <trkpt lat="45.71743" lon="4.67127">
        <ele>328</ele>
        <time>2010-04-05T00:21:29Z</time>
      </trkpt>
      <trkpt lat="45.71777" lon="4.67137">
        <ele>325</ele>
        <time>2010-04-05T00:21:33Z</time>
      </trkpt>
      <trkpt lat="45.71819" lon="4.67132">
        <ele>322</ele>
        <time>2010-04-05T00:21:39Z</time>
      </trkpt>
      <trkpt lat="45.71828" lon="4.67131">
        <ele>322</ele>
        <time>2010-04-05T00:21:40Z</time>
      </trkpt>
      <trkpt lat="45.71891" lon="4.67121">
        <ele>319</ele>
        <time>2010-04-05T00:21:49Z</time>
      </trkpt>
      <trkpt lat="45.71942" lon="4.67125">
        <ele>317</ele>
        <time>2010-04-05T00:21:55Z</time>
      </trkpt>
      <trkpt lat="45.72" lon="4.67129">
        <ele>315</ele>
        <time>2010-04-05T00:22:03Z</time>
      </trkpt>
      <trkpt lat="45.72057" lon="4.67132">
        <ele>313</ele>
        <time>2010-04-05T00:22:11Z</time>
      </trkpt>
      <trkpt lat="45.72092" lon="4.67129">
        <ele>311</ele>
        <time>2010-04-05T00:22:16Z</time>
      </trkpt>
      <trkpt lat="45.72118" lon="4.67126">
        <ele>309</ele>
        <time>2010-04-05T00:22:19Z</time>
      </trkpt>
      <trkpt lat="45.72153" lon="4.67137">
        <ele>304</ele>
        <time>2010-04-05T00:22:24Z</time>
      </trkpt>
      <trkpt lat="45.7216" lon="4.67145">
        <ele>303</ele>
        <time>2010-04-05T00:22:25Z</time>
      </trkpt>
      <trkpt lat="45.72197" lon="4.67185">
        <ele>298</ele>
        <time>2010-04-05T00:22:31Z</time>
      </trkpt>
      <trkpt lat="45.72257" lon="4.67204">
        <ele>290</ele>
        <time>2010-04-05T00:22:39Z</time>
      </trkpt>
      <trkpt lat="45.72304" lon="4.67219">
        <ele>285</ele>
        <time>2010-04-05T00:22:46Z</time>
      </trkpt>
      <trkpt lat="45.72356" lon="4.6723">
        <ele>281</ele>
        <time>2010-04-05T00:22:53Z</time>
      </trkpt>
      <trkpt lat="45.72381" lon="4.67236">
        <ele>280</ele>
        <time>2010-04-05T00:22:56Z</time>
      </trkpt>
      <trkpt lat="45.72385" lon="4.67237">
        <ele>279</ele>
        <time>2010-04-05T00:22:57Z</time>
      </trkpt>
      <trkpt lat="45.72404" lon="4.67221">
        <ele>279</ele>
        <time>2010-04-05T00:23:00Z</time>
      </trkpt>
      <trkpt lat="45.7245" lon="4.67185">
        <ele>277</ele>
        <time>2010-04-05T00:23:07Z</time>
      </trkpt>
      <trkpt lat="45.72487" lon="4.67172">
        <ele>276</ele>
        <time>2010-04-05T00:23:12Z</time>
      </trkpt>
      <trkpt lat="45.72506" lon="4.67168">
        <ele>276</ele>
        <time>2010-04-05T00:23:14Z</time>
      </trkpt>
      <trkpt lat="45.72555" lon="4.67187">
        <ele>277</ele>
        <time>2010-04-05T00:23:24Z</time>
      </trkpt>
      <trkpt lat="45.726" lon="4.6722">
        <ele>280</ele>
        <time>2010-04-05T00:23:38Z</time>
      </trkpt>
      <trkpt lat="45.72627" lon="4.67239">
        <ele>281</ele>
        <time>2010-04-05T00:23:44Z</time>
      </trkpt>
      <trkpt lat="45.72652" lon="4.67257">
        <ele>284</ele>
        <time>2010-04-05T00:23:55Z</time>
      </trkpt>
      <trkpt lat="45.72669" lon="4.67272">
        <ele>285</ele>
        <time>2010-04-05T00:24:00Z</time>
      </trkpt>
      <trkpt lat="45.72689" lon="4.67289">
        <ele>287</ele>
        <time>2010-04-05T00:24:08Z</time>
      </trkpt>
      <trkpt lat="45.72722" lon="4.67317">
        <ele>290</ele>
        <time>2010-04-05T00:24:20Z</time>
      </trkpt>
      <trkpt lat="45.72744" lon="4.6734">
        <ele>293</ele>
        <time>2010-04-05T00:24:31Z</time>
      </trkpt>
      <trkpt lat="45.72762" lon="4.67365">
        <ele>294</ele>
        <time>2010-04-05T00:24:37Z</time>
      </trkpt>
      <trkpt lat="45.72769" lon="4.67384">
        <ele>296</ele>
        <time>2010-04-05T00:24:44Z</time>
      </trkpt>
      <trkpt lat="45.7278" lon="4.67414">
        <ele>297</ele>
        <time>2010-04-05T00:24:49Z</time>
      </trkpt>
      <trkpt lat="45.72796" lon="4.67456">
        <ele>300</ele>
        <time>2010-04-05T00:25:01Z</time>
      </trkpt>
      <trkpt lat="45.72815" lon="4.6748">
        <ele>302</ele>
        <time>2010-04-05T00:25:09Z</time>
      </trkpt>
      <trkpt lat="45.72832" lon="4.6749">
        <ele>302</ele>
        <time>2010-04-05T00:25:11Z</time>
      </trkpt>
      <trkpt lat="45.72852" lon="4.6749">
        <ele>303</ele>
        <time>2010-04-05T00:25:17Z</time>
      </trkpt>
      <trkpt lat="45.72879" lon="4.67469">
        <ele>304</ele>
        <time>2010-04-05T00:25:23Z</time>
      </trkpt>
      <trkpt lat="45.7291" lon="4.67445">
        <ele>307</ele>
        <time>2010-04-05T00:25:35Z</time>
      </trkpt>
      <trkpt lat="45.72935" lon="4.67427">
        <ele>309</ele>
        <time>2010-04-05T00:25:43Z</time>
      </trkpt>
      <trkpt lat="45.72962" lon="4.67409">
        <ele>311</ele>
        <time>2010-04-05T00:25:52Z</time>
      </trkpt>
      <trkpt lat="45.72989" lon="4.67391">
        <ele>313</ele>
        <time>2010-04-05T00:26:01Z</time>
      </trkpt>
      <trkpt lat="45.7302" lon="4.6737">
        <ele>315</ele>
        <time>2010-04-05T00:26:10Z</time>
      </trkpt>
      <trkpt lat="45.7304" lon="4.6735">
        <ele>316</ele>
        <time>2010-04-05T00:26:16Z</time>
      </trkpt>
      <trkpt lat="45.73042" lon="4.67348">
        <ele>318</ele>
        <time>2010-04-05T00:26:21Z</time>
      </trkpt>
      <trkpt lat="45.73077" lon="4.67296">
        <ele>320</ele>
        <time>2010-04-05T00:26:33Z</time>
      </trkpt>
      <trkpt lat="45.73098" lon="4.6729">
        <ele>321</ele>
        <time>2010-04-05T00:26:38Z</time>
      </trkpt>
      <trkpt lat="45.73126" lon="4.67287">
        <ele>324</ele>
        <time>2010-04-05T00:26:49Z</time>
      </trkpt>
      <trkpt lat="45.7315" lon="4.67284">
        <ele>326</ele>
        <time>2010-04-05T00:26:57Z</time>
      </trkpt>
      <trkpt lat="45.73192" lon="4.67279">
        <ele>329</ele>
        <time>2010-04-05T00:27:10Z</time>
      </trkpt>
      <trkpt lat="45.73192" lon="4.67279">
        <ele>330</ele>
        <time>2010-04-05T00:27:12Z</time>
      </trkpt>
      <trkpt lat="45.73238" lon="4.67274">
        <ele>332</ele>
        <time>2010-04-05T00:27:23Z</time>
      </trkpt>
      <trkpt lat="45.73257" lon="4.67272">
        <ele>334</ele>
        <time>2010-04-05T00:27:30Z</time>
      </trkpt>
      <trkpt lat="45.73266" lon="4.67271">
        <ele>335</ele>
        <time>2010-04-05T00:27:34Z</time>
      </trkpt>
      <trkpt lat="45.7327" lon="4.67258">
        <ele>335</ele>
        <time>2010-04-05T00:27:35Z</time>
      </trkpt>
      <trkpt lat="45.73272" lon="4.67246">
        <ele>335</ele>
        <time>2010-04-05T00:27:37Z</time>
      </trkpt>
      <trkpt lat="45.73274" lon="4.67221">
        <ele>335</ele>
        <time>2010-04-05T00:27:39Z</time>
      </trkpt>
      <trkpt lat="45.73306" lon="4.67194">
        <ele>337</ele>
        <time>2010-04-05T00:27:49Z</time>
      </trkpt>
      <trkpt lat="45.73323" lon="4.67177">
        <ele>338</ele>
        <time>2010-04-05T00:27:54Z</time>
      </trkpt>
      <trkpt lat="45.73352" lon="4.67147">
        <ele>340</ele>
        <time>2010-04-05T00:28:03Z</time>
      </trkpt>
      <trkpt lat="45.73368" lon="4.67129">
        <ele>342</ele>
        <time>2010-04-05T00:28:11Z</time>
      </trkpt>
      <trkpt lat="45.73401" lon="4.67091">
        <ele>344</ele>
        <time>2010-04-05T00:28:21Z</time>
      </trkpt>
      <trkpt lat="45.7342" lon="4.67069">
        <ele>345</ele>
        <time>2010-04-05T00:28:27Z</time>
      </trkpt>
      <trkpt lat="45.7345" lon="4.67039">
        <ele>347</ele>
        <time>2010-04-05T00:28:37Z</time>
      </trkpt>
      <trkpt lat="45.73475" lon="4.67013">
        <ele>349</ele>
        <time>2010-04-05T00:28:46Z</time>
      </trkpt>
      <trkpt lat="45.73499" lon="4.66986">
        <ele>351</ele>
        <time>2010-04-05T00:28:55Z</time>
      </trkpt>
      <trkpt lat="45.7352" lon="4.6696">
        <ele>352</ele>
        <time>2010-04-05T00:29:01Z</time>
      </trkpt>
      <trkpt lat="45.73531" lon="4.66932">
        <ele>354</ele>
        <time>2010-04-05T00:29:09Z</time>
      </trkpt>
      <trkpt lat="45.7354" lon="4.66897">
        <ele>355</ele>
        <time>2010-04-05T00:29:14Z</time>
      </trkpt>
      <trkpt lat="45.73543" lon="4.66863">
        <ele>356</ele>
        <time>2010-04-05T00:29:20Z</time>
      </trkpt>
      <trkpt lat="45.73544" lon="4.66827">
        <ele>358</ele>
        <time>2010-04-05T00:29:28Z</time>
      </trkpt>
      <trkpt lat="45.73535" lon="4.66803">
        <ele>359</ele>
        <time>2010-04-05T00:29:33Z</time>
      </trkpt>
      <trkpt lat="45.73517" lon="4.66788">
        <ele>360</ele>
        <time>2010-04-05T00:29:38Z</time>
      </trkpt>
      <trkpt lat="45.73494" lon="4.66768">
        <ele>362</ele>
        <time>2010-04-05T00:29:47Z</time>
      </trkpt>
      <trkpt lat="45.73465" lon="4.66745">
        <ele>364</ele>
        <time>2010-04-05T00:29:56Z</time>
      </trkpt>
      <trkpt lat="45.73454" lon="4.6673">
        <ele>365</ele>
        <time>2010-04-05T00:30:00Z</time>
      </trkpt>
      <trkpt lat="45.73425" lon="4.66689">
        <ele>367</ele>
        <time>2010-04-05T00:30:11Z</time>
      </trkpt>
      <trkpt lat="45.73404" lon="4.66659">
        <ele>369</ele>
        <time>2010-04-05T00:30:19Z</time>
      </trkpt>
      <trkpt lat="45.73385" lon="4.66628">
        <ele>371</ele>
        <time>2010-04-05T00:30:28Z</time>
      </trkpt>
      <trkpt lat="45.73375" lon="4.66589">
        <ele>373</ele>
        <time>2010-04-05T00:30:37Z</time>
      </trkpt>
      <trkpt lat="45.73373" lon="4.66551">
        <ele>374</ele>
        <time>2010-04-05T00:30:43Z</time>
      </trkpt>
      <trkpt lat="45.73381" lon="4.66517">
        <ele>376</ele>
        <time>2010-04-05T00:30:51Z</time>
      </trkpt>
      <trkpt lat="45.73399" lon="4.66489">
        <ele>377</ele>
        <time>2010-04-05T00:30:57Z</time>
      </trkpt>
      <trkpt lat="45.73432" lon="4.66447">
        <ele>380</ele>
        <time>2010-04-05T00:31:10Z</time>
      </trkpt>
      <trkpt lat="45.7345" lon="4.66425">
        <ele>381</ele>
        <time>2010-04-05T00:31:15Z</time>
      </trkpt>
      <trkpt lat="45.73473" lon="4.66373">
        <ele>382</ele>
        <time>2010-04-05T00:31:23Z</time>
      </trkpt>
      <trkpt lat="45.73486" lon="4.66325">
        <ele>382</ele>
        <time>2010-04-05T00:31:28Z</time>
      </trkpt>
      <trkpt lat="45.73502" lon="4.6626">
        <ele>384</ele>
        <time>2010-04-05T00:31:40Z</time>
      </trkpt>
      <trkpt lat="45.73516" lon="4.66212">
        <ele>385</ele>
        <time>2010-04-05T00:31:47Z</time>
      </trkpt>
      <trkpt lat="45.73531" lon="4.66183">
        <ele>387</ele>
        <time>2010-04-05T00:31:55Z</time>
      </trkpt>
      <trkpt lat="45.73546" lon="4.66158">
        <ele>389</ele>
        <time>2010-04-05T00:32:03Z</time>
      </trkpt>
      <trkpt lat="45.73563" lon="4.66137">
        <ele>391</ele>
        <time>2010-04-05T00:32:11Z</time>
      </trkpt>
      <trkpt lat="45.73598" lon="4.66086">
        <ele>392</ele>
        <time>2010-04-05T00:32:20Z</time>
      </trkpt>
      <trkpt lat="45.73627" lon="4.66046">
        <ele>392</ele>
        <time>2010-04-05T00:32:25Z</time>
      </trkpt>
      <trkpt lat="45.73648" lon="4.66021">
        <ele>390</ele>
        <time>2010-04-05T00:32:29Z</time>
      </trkpt>
      <trkpt lat="45.73656" lon="4.66012">
        <ele>390</ele>
        <time>2010-04-05T00:32:30Z</time>
      </trkpt>
      <trkpt lat="45.73673" lon="4.65992">
        <ele>390</ele>
        <time>2010-04-05T00:32:33Z</time>
      </trkpt>
      <trkpt lat="45.73699" lon="4.65984">
        <ele>394</ele>
        <time>2010-04-05T00:32:46Z</time>
      </trkpt>
      <trkpt lat="45.73705" lon="4.65986">
        <ele>395</ele>
        <time>2010-04-05T00:32:49Z</time>
      </trkpt>
      <trkpt lat="45.73717" lon="4.65996">
        <ele>397</ele>
        <time>2010-04-05T00:32:56Z</time>
      </trkpt>
      <trkpt lat="45.73725" lon="4.66003">
        <ele>399</ele>
        <time>2010-04-05T00:33:02Z</time>
      </trkpt>
      <trkpt lat="45.73772" lon="4.66019">
        <ele>400</ele>
        <time>2010-04-05T00:33:11Z</time>
      </trkpt>
      <trkpt lat="45.73722" lon="4.66">
        <ele>400</ele>
        <time>2010-04-05T00:33:18Z</time>
      </trkpt>
      <trkpt lat="45.73719" lon="4.65998">
        <ele>400</ele>
        <time>2010-04-05T00:33:18Z</time>
      </trkpt>
      <trkpt lat="45.73715" lon="4.65995">
        <ele>404</ele>
        <time>2010-04-05T00:33:28Z</time>
      </trkpt>
      <trkpt lat="45.73715" lon="4.65995">
        <ele>404</ele>
        <time>2010-04-05T00:33:29Z</time>
      </trkpt>
      <trkpt lat="45.73718" lon="4.65997">
        <ele>406</ele>
        <time>2010-04-05T00:33:35Z</time>
      </trkpt>
      <trkpt lat="45.73723" lon="4.66001">
        <ele>406</ele>
        <time>2010-04-05T00:33:35Z</time>
      </trkpt>
      <trkpt lat="45.73759" lon="4.66048">
        <ele>406</ele>
        <time>2010-04-05T00:33:42Z</time>
      </trkpt>
      <trkpt lat="45.73721" lon="4.66">
        <ele>405</ele>
        <time>2010-04-05T00:33:49Z</time>
      </trkpt>
      <trkpt lat="45.73701" lon="4.65985">
        <ele>401</ele>
        <time>2010-04-05T00:33:52Z</time>
      </trkpt>
      <trkpt lat="45.7369" lon="4.65989">
        <ele>398</ele>
        <time>2010-04-05T00:33:53Z</time>
      </trkpt>
      <trkpt lat="45.73686" lon="4.65992">
        <ele>398</ele>
        <time>2010-04-05T00:33:54Z</time>
      </trkpt>
      <trkpt lat="45.73675" lon="4.65988">
        <ele>397</ele>
        <time>2010-04-05T00:33:55Z</time>
      </trkpt>
      <trkpt lat="45.73677" lon="4.65984">
        <ele>397</ele>
        <time>2010-04-05T00:33:56Z</time>
      </trkpt>
      <trkpt lat="45.73686" lon="4.65965">
        <ele>397</ele>
        <time>2010-04-05T00:33:58Z</time>
      </trkpt>
      <trkpt lat="45.73699" lon="4.6594">
        <ele>397</ele>
        <time>2010-04-05T00:34:01Z</time>
      </trkpt>
      <trkpt lat="45.73718" lon="4.65901">
        <ele>398</ele>
        <time>2010-04-05T00:34:08Z</time>
      </trkpt>
      <trkpt lat="45.73729" lon="4.6588">
        <ele>398</ele>
        <time>2010-04-05T00:34:10Z</time>
      </trkpt>
      <trkpt lat="45.73765" lon="4.65847">
        <ele>400</ele>
        <time>2010-04-05T00:34:21Z</time>
      </trkpt>
      <trkpt lat="45.73788" lon="4.65825">
        <ele>400</ele>
        <time>2010-04-05T00:34:24Z</time>
      </trkpt>
      <trkpt lat="45.73793" lon="4.6582">
        <ele>400</ele>
        <time>2010-04-05T00:34:25Z</time>
      </trkpt>
      <trkpt lat="45.73794" lon="4.65804">
        <ele>400</ele>
        <time>2010-04-05T00:34:27Z</time>
      </trkpt>
      <trkpt lat="45.73795" lon="4.65794">
        <ele>400</ele>
        <time>2010-04-05T00:34:28Z</time>
      </trkpt>
      <trkpt lat="45.73797" lon="4.65759">
        <ele>401</ele>
        <time>2010-04-05T00:34:33Z</time>
      </trkpt>
      <trkpt lat="45.73801" lon="4.65711">
        <ele>402</ele>
        <time>2010-04-05T00:34:40Z</time>
      </trkpt>
      <trkpt lat="45.73801" lon="4.65681">
        <ele>402</ele>
        <time>2010-04-05T00:34:43Z</time>
      </trkpt>
      <trkpt lat="45.73801" lon="4.65662">
        <ele>401</ele>
        <time>2010-04-05T00:34:45Z</time>
      </trkpt>
      <trkpt lat="45.73813" lon="4.65623">
        <ele>400</ele>
        <time>2010-04-05T00:34:49Z</time>
      </trkpt>
      <trkpt lat="45.73828" lon="4.65592">
        <ele>400</ele>
        <time>2010-04-05T00:34:52Z</time>
      </trkpt>
      <trkpt lat="45.7383" lon="4.65557">
        <ele>399</ele>
        <time>2010-04-05T00:34:55Z</time>
      </trkpt>
      <trkpt lat="45.73827" lon="4.65522">
        <ele>399</ele>
        <time>2010-04-05T00:34:59Z</time>
      </trkpt>
      <trkpt lat="45.73827" lon="4.65509">
        <ele>399</ele>
        <time>2010-04-05T00:35:00Z</time>
      </trkpt>
      <trkpt lat="45.73828" lon="4.65461">
        <ele>400</ele>
        <time>2010-04-05T00:35:07Z</time>
      </trkpt>
      <trkpt lat="45.73833" lon="4.65427">
        <ele>400</ele>
        <time>2010-04-05T00:35:10Z</time>
      </trkpt>
      <trkpt lat="45.73835" lon="4.65414">
        <ele>400</ele>
        <time>2010-04-05T00:35:11Z</time>
      </trkpt>
      <trkpt lat="45.73848" lon="4.65383">
        <ele>401</ele>
        <time>2010-04-05T00:35:17Z</time>
      </trkpt>
      <trkpt lat="45.7387" lon="4.65363">
        <ele>402</ele>
        <time>2010-04-05T00:35:23Z</time>
      </trkpt>
      <trkpt lat="45.73907" lon="4.65353">
        <ele>405</ele>
        <time>2010-04-05T00:35:35Z</time>
      </trkpt>
      <trkpt lat="45.73926" lon="4.65348">
        <ele>407</ele>
        <time>2010-04-05T00:35:43Z</time>
      </trkpt>
      <trkpt lat="45.7397" lon="4.6534">
        <ele>409</ele>
        <time>2010-04-05T00:35:53Z</time>
      </trkpt>
      <trkpt lat="45.74" lon="4.6534">
        <ele>411</ele>
        <time>2010-04-05T00:36:02Z</time>
      </trkpt>
      <trkpt lat="45.74024" lon="4.65339">
        <ele>413</ele>
        <time>2010-04-05T00:36:10Z</time>
      </trkpt>
      <trkpt lat="45.74056" lon="4.65333">
        <ele>415</ele>
        <time>2010-04-05T00:36:19Z</time>
      </trkpt>
      <trkpt lat="45.74082" lon="4.65328">
        <ele>416</ele>
        <time>2010-04-05T00:36:25Z</time>
      </trkpt>
      <trkpt lat="45.7411" lon="4.65314">
        <ele>418</ele>
        <time>2010-04-05T00:36:34Z</time>
      </trkpt>
      <trkpt lat="45.74136" lon="4.65295">
        <ele>420</ele>
        <time>2010-04-05T00:36:43Z</time>
      </trkpt>
      <trkpt lat="45.74161" lon="4.65275">
        <ele>422</ele>
        <time>2010-04-05T00:36:51Z</time>
      </trkpt>
      <trkpt lat="45.74184" lon="4.65254">
        <ele>424</ele>
        <time>2010-04-05T00:37:00Z</time>
      </trkpt>
      <trkpt lat="45.74214" lon="4.65226">
        <ele>427</ele>
        <time>2010-04-05T00:37:12Z</time>
      </trkpt>
      <trkpt lat="45.74239" lon="4.65199">
        <ele>429</ele>
        <time>2010-04-05T00:37:21Z</time>
      </trkpt>
      <trkpt lat="45.74254" lon="4.65173">
        <ele>430</ele>
        <time>2010-04-05T00:37:26Z</time>
      </trkpt>
      <trkpt lat="45.7426" lon="4.65153">
        <ele>432</ele>
        <time>2010-04-05T00:37:33Z</time>
      </trkpt>
      <trkpt lat="45.74257" lon="4.65129">
        <ele>433</ele>
        <time>2010-04-05T00:37:38Z</time>
      </trkpt>
      <trkpt lat="45.74237" lon="4.65099">
        <ele>435</ele>
        <time>2010-04-05T00:37:46Z</time>
      </trkpt>
      <trkpt lat="45.74218" lon="4.65071">
        <ele>437</ele>
        <time>2010-04-05T00:37:55Z</time>
      </trkpt>
      <trkpt lat="45.74203" lon="4.65052">
        <ele>439</ele>
        <time>2010-04-05T00:38:02Z</time>
      </trkpt>
      <trkpt lat="45.74186" lon="4.6504">
        <ele>440</ele>
        <time>2010-04-05T00:38:07Z</time>
      </trkpt>
      <trkpt lat="45.7416" lon="4.6503">
        <ele>442</ele>
        <time>2010-04-05T00:38:15Z</time>
      </trkpt>
      <trkpt lat="45.74142" lon="4.65025">
        <ele>444</ele>
        <time>2010-04-05T00:38:23Z</time>
      </trkpt>
      <trkpt lat="45.74118" lon="4.65004">
        <ele>445</ele>
        <time>2010-04-05T00:38:29Z</time>
      </trkpt>
      <trkpt lat="45.74099" lon="4.64978">
        <ele>447</ele>
        <time>2010-04-05T00:38:37Z</time>
      </trkpt>
      <trkpt lat="45.74085" lon="4.64946">
        <ele>449</ele>
        <time>2010-04-05T00:38:46Z</time>
      </trkpt>
      <trkpt lat="45.74076" lon="4.6491">
        <ele>451</ele>
        <time>2010-04-05T00:38:54Z</time>
      </trkpt>
      <trkpt lat="45.7408" lon="4.64876">
        <ele>453</ele>
        <time>2010-04-05T00:39:02Z</time>
      </trkpt>
      <trkpt lat="45.74088" lon="4.64836">
        <ele>455</ele>
        <time>2010-04-05T00:39:11Z</time>
      </trkpt>
      <trkpt lat="45.74095" lon="4.64801">
        <ele>457</ele>
        <time>2010-04-05T00:39:19Z</time>
      </trkpt>
      <trkpt lat="45.74099" lon="4.64756">
        <ele>458</ele>
        <time>2010-04-05T00:39:25Z</time>
      </trkpt>
      <trkpt lat="45.74102" lon="4.64715">
        <ele>460</ele>
        <time>2010-04-05T00:39:34Z</time>
      </trkpt>
      <trkpt lat="45.74111" lon="4.64675">
        <ele>462</ele>
        <time>2010-04-05T00:39:43Z</time>
      </trkpt>
      <trkpt lat="45.74123" lon="4.64651">
        <ele>464</ele>
        <time>2010-04-05T00:39:50Z</time>
      </trkpt>
      <trkpt lat="45.74144" lon="4.64636">
        <ele>465</ele>
        <time>2010-04-05T00:39:56Z</time>
      </trkpt>
      <trkpt lat="45.74167" lon="4.64623">
        <ele>467</ele>
        <time>2010-04-05T00:40:04Z</time>
      </trkpt>
      <trkpt lat="45.74192" lon="4.64608">
        <ele>469</ele>
        <time>2010-04-05T00:40:12Z</time>
      </trkpt>
      <trkpt lat="45.74218" lon="4.64594">
        <ele>471</ele>
        <time>2010-04-05T00:40:21Z</time>
      </trkpt>
      <trkpt lat="45.74239" lon="4.6458">
        <ele>474</ele>
        <time>2010-04-05T00:40:31Z</time>
      </trkpt>
      <trkpt lat="45.74257" lon="4.64563">
        <ele>475</ele>
        <time>2010-04-05T00:40:36Z</time>
      </trkpt>
      <trkpt lat="45.74257" lon="4.64547">
        <ele>476</ele>
        <time>2010-04-05T00:40:40Z</time>
      </trkpt>
      <trkpt lat="45.74253" lon="4.6453">
        <ele>477</ele>
        <time>2010-04-05T00:40:44Z</time>
      </trkpt>
      <trkpt lat="45.74237" lon="4.64505">
        <ele>479</ele>
        <time>2010-04-05T00:40:52Z</time>
      </trkpt>
      <trkpt lat="45.74216" lon="4.64472">
        <ele>481</ele>
        <time>2010-04-05T00:41:01Z</time>
      </trkpt>
      <trkpt lat="45.74208" lon="4.64443">
        <ele>483</ele>
        <time>2010-04-05T00:41:09Z</time>
      </trkpt>
      <trkpt lat="45.74206" lon="4.64413">
        <ele>484</ele>
        <time>2010-04-05T00:41:14Z</time>
      </trkpt>
      <trkpt lat="45.74212" lon="4.64375">
        <ele>486</ele>
        <time>2010-04-05T00:41:23Z</time>
      </trkpt>
      <trkpt lat="45.74223" lon="4.64336">
        <ele>488</ele>
        <time>2010-04-05T00:41:31Z</time>
      </trkpt>
      <trkpt lat="45.74234" lon="4.643">
        <ele>490</ele>
        <time>2010-04-05T00:41:40Z</time>
      </trkpt>
      <trkpt lat="45.74247" lon="4.6427">
        <ele>492</ele>
        <time>2010-04-05T00:41:48Z</time>
      </trkpt>
      <trkpt lat="45.74265" lon="4.64253">
        <ele>494</ele>
        <time>2010-04-05T00:41:56Z</time>
      </trkpt>
      <trkpt lat="45.74289" lon="4.6424">
        <ele>496</ele>
        <time>2010-04-05T00:42:04Z</time>
      </trkpt>
      <trkpt lat="45.74314" lon="4.64221">
        <ele>497</ele>
        <time>2010-04-05T00:42:10Z</time>
      </trkpt>
      <trkpt lat="45.74329" lon="4.642">
        <ele>499</ele>
        <time>2010-04-05T00:42:18Z</time>
      </trkpt>
      <trkpt lat="45.74341" lon="4.6417">
        <ele>501</ele>
        <time>2010-04-05T00:42:26Z</time>
      </trkpt>
      <trkpt lat="45.74337" lon="4.64146">
        <ele>502</ele>
        <time>2010-04-05T00:42:30Z</time>
      </trkpt>
      <trkpt lat="45.74327" lon="4.6411">
        <ele>503</ele>
        <time>2010-04-05T00:42:36Z</time>
      </trkpt>
      <trkpt lat="45.74316" lon="4.6407">
        <ele>505</ele>
        <time>2010-04-05T00:42:45Z</time>
      </trkpt>
      <trkpt lat="45.74304" lon="4.64027">
        <ele>507</ele>
        <time>2010-04-05T00:42:54Z</time>
      </trkpt>
      <trkpt lat="45.74294" lon="4.63992">
        <ele>509</ele>
        <time>2010-04-05T00:43:03Z</time>
      </trkpt>
      <trkpt lat="45.74285" lon="4.63949">
        <ele>511</ele>
        <time>2010-04-05T00:43:12Z</time>
      </trkpt>
      <trkpt lat="45.74283" lon="4.63917">
        <ele>513</ele>
        <time>2010-04-05T00:43:19Z</time>
      </trkpt>
      <trkpt lat="45.74287" lon="4.63873">
        <ele>515</ele>
        <time>2010-04-05T00:43:28Z</time>
      </trkpt>
      <trkpt lat="45.74294" lon="4.63832">
        <ele>516</ele>
        <time>2010-04-05T00:43:35Z</time>
      </trkpt>
      <trkpt lat="45.74302" lon="4.63794">
        <ele>519</ele>
        <time>2010-04-05T00:43:46Z</time>
      </trkpt>
      <trkpt lat="45.74315" lon="4.63775">
        <ele>520</ele>
        <time>2010-04-05T00:43:50Z</time>
      </trkpt>
      <trkpt lat="45.74341" lon="4.63749">
        <ele>522</ele>
        <time>2010-04-05T00:44:00Z</time>
      </trkpt>
      <trkpt lat="45.74371" lon="4.63733">
        <ele>525</ele>
        <time>2010-04-05T00:44:11Z</time>
      </trkpt>
      <trkpt lat="45.74393" lon="4.63726">
        <ele>527</ele>
        <time>2010-04-05T00:44:19Z</time>
      </trkpt>
      <trkpt lat="45.74429" lon="4.63726">
        <ele>529</ele>
        <time>2010-04-05T00:44:28Z</time>
      </trkpt>
      <trkpt lat="45.74461" lon="4.63726">
        <ele>530</ele>
        <time>2010-04-05T00:44:35Z</time>
      </trkpt>
      <trkpt lat="45.74489" lon="4.63721">
        <ele>532</ele>
        <time>2010-04-05T00:44:44Z</time>
      </trkpt>
      <trkpt lat="45.74511" lon="4.6371">
        <ele>533</ele>
        <time>2010-04-05T00:44:49Z</time>
      </trkpt>
      <trkpt lat="45.74542" lon="4.63695">
        <ele>535</ele>
        <time>2010-04-05T00:44:58Z</time>
      </trkpt>
      <trkpt lat="45.74568" lon="4.63686">
        <ele>538</ele>
        <time>2010-04-05T00:45:09Z</time>
      </trkpt>
      <trkpt lat="45.7459" lon="4.63682">
        <ele>539</ele>
        <time>2010-04-05T00:45:14Z</time>
      </trkpt>
      <trkpt lat="45.74616" lon="4.63676">
        <ele>541</ele>
        <time>2010-04-05T00:45:23Z</time>
      </trkpt>
      <trkpt lat="45.74629" lon="4.63659">
        <ele>543</ele>
        <time>2010-04-05T00:45:30Z</time>
      </trkpt>
      <trkpt lat="45.74634" lon="4.63637">
        <ele>544</ele>
        <time>2010-04-05T00:45:34Z</time>
      </trkpt>
      <trkpt lat="45.74634" lon="4.63602">
        <ele>545</ele>
        <time>2010-04-05T00:45:40Z</time>
      </trkpt>
      <trkpt lat="45.74638" lon="4.63572">
        <ele>547</ele>
        <time>2010-04-05T00:45:48Z</time>
      </trkpt>
      <trkpt lat="45.74651" lon="4.63539">
        <ele>548</ele>
        <time>2010-04-05T00:45:54Z</time>
      </trkpt>
      <trkpt lat="45.74673" lon="4.6352">
        <ele>550</ele>
        <time>2010-04-05T00:46:02Z</time>
      </trkpt>
      <trkpt lat="45.74694" lon="4.63516">
        <ele>552</ele>
        <time>2010-04-05T00:46:10Z</time>
      </trkpt>
      <trkpt lat="45.74729" lon="4.6352">
        <ele>554</ele>
        <time>2010-04-05T00:46:19Z</time>
      </trkpt>
      <trkpt lat="45.74759" lon="4.63523">
        <ele>556</ele>
        <time>2010-04-05T00:46:28Z</time>
      </trkpt>
      <trkpt lat="45.7478" lon="4.6352">
        <ele>558</ele>
        <time>2010-04-05T00:46:36Z</time>
      </trkpt>
      <trkpt lat="45.74803" lon="4.63506">
        <ele>559</ele>
        <time>2010-04-05T00:46:41Z</time>
      </trkpt>
      <trkpt lat="45.74831" lon="4.63481">
        <ele>562</ele>
        <time>2010-04-05T00:46:53Z</time>
      </trkpt>
      <trkpt lat="45.74861" lon="4.63462">
        <ele>564</ele>
        <time>2010-04-05T00:47:02Z</time>
      </trkpt>
      <trkpt lat="45.74892" lon="4.63445">
        <ele>566</ele>
        <time>2010-04-05T00:47:11Z</time>
      </trkpt>
      <trkpt lat="45.74919" lon="4.63433">
        <ele>568</ele>
        <time>2010-04-05T00:47:20Z</time>
      </trkpt>
      <trkpt lat="45.74944" lon="4.63429">
        <ele>570</ele>
        <time>2010-04-05T00:47:28Z</time>
      </trkpt>
      <trkpt lat="45.74953" lon="4.63414">
        <ele>571</ele>
        <time>2010-04-05T00:47:32Z</time>
      </trkpt>
      <trkpt lat="45.7496" lon="4.63394">
        <ele>572</ele>
        <time>2010-04-05T00:47:37Z</time>
      </trkpt>
      <trkpt lat="45.74958" lon="4.63366">
        <ele>574</ele>
        <time>2010-04-05T00:47:44Z</time>
      </trkpt>
      <trkpt lat="45.74953" lon="4.63337">
        <ele>575</ele>
        <time>2010-04-05T00:47:49Z</time>
      </trkpt>
      <trkpt lat="45.74947" lon="4.63304">
        <ele>577</ele>
        <time>2010-04-05T00:47:57Z</time>
      </trkpt>
      <trkpt lat="45.7494" lon="4.63261">
        <ele>579</ele>
        <time>2010-04-05T00:48:06Z</time>
      </trkpt>
      <trkpt lat="45.74934" lon="4.6323">
        <ele>580</ele>
        <time>2010-04-05T00:48:12Z</time>
      </trkpt>
      <trkpt lat="45.7493" lon="4.63196">
        <ele>581</ele>
        <time>2010-04-05T00:48:17Z</time>
      </trkpt>
      <trkpt lat="45.74935" lon="4.63158">
        <ele>583</ele>
        <time>2010-04-05T00:48:26Z</time>
      </trkpt>
      <trkpt lat="45.74944" lon="4.63128">
        <ele>586</ele>
        <time>2010-04-05T00:48:36Z</time>
      </trkpt>
      <trkpt lat="45.74956" lon="4.63095">
        <ele>587</ele>
        <time>2010-04-05T00:48:42Z</time>
      </trkpt>
      <trkpt lat="45.7497" lon="4.63062">
        <ele>589</ele>
        <time>2010-04-05T00:48:50Z</time>
      </trkpt>
      <trkpt lat="45.74989" lon="4.6303">
        <ele>590</ele>
        <time>2010-04-05T00:48:56Z</time>
      </trkpt>
      <trkpt lat="45.75012" lon="4.62998">
        <ele>593</ele>
        <time>2010-04-05T00:49:08Z</time>
      </trkpt>
      <trkpt lat="45.75036" lon="4.62965">
        <ele>595</ele>
        <time>2010-04-05T00:49:17Z</time>
      </trkpt>
      <trkpt lat="45.75045" lon="4.62943">
        <ele>596</ele>
        <time>2010-04-05T00:49:22Z</time>
      </trkpt>
      <trkpt lat="45.75049" lon="4.62915">
        <ele>597</ele>
        <time>2010-04-05T00:49:27Z</time>
      </trkpt>
      <trkpt lat="45.75054" lon="4.6288">
        <ele>599</ele>
        <time>2010-04-05T00:49:35Z</time>
      </trkpt>
      <trkpt lat="45.75058" lon="4.62842">
        <ele>601</ele>
        <time>2010-04-05T00:49:44Z</time>
      </trkpt>
      <trkpt lat="45.75065" lon="4.62799">
        <ele>603</ele>
        <time>2010-04-05T00:49:52Z</time>
      </trkpt>
      <trkpt lat="45.75077" lon="4.62764">
        <ele>605</ele>
        <time>2010-04-05T00:50:01Z</time>
      </trkpt>
      <trkpt lat="45.75097" lon="4.62725">
        <ele>607</ele>
        <time>2010-04-05T00:50:10Z</time>
      </trkpt>
      <trkpt lat="45.75118" lon="4.6269">
        <ele>608</ele>
        <time>2010-04-05T00:50:17Z</time>
      </trkpt>
      <trkpt lat="45.75132" lon="4.62666">
        <ele>610</ele>
        <time>2010-04-05T00:50:25Z</time>
      </trkpt>
      <trkpt lat="45.75146" lon="4.62639">
        <ele>611</ele>
        <time>2010-04-05T00:50:30Z</time>
      </trkpt>
      <trkpt lat="45.75155" lon="4.62601">
        <ele>613</ele>
        <time>2010-04-05T00:50:39Z</time>
      </trkpt>
      <trkpt lat="45.75161" lon="4.62559">
        <ele>614</ele>
        <time>2010-04-05T00:50:45Z</time>
      </trkpt>
      <trkpt lat="45.75166" lon="4.62517">
        <ele>616</ele>
        <time>2010-04-05T00:50:54Z</time>
      </trkpt>
      <trkpt lat="45.75172" lon="4.62477">
        <ele>617</ele>
        <time>2010-04-05T00:51:00Z</time>
      </trkpt>
      <trkpt lat="45.75173" lon="4.62442">
        <ele>618</ele>
        <time>2010-04-05T00:51:06Z</time>
      </trkpt>
      <trkpt lat="45.7516" lon="4.62432">
        <ele>620</ele>
        <time>2010-04-05T00:51:13Z</time>
      </trkpt>
      <trkpt lat="45.75149" lon="4.6243">
        <ele>620</ele>
        <time>2010-04-05T00:51:14Z</time>
      </trkpt>
      <trkpt lat="45.75136" lon="4.62443">
        <ele>621</ele>
        <time>2010-04-05T00:51:19Z</time>
      </trkpt>
      <trkpt lat="45.75129" lon="4.62455">
        <ele>622</ele>
        <time>2010-04-05T00:51:22Z</time>
      </trkpt>
      <trkpt lat="45.75122" lon="4.62467">
        <ele>623</ele>
        <time>2010-04-05T00:51:26Z</time>
      </trkpt>
      <trkpt lat="45.7511" lon="4.62487">
        <ele>625</ele>
        <time>2010-04-05T00:51:34Z</time>
      </trkpt>
      <trkpt lat="45.75096" lon="4.62511">
        <ele>626</ele>
        <time>2010-04-05T00:51:39Z</time>
      </trkpt>
      <trkpt lat="45.75083" lon="4.62528">
        <ele>627</ele>
        <time>2010-04-05T00:51:44Z</time>
      </trkpt>
      <trkpt lat="45.75065" lon="4.62548">
        <ele>629</ele>
        <time>2010-04-05T00:51:51Z</time>
      </trkpt>
      <trkpt lat="45.75043" lon="4.62563">
        <ele>631</ele>
        <time>2010-04-05T00:52:00Z</time>
      </trkpt>
      <trkpt lat="45.75017" lon="4.62579">
        <ele>633</ele>
        <time>2010-04-05T00:52:08Z</time>
      </trkpt>
      <trkpt lat="45.7499" lon="4.6259">
        <ele>634</ele>
        <time>2010-04-05T00:52:14Z</time>
      </trkpt>
      <trkpt lat="45.74957" lon="4.62601">
        <ele>636</ele>
        <time>2010-04-05T00:52:24Z</time>
      </trkpt>
      <trkpt lat="45.74931" lon="4.62609">
        <ele>638</ele>
        <time>2010-04-05T00:52:32Z</time>
      </trkpt>
      <trkpt lat="45.74902" lon="4.62618">
        <ele>641</ele>
        <time>2010-04-05T00:52:43Z</time>
      </trkpt>
      <trkpt lat="45.74876" lon="4.62619">
        <ele>643</ele>
        <time>2010-04-05T00:52:51Z</time>
      </trkpt>
      <trkpt lat="45.74853" lon="4.62615">
        <ele>644</ele>
        <time>2010-04-05T00:52:57Z</time>
      </trkpt>
      <trkpt lat="45.74838" lon="4.626">
        <ele>645</ele>
        <time>2010-04-05T00:53:02Z</time>
      </trkpt>
      <trkpt lat="45.74825" lon="4.62569">
        <ele>647</ele>
        <time>2010-04-05T00:53:10Z</time>
      </trkpt>
      <trkpt lat="45.74815" lon="4.62528">
        <ele>649</ele>
        <time>2010-04-05T00:53:19Z</time>
      </trkpt>
      <trkpt lat="45.74813" lon="4.6248">
        <ele>651</ele>
        <time>2010-04-05T00:53:28Z</time>
      </trkpt>
      <trkpt lat="45.74812" lon="4.62442">
        <ele>653</ele>
        <time>2010-04-05T00:53:36Z</time>
      </trkpt>
      <trkpt lat="45.74811" lon="4.62406">
        <ele>655</ele>
        <time>2010-04-05T00:53:44Z</time>
      </trkpt>
      <trkpt lat="45.74813" lon="4.62356">
        <ele>657</ele>
        <time>2010-04-05T00:53:54Z</time>
      </trkpt>
      <trkpt lat="45.74818" lon="4.62312">
        <ele>659</ele>
        <time>2010-04-05T00:54:03Z</time>
      </trkpt>
      <trkpt lat="45.74823" lon="4.6228">
        <ele>661</ele>
        <time>2010-04-05T00:54:11Z</time>
      </trkpt>
      <trkpt lat="45.74834" lon="4.62231">
        <ele>663</ele>
        <time>2010-04-05T00:54:20Z</time>
      </trkpt>
      <trkpt lat="45.74842" lon="4.62197">
        <ele>665</ele>
        <time>2010-04-05T00:54:28Z</time>
      </trkpt>
      <trkpt lat="45.74851" lon="4.62155">
        <ele>667</ele>
        <time>2010-04-05T00:54:37Z</time>
      </trkpt>
      <trkpt lat="45.74865" lon="4.62117">
        <ele>668</ele>
        <time>2010-04-05T00:54:44Z</time>
      </trkpt>
      <trkpt lat="45.74878" lon="4.6209">
        <ele>669</ele>
        <time>2010-04-05T00:54:49Z</time>
      </trkpt>
      <trkpt lat="45.74895" lon="4.62058">
        <ele>672</ele>
        <time>2010-04-05T00:55:00Z</time>
      </trkpt>
      <trkpt lat="45.74908" lon="4.62031">
        <ele>673</ele>
        <time>2010-04-05T00:55:06Z</time>
      </trkpt>
      <trkpt lat="45.74926" lon="4.61987">
        <ele>676</ele>
        <time>2010-04-05T00:55:18Z</time>
      </trkpt>
      <trkpt lat="45.7494" lon="4.61947">
        <ele>678</ele>
        <time>2010-04-05T00:55:27Z</time>
      </trkpt>
      <trkpt lat="45.74949" lon="4.6192">
        <ele>680</ele>
        <time>2010-04-05T00:55:34Z</time>
      </trkpt>
      <trkpt lat="45.7496" lon="4.61876">
        <ele>681</ele>
        <time>2010-04-05T00:55:41Z</time>
      </trkpt>
      <trkpt lat="45.7497" lon="4.61843">
        <ele>683</ele>
        <time>2010-04-05T00:55:49Z</time>
      </trkpt>
      <trkpt lat="45.74976" lon="4.61821">
        <ele>684</ele>
        <time>2010-04-05T00:55:54Z</time>
      </trkpt>
      <trkpt lat="45.74984" lon="4.6179">
        <ele>686</ele>
        <time>2010-04-05T00:56:02Z</time>
      </trkpt>
      <trkpt lat="45.74992" lon="4.61763">
        <ele>687</ele>
        <time>2010-04-05T00:56:07Z</time>
      </trkpt>
      <trkpt lat="45.74999" lon="4.61737">
        <ele>688</ele>
        <time>2010-04-05T00:56:12Z</time>
      </trkpt>
      <trkpt lat="45.75005" lon="4.61715">
        <ele>690</ele>
        <time>2010-04-05T00:56:19Z</time>
      </trkpt>
      <trkpt lat="45.75011" lon="4.61684">
        <ele>691</ele>
        <time>2010-04-05T00:56:24Z</time>
      </trkpt>
      <trkpt lat="45.75018" lon="4.6164">
        <ele>693</ele>
        <time>2010-04-05T00:56:33Z</time>
      </trkpt>
      <trkpt lat="45.7503" lon="4.6161">
        <ele>695</ele>
        <time>2010-04-05T00:56:41Z</time>
      </trkpt>
      <trkpt lat="45.75044" lon="4.61575">
        <ele>696</ele>
        <time>2010-04-05T00:56:47Z</time>
      </trkpt>
      <trkpt lat="45.75055" lon="4.61547">
        <ele>698</ele>
        <time>2010-04-05T00:56:55Z</time>
      </trkpt>
      <trkpt lat="45.75067" lon="4.61515">
        <ele>699</ele>
        <time>2010-04-05T00:57:01Z</time>
      </trkpt>
      <trkpt lat="45.75075" lon="4.61477">
        <ele>701</ele>
        <time>2010-04-05T00:57:09Z</time>
      </trkpt>
      <trkpt lat="45.75081" lon="4.61433">
        <ele>703</ele>
        <time>2010-04-05T00:57:18Z</time>
      </trkpt>
      <trkpt lat="45.75085" lon="4.61402">
        <ele>705</ele>
        <time>2010-04-05T00:57:26Z</time>
      </trkpt>
      <trkpt lat="45.75089" lon="4.61366">
        <ele>707</ele>
        <time>2010-04-05T00:57:34Z</time>
      </trkpt>
      <trkpt lat="45.75089" lon="4.61326">
        <ele>708</ele>
        <time>2010-04-05T00:57:40Z</time>
      </trkpt>
      <trkpt lat="45.75082" lon="4.61301">
        <ele>710</ele>
        <time>2010-04-05T00:57:48Z</time>
      </trkpt>
      <trkpt lat="45.75072" lon="4.61275">
        <ele>711</ele>
        <time>2010-04-05T00:57:53Z</time>
      </trkpt>
      <trkpt lat="45.75057" lon="4.61259">
        <ele>713</ele>
        <time>2010-04-05T00:58:00Z</time>
      </trkpt>
      <trkpt lat="45.75042" lon="4.61242">
        <ele>714</ele>
        <time>2010-04-05T00:58:05Z</time>
      </trkpt>
      <trkpt lat="45.75027" lon="4.61214">
        <ele>716</ele>
        <time>2010-04-05T00:58:13Z</time>
      </trkpt>
      <trkpt lat="45.75005" lon="4.61198">
        <ele>717</ele>
        <time>2010-04-05T00:58:19Z</time>
      </trkpt>
      <trkpt lat="45.74993" lon="4.61189">
        <ele>718</ele>
        <time>2010-04-05T00:58:23Z</time>
      </trkpt>
      <trkpt lat="45.74976" lon="4.6118">
        <ele>720</ele>
        <time>2010-04-05T00:58:30Z</time>
      </trkpt>
      <trkpt lat="45.7496" lon="4.61178">
        <ele>721</ele>
        <time>2010-04-05T00:58:35Z</time>
      </trkpt>
      <trkpt lat="45.74949" lon="4.61178">
        <ele>722</ele>
        <time>2010-04-05T00:58:39Z</time>
      </trkpt>
      <trkpt lat="45.74929" lon="4.61187">
        <ele>723</ele>
        <time>2010-04-05T00:58:44Z</time>
      </trkpt>
      <trkpt lat="45.74907" lon="4.61197">
        <ele>724</ele>
        <time>2010-04-05T00:58:50Z</time>
      </trkpt>
      <trkpt lat="45.74886" lon="4.61206">
        <ele>726</ele>
        <time>2010-04-05T00:58:57Z</time>
      </trkpt>
      <trkpt lat="45.74863" lon="4.61211">
        <ele>728</ele>
        <time>2010-04-05T00:59:05Z</time>
      </trkpt>
      <trkpt lat="45.74848" lon="4.61211">
        <ele>729</ele>
        <time>2010-04-05T00:59:09Z</time>
      </trkpt>
      <trkpt lat="45.74825" lon="4.61205">
        <ele>730</ele>
        <time>2010-04-05T00:59:15Z</time>
      </trkpt>
      <trkpt lat="45.74809" lon="4.61196">
        <ele>731</ele>
        <time>2010-04-05T00:59:20Z</time>
      </trkpt>
      <trkpt lat="45.74797" lon="4.6119">
        <ele>732</ele>
        <time>2010-04-05T00:59:24Z</time>
      </trkpt>
      <trkpt lat="45.74797" lon="4.6119">
        <ele>732</ele>
        <time>2010-04-05T00:59:25Z</time>
      </trkpt>
      <trkpt lat="45.74772" lon="4.61164">
        <ele>733</ele>
        <time>2010-04-05T00:59:31Z</time>
      </trkpt>
      <trkpt lat="45.74772" lon="4.61183">
        <ele>733</ele>
        <time>2010-04-05T00:59:33Z</time>
      </trkpt>
      <trkpt lat="45.74769" lon="4.61189">
        <ele>733</ele>
        <time>2010-04-05T00:59:34Z</time>
      </trkpt>
      <trkpt lat="45.74765" lon="4.612">
        <ele>734</ele>
        <time>2010-04-05T00:59:37Z</time>
      </trkpt>
      <trkpt lat="45.74758" lon="4.61215">
        <ele>734</ele>
        <time>2010-04-05T00:59:39Z</time>
      </trkpt>
      <trkpt lat="45.74754" lon="4.61224">
        <ele>735</ele>
        <time>2010-04-05T00:59:42Z</time>
      </trkpt>
      <trkpt lat="45.7473" lon="4.61252">
        <ele>736</ele>
        <time>2010-04-05T00:59:49Z</time>
      </trkpt>
      <trkpt lat="45.74713" lon="4.61271">
        <ele>738</ele>
        <time>2010-04-05T00:59:57Z</time>
      </trkpt>
      <trkpt lat="45.74695" lon="4.61291">
        <ele>739</ele>
        <time>2010-04-05T01:00:02Z</time>
      </trkpt>
      <trkpt lat="45.74671" lon="4.61309">
        <ele>741</ele>
        <time>2010-04-05T01:00:11Z</time>
      </trkpt>
      <trkpt lat="45.74648" lon="4.6132">
        <ele>743</ele>
        <time>2010-04-05T01:00:19Z</time>
      </trkpt>
      <trkpt lat="45.74616" lon="4.61324">
        <ele>745</ele>
        <time>2010-04-05T01:00:28Z</time>
      </trkpt>
      <trkpt lat="45.74582" lon="4.61329">
        <ele>747</ele>
        <time>2010-04-05T01:00:37Z</time>
      </trkpt>
      <trkpt lat="45.74554" lon="4.61332">
        <ele>749</ele>
        <time>2010-04-05T01:00:46Z</time>
      </trkpt>
      <trkpt lat="45.74527" lon="4.61336">
        <ele>751</ele>
        <time>2010-04-05T01:00:54Z</time>
      </trkpt>
      <trkpt lat="45.74507" lon="4.61339">
        <ele>752</ele>
        <time>2010-04-05T01:00:59Z</time>
      </trkpt>
      <trkpt lat="45.74475" lon="4.61347">
        <ele>754</ele>
        <time>2010-04-05T01:01:08Z</time>
      </trkpt>
      <trkpt lat="45.7445" lon="4.61356">
        <ele>756</ele>
        <time>2010-04-05T01:01:17Z</time>
      </trkpt>
      <trkpt lat="45.74429" lon="4.61353">
        <ele>758</ele>
        <time>2010-04-05T01:01:24Z</time>
      </trkpt>
      <trkpt lat="45.7441" lon="4.61342">
        <ele>759</ele>
        <time>2010-04-05T01:01:29Z</time>
      </trkpt>
      <trkpt lat="45.74392" lon="4.61327">
        <ele>761</ele>
        <time>2010-04-05T01:01:37Z</time>
      </trkpt>
      <trkpt lat="45.74376" lon="4.61302">
        <ele>763</ele>
        <time>2010-04-05T01:01:45Z</time>
      </trkpt>
      <trkpt lat="45.74355" lon="4.61271">
        <ele>765</ele>
        <time>2010-04-05T01:01:54Z</time>
      </trkpt>
      <trkpt lat="45.74338" lon="4.6126">
        <ele>766</ele>
        <time>2010-04-05T01:01:58Z</time>
      </trkpt>
      <trkpt lat="45.74314" lon="4.61251">
        <ele>767</ele>
        <time>2010-04-05T01:02:04Z</time>
      </trkpt>
      <trkpt lat="45.74287" lon="4.61246">
        <ele>769</ele>
        <time>2010-04-05T01:02:13Z</time>
      </trkpt>
      <trkpt lat="45.74261" lon="4.61242">
        <ele>771</ele>
        <time>2010-04-05T01:02:21Z</time>
      </trkpt>
      <trkpt lat="45.74233" lon="4.61238">
        <ele>773</ele>
        <time>2010-04-05T01:02:29Z</time>
      </trkpt>
      <trkpt lat="45.74208" lon="4.61244">
        <ele>775</ele>
        <time>2010-04-05T01:02:38Z</time>
      </trkpt>
      <trkpt lat="45.7418" lon="4.61252">
        <ele>776</ele>
        <time>2010-04-05T01:02:44Z</time>
      </trkpt>
      <trkpt lat="45.74156" lon="4.61259">
        <ele>778</ele>
        <time>2010-04-05T01:02:52Z</time>
      </trkpt>
      <trkpt lat="45.74134" lon="4.61266">
        <ele>779</ele>
        <time>2010-04-05T01:02:57Z</time>
      </trkpt>
      <trkpt lat="45.74112" lon="4.61275">
        <ele>780</ele>
        <time>2010-04-05T01:03:03Z</time>
      </trkpt>
      <trkpt lat="45.74093" lon="4.61283">
        <ele>782</ele>
        <time>2010-04-05T01:03:10Z</time>
      </trkpt>
      <trkpt lat="45.7407" lon="4.61292">
        <ele>784</ele>
        <time>2010-04-05T01:03:18Z</time>
      </trkpt>
      <trkpt lat="45.74044" lon="4.61303">
        <ele>786</ele>
        <time>2010-04-05T01:03:27Z</time>
      </trkpt>
      <trkpt lat="45.74025" lon="4.61311">
        <ele>787</ele>
        <time>2010-04-05T01:03:32Z</time>
      </trkpt>
      <trkpt lat="45.74013" lon="4.61316">
        <ele>788</ele>
        <time>2010-04-05T01:03:36Z</time>
      </trkpt>
      <trkpt lat="45.73997" lon="4.61319">
        <ele>790</ele>
        <time>2010-04-05T01:03:43Z</time>
      </trkpt>
      <trkpt lat="45.73983" lon="4.61319">
        <ele>791</ele>
        <time>2010-04-05T01:03:47Z</time>
      </trkpt>
      <trkpt lat="45.73959" lon="4.61319">
        <ele>793</ele>
        <time>2010-04-05T01:03:55Z</time>
      </trkpt>
      <trkpt lat="45.73939" lon="4.61307">
        <ele>794</ele>
        <time>2010-04-05T01:04:00Z</time>
      </trkpt>
      <trkpt lat="45.7392" lon="4.61302">
        <ele>796</ele>
        <time>2010-04-05T01:04:08Z</time>
      </trkpt>
      <trkpt lat="45.73903" lon="4.61303">
        <ele>797</ele>
        <time>2010-04-05T01:04:12Z</time>
      </trkpt>
      <trkpt lat="45.73884" lon="4.61303">
        <ele>798</ele>
        <time>2010-04-05T01:04:17Z</time>
      </trkpt>
      <trkpt lat="45.73862" lon="4.61304">
        <ele>800</ele>
        <time>2010-04-05T01:04:25Z</time>
      </trkpt>
      <trkpt lat="45.73842" lon="4.61305">
        <ele>801</ele>
        <time>2010-04-05T01:04:30Z</time>
      </trkpt>
      <trkpt lat="45.73822" lon="4.61301">
        <ele>802</ele>
        <time>2010-04-05T01:04:35Z</time>
      </trkpt>
      <trkpt lat="45.73809" lon="4.61291">
        <ele>804</ele>
        <time>2010-04-05T01:04:42Z</time>
      </trkpt>
      <trkpt lat="45.73796" lon="4.6128">
        <ele>804</ele>
        <time>2010-04-05T01:04:44Z</time>
      </trkpt>
      <trkpt lat="45.7378" lon="4.61256">
        <ele>806</ele>
        <time>2010-04-05T01:04:52Z</time>
      </trkpt>
      <trkpt lat="45.73771" lon="4.61224">
        <ele>807</ele>
        <time>2010-04-05T01:04:57Z</time>
      </trkpt>
      <trkpt lat="45.73761" lon="4.61188">
        <ele>809</ele>
        <time>2010-04-05T01:05:06Z</time>
      </trkpt>
      <trkpt lat="45.73753" lon="4.61152">
        <ele>811</ele>
        <time>2010-04-05T01:05:14Z</time>
      </trkpt>
      <trkpt lat="45.73748" lon="4.61129">
        <ele>812</ele>
        <time>2010-04-05T01:05:19Z</time>
      </trkpt>
      <trkpt lat="45.73749" lon="4.6109">
        <ele>813</ele>
        <time>2010-04-05T01:05:25Z</time>
      </trkpt>
      <trkpt lat="45.73752" lon="4.6106">
        <ele>815</ele>
        <time>2010-04-05T01:05:32Z</time>
      </trkpt>
      <trkpt lat="45.73756" lon="4.61027">
        <ele>817</ele>
        <time>2010-04-05T01:05:40Z</time>
      </trkpt>
      <trkpt lat="45.73759" lon="4.60994">
        <ele>818</ele>
        <time>2010-04-05T01:05:46Z</time>
      </trkpt>
      <trkpt lat="45.73763" lon="4.6096">
        <ele>819</ele>
        <time>2010-04-05T01:05:52Z</time>
      </trkpt>
      <trkpt lat="45.73768" lon="4.60926">
        <ele>821</ele>
        <time>2010-04-05T01:06:00Z</time>
      </trkpt>
      <trkpt lat="45.73773" lon="4.60899">
        <ele>822</ele>
        <time>2010-04-05T01:06:05Z</time>
      </trkpt>
      <trkpt lat="45.7378" lon="4.60858">
        <ele>824</ele>
        <time>2010-04-05T01:06:13Z</time>
      </trkpt>
      <trkpt lat="45.73785" lon="4.60823">
        <ele>825</ele>
        <time>2010-04-05T01:06:19Z</time>
      </trkpt>
      <trkpt lat="45.73792" lon="4.60785">
        <ele>827</ele>
        <time>2010-04-05T01:06:27Z</time>
      </trkpt>
      <trkpt lat="45.73802" lon="4.60754">
        <ele>828</ele>
        <time>2010-04-05T01:06:33Z</time>
      </trkpt>
      <trkpt lat="45.73811" lon="4.60729">
        <ele>829</ele>
        <time>2010-04-05T01:06:38Z</time>
      </trkpt>
      <trkpt lat="45.73828" lon="4.60681">
        <ele>832</ele>
        <time>2010-04-05T01:06:50Z</time>
      </trkpt>
      <trkpt lat="45.73837" lon="4.60656">
        <ele>833</ele>
        <time>2010-04-05T01:06:55Z</time>
      </trkpt>
      <trkpt lat="45.73851" lon="4.60623">
        <ele>834</ele>
        <time>2010-04-05T01:07:01Z</time>
      </trkpt>
      <trkpt lat="45.73867" lon="4.60587">
        <ele>836</ele>
        <time>2010-04-05T01:07:10Z</time>
      </trkpt>
      <trkpt lat="45.73884" lon="4.60549">
        <ele>835</ele>
        <time>2010-04-05T01:07:14Z</time>
      </trkpt>
      <trkpt lat="45.73897" lon="4.60522">
        <ele>835</ele>
        <time>2010-04-05T01:07:17Z</time>
      </trkpt>
      <trkpt lat="45.73906" lon="4.60502">
        <ele>834</ele>
        <time>2010-04-05T01:07:20Z</time>
      </trkpt>
      <trkpt lat="45.73919" lon="4.60453">
        <ele>832</ele>
        <time>2010-04-05T01:07:24Z</time>
      </trkpt>
      <trkpt lat="45.73919" lon="4.60408">
        <ele>831</ele>
        <time>2010-04-05T01:07:29Z</time>
      </trkpt>
      <trkpt lat="45.73917" lon="4.60391">
        <ele>830</ele>
        <time>2010-04-05T01:07:30Z</time>
      </trkpt>
      <trkpt lat="45.7391" lon="4.60374">
        <ele>829</ele>
        <time>2010-04-05T01:07:32Z</time>
      </trkpt>
      <trkpt lat="45.73893" lon="4.60335">
        <ele>828</ele>
        <time>2010-04-05T01:07:36Z</time>
      </trkpt>
      <trkpt lat="45.73848" lon="4.60266">
        <ele>824</ele>
        <time>2010-04-05T01:07:45Z</time>
      </trkpt>
      <trkpt lat="45.73797" lon="4.60218">
        <ele>822</ele>
        <time>2010-04-05T01:07:53Z</time>
      </trkpt>
      <trkpt lat="45.7376" lon="4.60175">
        <ele>822</ele>
        <time>2010-04-05T01:08:00Z</time>
      </trkpt>
      <trkpt lat="45.73723" lon="4.60132">
        <ele>822</ele>
        <time>2010-04-05T01:08:06Z</time>
      </trkpt>
      <trkpt lat="45.73691" lon="4.60098">
        <ele>822</ele>
        <time>2010-04-05T01:08:11Z</time>
      </trkpt>
      <trkpt lat="45.73682" lon="4.6009">
        <ele>822</ele>
        <time>2010-04-05T01:08:13Z</time>
      </trkpt>
      <trkpt lat="45.73648" lon="4.6006">
        <ele>824</ele>
        <time>2010-04-05T01:08:23Z</time>
      </trkpt>
      <trkpt lat="45.73612" lon="4.60035">
        <ele>825</ele>
        <time>2010-04-05T01:08:31Z</time>
      </trkpt>
      <trkpt lat="45.73584" lon="4.6002">
        <ele>826</ele>
        <time>2010-04-05T01:08:37Z</time>
      </trkpt>
      <trkpt lat="45.73551" lon="4.59992">
        <ele>828</ele>
        <time>2010-04-05T01:08:47Z</time>
      </trkpt>
      <trkpt lat="45.73528" lon="4.59972">
        <ele>829</ele>
        <time>2010-04-05T01:08:53Z</time>
      </trkpt>
      <trkpt lat="45.735" lon="4.59942">
        <ele>831</ele>
        <time>2010-04-05T01:09:02Z</time>
      </trkpt>
      <trkpt lat="45.73473" lon="4.59912">
        <ele>832</ele>
        <time>2010-04-05T01:09:09Z</time>
      </trkpt>
      <trkpt lat="45.73449" lon="4.59886">
        <ele>834</ele>
        <time>2010-04-05T01:09:18Z</time>
      </trkpt>
      <trkpt lat="45.73422" lon="4.59857">
        <ele>835</ele>
        <time>2010-04-05T01:09:25Z</time>
      </trkpt>
      <trkpt lat="45.73398" lon="4.59831">
        <ele>837</ele>
        <time>2010-04-05T01:09:34Z</time>
      </trkpt>
      <trkpt lat="45.73371" lon="4.59808">
        <ele>839</ele>
        <time>2010-04-05T01:09:43Z</time>
      </trkpt>
      <trkpt lat="45.73351" lon="4.59808">
        <ele>840</ele>
        <time>2010-04-05T01:09:48Z</time>
      </trkpt>
      <trkpt lat="45.73332" lon="4.59814">
        <ele>841</ele>
        <time>2010-04-05T01:09:53Z</time>
      </trkpt>
      <trkpt lat="45.73309" lon="4.59828">
        <ele>842</ele>
        <time>2010-04-05T01:09:59Z</time>
      </trkpt>
      <trkpt lat="45.73293" lon="4.59837">
        <ele>842</ele>
        <time>2010-04-05T01:10:01Z</time>
      </trkpt>
      <trkpt lat="45.7328" lon="4.59851">
        <ele>841</ele>
        <time>2010-04-05T01:10:03Z</time>
      </trkpt>
      <trkpt lat="45.73255" lon="4.59874">
        <ele>842</ele>
        <time>2010-04-05T01:10:10Z</time>
      </trkpt>
      <trkpt lat="45.73233" lon="4.59885">
        <ele>841</ele>
        <time>2010-04-05T01:10:13Z</time>
      </trkpt>
      <trkpt lat="45.73201" lon="4.59894">
        <ele>842</ele>
        <time>2010-04-05T01:10:20Z</time>
      </trkpt>
      <trkpt lat="45.73167" lon="4.59894">
        <ele>841</ele>
        <time>2010-04-05T01:10:24Z</time>
      </trkpt>
      <trkpt lat="45.73142" lon="4.59902">
        <ele>840</ele>
        <time>2010-04-05T01:10:28Z</time>
      </trkpt>
      <trkpt lat="45.73108" lon="4.59919">
        <ele>838</ele>
        <time>2010-04-05T01:10:32Z</time>
      </trkpt>
      <trkpt lat="45.73052" lon="4.59948">
        <ele>838</ele>
        <time>2010-04-05T01:10:40Z</time>
      </trkpt>
      <trkpt lat="45.73014" lon="4.59968">
        <ele>838</ele>
        <time>2010-04-05T01:10:46Z</time>
      </trkpt>
      <trkpt lat="45.72974" lon="4.59985">
        <ele>838</ele>
        <time>2010-04-05T01:10:51Z</time>
      </trkpt>
      <trkpt lat="45.72923" lon="4.60004">
        <ele>837</ele>
        <time>2010-04-05T01:10:58Z</time>
      </trkpt>
      <trkpt lat="45.72876" lon="4.60021">
        <ele>837</ele>
        <time>2010-04-05T01:11:05Z</time>
      </trkpt>
      <trkpt lat="45.72829" lon="4.60031">
        <ele>838</ele>
        <time>2010-04-05T01:11:13Z</time>
      </trkpt>
      <trkpt lat="45.72788" lon="4.60029">
        <ele>839</ele>
        <time>2010-04-05T01:11:21Z</time>
      </trkpt>
      <trkpt lat="45.72752" lon="4.60027">
        <ele>840</ele>
        <time>2010-04-05T01:11:29Z</time>
      </trkpt>
      <trkpt lat="45.72715" lon="4.60018">
        <ele>841</ele>
        <time>2010-04-05T01:11:36Z</time>
      </trkpt>
      <trkpt lat="45.72684" lon="4.60008">
        <ele>842</ele>
        <time>2010-04-05T01:11:43Z</time>
      </trkpt>
      <trkpt lat="45.72635" lon="4.59993">
        <ele>843</ele>
        <time>2010-04-05T01:11:52Z</time>
      </trkpt>
      <trkpt lat="45.72593" lon="4.59985">
        <ele>843</ele>
        <time>2010-04-05T01:11:57Z</time>
      </trkpt>
      <trkpt lat="45.72568" lon="4.59981">
        <ele>843</ele>
        <time>2010-04-05T01:12:01Z</time>
      </trkpt>
      <trkpt lat="45.72557" lon="4.5998">
        <ele>842</ele>
        <time>2010-04-05T01:12:02Z</time>
      </trkpt>
      <trkpt lat="45.72555" lon="4.5998">
        <ele>842</ele>
        <time>2010-04-05T01:12:02Z</time>
      </trkpt>
      <trkpt lat="45.72555" lon="4.5998">
        <ele>842</ele>
        <time>2010-04-05T01:12:03Z</time>
      </trkpt>
      <trkpt lat="45.72555" lon="4.5998">
        <ele>842</ele>
        <time>2010-04-05T01:12:04Z</time>
      </trkpt>
      <trkpt lat="45.72535" lon="4.60003">
        <ele>842</ele>
        <time>2010-04-05T01:12:08Z</time>
      </trkpt>
      <trkpt lat="45.72533" lon="4.59999">
        <ele>842</ele>
        <time>2010-04-05T01:12:08Z</time>
      </trkpt>
      <trkpt lat="45.72529" lon="4.59964">
        <ele>842</ele>
        <time>2010-04-05T01:12:12Z</time>
      </trkpt>
      <trkpt lat="45.72506" lon="4.59945">
        <ele>841</ele>
        <time>2010-04-05T01:12:15Z</time>
      </trkpt>
      <trkpt lat="45.72471" lon="4.59909">
        <ele>839</ele>
        <time>2010-04-05T01:12:21Z</time>
      </trkpt>
      <trkpt lat="45.72443" lon="4.59866">
        <ele>837</ele>
        <time>2010-04-05T01:12:26Z</time>
      </trkpt>
      <trkpt lat="45.7241" lon="4.59814">
        <ele>835</ele>
        <time>2010-04-05T01:12:33Z</time>
      </trkpt>
      <trkpt lat="45.72386" lon="4.5977">
        <ele>833</ele>
        <time>2010-04-05T01:12:38Z</time>
      </trkpt>
      <trkpt lat="45.72342" lon="4.59684">
        <ele>829</ele>
        <time>2010-04-05T01:12:48Z</time>
      </trkpt>
      <trkpt lat="45.72306" lon="4.59614">
        <ele>826</ele>
        <time>2010-04-05T01:12:56Z</time>
      </trkpt>
      <trkpt lat="45.72264" lon="4.59532">
        <ele>823</ele>
        <time>2010-04-05T01:13:06Z</time>
      </trkpt>
      <trkpt lat="45.72259" lon="4.59521">
        <ele>823</ele>
        <time>2010-04-05T01:13:07Z</time>
      </trkpt>
      <trkpt lat="45.72212" lon="4.59429">
        <ele>821</ele>
        <time>2010-04-05T01:13:18Z</time>
      </trkpt>
      <trkpt lat="45.72168" lon="4.59346">
        <ele>819</ele>
        <time>2010-04-05T01:13:27Z</time>
      </trkpt>
      <trkpt lat="45.72126" lon="4.59282">
        <ele>818</ele>
        <time>2010-04-05T01:13:36Z</time>
      </trkpt>
      <trkpt lat="45.72089" lon="4.59229">
        <ele>815</ele>
        <time>2010-04-05T01:13:43Z</time>
      </trkpt>
      <trkpt lat="45.72039" lon="4.59182">
        <ele>812</ele>
        <time>2010-04-05T01:13:51Z</time>
      </trkpt>
      <trkpt lat="45.72012" lon="4.59166">
        <ele>810</ele>
        <time>2010-04-05T01:13:54Z</time>
      </trkpt>
      <trkpt lat="45.71974" lon="4.59146">
        <ele>807</ele>
        <time>2010-04-05T01:14:00Z</time>
      </trkpt>
      <trkpt lat="45.71907" lon="4.59113">
        <ele>803</ele>
        <time>2010-04-05T01:14:09Z</time>
      </trkpt>
      <trkpt lat="45.71856" lon="4.5911">
        <ele>799</ele>
        <time>2010-04-05T01:14:16Z</time>
      </trkpt>
      <trkpt lat="45.71845" lon="4.59114">
        <ele>799</ele>
        <time>2010-04-05T01:14:18Z</time>
      </trkpt>
      <trkpt lat="45.71817" lon="4.59131">
        <ele>797</ele>
        <time>2010-04-05T01:14:22Z</time>
      </trkpt>
      <trkpt lat="45.71799" lon="4.59145">
        <ele>797</ele>
        <time>2010-04-05T01:14:24Z</time>
      </trkpt>
      <trkpt lat="45.71761" lon="4.59164">
        <ele>795</ele>
        <time>2010-04-05T01:14:30Z</time>
      </trkpt>
      <trkpt lat="45.71735" lon="4.5915">
        <ele>795</ele>
        <time>2010-04-05T01:14:34Z</time>
      </trkpt>
      <trkpt lat="45.71716" lon="4.59121">
        <ele>792</ele>
        <time>2010-04-05T01:14:37Z</time>
      </trkpt>
      <trkpt lat="45.7171" lon="4.59093">
        <ele>791</ele>
        <time>2010-04-05T01:14:40Z</time>
      </trkpt>
      <trkpt lat="45.71694" lon="4.58978">
        <ele>788</ele>
        <time>2010-04-05T01:14:51Z</time>
      </trkpt>
      <trkpt lat="45.7169" lon="4.5895">
        <ele>787</ele>
        <time>2010-04-05T01:14:54Z</time>
      </trkpt>
      <trkpt lat="45.71678" lon="4.58857">
        <ele>785</ele>
        <time>2010-04-05T01:15:02Z</time>
      </trkpt>
      <trkpt lat="45.7166" lon="4.58813">
        <ele>782</ele>
        <time>2010-04-05T01:15:07Z</time>
      </trkpt>
      <trkpt lat="45.71656" lon="4.58803">
        <ele>782</ele>
        <time>2010-04-05T01:15:08Z</time>
      </trkpt>
      <trkpt lat="45.71626" lon="4.58774">
        <ele>779</ele>
        <time>2010-04-05T01:15:13Z</time>
      </trkpt>
      <trkpt lat="45.71613" lon="4.58769">
        <ele>777</ele>
        <time>2010-04-05T01:15:15Z</time>
      </trkpt>
      <trkpt lat="45.71588" lon="4.58766">
        <ele>777</ele>
        <time>2010-04-05T01:15:18Z</time>
      </trkpt>
      <trkpt lat="45.71534" lon="4.58793">
        <ele>775</ele>
        <time>2010-04-05T01:15:26Z</time>
      </trkpt>
      <trkpt lat="45.71445" lon="4.58843">
        <ele>773</ele>
        <time>2010-04-05T01:15:39Z</time>
      </trkpt>
      <trkpt lat="45.71388" lon="4.58876">
        <ele>773</ele>
        <time>2010-04-05T01:15:47Z</time>
      </trkpt>
      <trkpt lat="45.71336" lon="4.58899">
        <ele>772</ele>
        <time>2010-04-05T01:15:54Z</time>
      </trkpt>
      <trkpt lat="45.71266" lon="4.58918">
        <ele>768</ele>
        <time>2010-04-05T01:16:04Z</time>
      </trkpt>
      <trkpt lat="45.71236" lon="4.5894">
        <ele>767</ele>
        <time>2010-04-05T01:16:08Z</time>
      </trkpt>
      <trkpt lat="45.71179" lon="4.58986">
        <ele>764</ele>
        <time>2010-04-05T01:16:17Z</time>
      </trkpt>
      <trkpt lat="45.71165" lon="4.58998">
        <ele>763</ele>
        <time>2010-04-05T01:16:19Z</time>
      </trkpt>
      <trkpt lat="45.71127" lon="4.59018">
        <ele>761</ele>
        <time>2010-04-05T01:16:24Z</time>
      </trkpt>
      <trkpt lat="45.711" lon="4.59014">
        <ele>759</ele>
        <time>2010-04-05T01:16:28Z</time>
      </trkpt>
      <trkpt lat="45.71074" lon="4.58998">
        <ele>758</ele>
        <time>2010-04-05T01:16:32Z</time>
      </trkpt>
      <trkpt lat="45.71067" lon="4.58989">
        <ele>757</ele>
        <time>2010-04-05T01:16:33Z</time>
      </trkpt>
      <trkpt lat="45.71012" lon="4.58902">
        <ele>754</ele>
        <time>2010-04-05T01:16:44Z</time>
      </trkpt>
      <trkpt lat="45.71006" lon="4.5889">
        <ele>754</ele>
        <time>2010-04-05T01:16:45Z</time>
      </trkpt>
      <trkpt lat="45.70988" lon="4.58823">
        <ele>751</ele>
        <time>2010-04-05T01:16:52Z</time>
      </trkpt>
      <trkpt lat="45.70977" lon="4.58716">
        <ele>747</ele>
        <time>2010-04-05T01:17:02Z</time>
      </trkpt>
      <trkpt lat="45.70972" lon="4.58638">
        <ele>744</ele>
        <time>2010-04-05T01:17:09Z</time>
      </trkpt>
      <trkpt lat="45.70969" lon="4.58589">
        <ele>740</ele>
        <time>2010-04-05T01:17:14Z</time>
      </trkpt>
      <trkpt lat="45.70966" lon="4.58492">
        <ele>738</ele>
        <time>2010-04-05T01:17:23Z</time>
      </trkpt>
      <trkpt lat="45.70963" lon="4.58398">
        <ele>735</ele>
        <time>2010-04-05T01:17:32Z</time>
      </trkpt>
      <trkpt lat="45.70961" lon="4.58297">
        <ele>729</ele>
        <time>2010-04-05T01:17:41Z</time>
      </trkpt>
      <trkpt lat="45.70961" lon="4.58282">
        <ele>729</ele>
        <time>2010-04-05T01:17:43Z</time>
      </trkpt>
      <trkpt lat="45.70961" lon="4.58227">
        <ele>725</ele>
        <time>2010-04-05T01:17:48Z</time>
      </trkpt>
      <trkpt lat="45.70969" lon="4.58152">
        <ele>722</ele>
        <time>2010-04-05T01:17:55Z</time>
      </trkpt>
      <trkpt lat="45.70972" lon="4.58126">
        <ele>723</ele>
        <time>2010-04-05T01:18:00Z</time>
      </trkpt>
      <trkpt lat="45.70984" lon="4.5808">
        <ele>723</ele>
        <time>2010-04-05T01:18:04Z</time>
      </trkpt>
      <trkpt lat="45.70998" lon="4.58054">
        <ele>725</ele>
        <time>2010-04-05T01:18:12Z</time>
      </trkpt>
      <trkpt lat="45.71015" lon="4.58028">
        <ele>727</ele>
        <time>2010-04-05T01:18:20Z</time>
      </trkpt>
      <trkpt lat="45.7104" lon="4.58007">
        <ele>728</ele>
        <time>2010-04-05T01:18:27Z</time>
      </trkpt>
      <trkpt lat="45.71065" lon="4.57984">
        <ele>730</ele>
        <time>2010-04-05T01:18:35Z</time>
      </trkpt>
      <trkpt lat="45.7109" lon="4.57961">
        <ele>730</ele>
        <time>2010-04-05T01:18:39Z</time>
      </trkpt>
      <trkpt lat="45.71116" lon="4.57938">
        <ele>731</ele>
        <time>2010-04-05T01:18:46Z</time>
      </trkpt>
      <trkpt lat="45.7114" lon="4.57915">
        <ele>733</ele>
        <time>2010-04-05T01:18:55Z</time>
      </trkpt>
      <trkpt lat="45.71169" lon="4.57881">
        <ele>735</ele>
        <time>2010-04-05T01:19:04Z</time>
      </trkpt>
      <trkpt lat="45.71193" lon="4.57851">
        <ele>737</ele>
        <time>2010-04-05T01:19:13Z</time>
      </trkpt>
      <trkpt lat="45.7122" lon="4.57819">
        <ele>739</ele>
        <time>2010-04-05T01:19:23Z</time>
      </trkpt>
      <trkpt lat="45.71241" lon="4.57794">
        <ele>740</ele>
        <time>2010-04-05T01:19:29Z</time>
      </trkpt>
      <trkpt lat="45.71269" lon="4.57775">
        <ele>742</ele>
        <time>2010-04-05T01:19:38Z</time>
      </trkpt>
      <trkpt lat="45.71296" lon="4.57757">
        <ele>744</ele>
        <time>2010-04-05T01:19:47Z</time>
      </trkpt>
      <trkpt lat="45.71322" lon="4.57742">
        <ele>745</ele>
        <time>2010-04-05T01:19:53Z</time>
      </trkpt>
      <trkpt lat="45.71357" lon="4.57735">
        <ele>747</ele>
        <time>2010-04-05T01:20:02Z</time>
      </trkpt>
      <trkpt lat="45.71389" lon="4.57735">
        <ele>749</ele>
        <time>2010-04-05T01:20:11Z</time>
      </trkpt>
      <trkpt lat="45.7141" lon="4.57753">
        <ele>749</ele>
        <time>2010-04-05T01:20:15Z</time>
      </trkpt>
      <trkpt lat="45.71442" lon="4.57787">
        <ele>749</ele>
        <time>2010-04-05T01:20:20Z</time>
      </trkpt>
      <trkpt lat="45.71465" lon="4.57803">
        <ele>750</ele>
        <time>2010-04-05T01:20:26Z</time>
      </trkpt>
      <trkpt lat="45.71471" lon="4.57803">
        <ele>750</ele>
        <time>2010-04-05T01:20:27Z</time>
      </trkpt>
      <trkpt lat="45.71484" lon="4.57799">
        <ele>750</ele>
        <time>2010-04-05T01:20:28Z</time>
      </trkpt>
      <trkpt lat="45.71491" lon="4.57774">
        <ele>749</ele>
        <time>2010-04-05T01:20:31Z</time>
      </trkpt>
      <trkpt lat="45.71491" lon="4.5776">
        <ele>750</ele>
        <time>2010-04-05T01:20:35Z</time>
      </trkpt>
      <trkpt lat="45.71482" lon="4.57695">
        <ele>749</ele>
        <time>2010-04-05T01:20:41Z</time>
      </trkpt>
      <trkpt lat="45.71481" lon="4.57689">
        <ele>750</ele>
        <time>2010-04-05T01:20:44Z</time>
      </trkpt>
      <trkpt lat="45.71476" lon="4.57651">
        <ele>750</ele>
        <time>2010-04-05T01:20:47Z</time>
      </trkpt>
      <trkpt lat="45.71492" lon="4.57597">
        <ele>750</ele>
        <time>2010-04-05T01:20:53Z</time>
      </trkpt>
      <trkpt lat="45.71506" lon="4.5755">
        <ele>752</ele>
        <time>2010-04-05T01:21:02Z</time>
      </trkpt>
      <trkpt lat="45.71531" lon="4.57505">
        <ele>753</ele>
        <time>2010-04-05T01:21:10Z</time>
      </trkpt>
      <trkpt lat="45.71558" lon="4.57472">
        <ele>754</ele>
        <time>2010-04-05T01:21:17Z</time>
      </trkpt>
      <trkpt lat="45.71594" lon="4.57436">
        <ele>756</ele>
        <time>2010-04-05T01:21:28Z</time>
      </trkpt>
      <trkpt lat="45.71629" lon="4.57402">
        <ele>758</ele>
        <time>2010-04-05T01:21:38Z</time>
      </trkpt>
      <trkpt lat="45.71662" lon="4.57369">
        <ele>759</ele>
        <time>2010-04-05T01:21:46Z</time>
      </trkpt>
      <trkpt lat="45.71698" lon="4.57335">
        <ele>761</ele>
        <time>2010-04-05T01:21:57Z</time>
      </trkpt>
      <trkpt lat="45.71726" lon="4.57318">
        <ele>761</ele>
        <time>2010-04-05T01:22:01Z</time>
      </trkpt>
      <trkpt lat="45.71758" lon="4.57301">
        <ele>763</ele>
        <time>2010-04-05T01:22:10Z</time>
      </trkpt>
      <trkpt lat="45.71797" lon="4.5728">
        <ele>764</ele>
        <time>2010-04-05T01:22:18Z</time>
      </trkpt>
      <trkpt lat="45.71814" lon="4.57262">
        <ele>765</ele>
        <time>2010-04-05T01:22:23Z</time>
      </trkpt>
      <trkpt lat="45.7184" lon="4.57215">
        <ele>766</ele>
        <time>2010-04-05T01:22:31Z</time>
      </trkpt>
      <trkpt lat="45.71863" lon="4.57166">
        <ele>768</ele>
        <time>2010-04-05T01:22:42Z</time>
      </trkpt>
      <trkpt lat="45.71878" lon="4.57121">
        <ele>769</ele>
        <time>2010-04-05T01:22:49Z</time>
      </trkpt>
      <trkpt lat="45.71872" lon="4.5709">
        <ele>769</ele>
        <time>2010-04-05T01:22:52Z</time>
      </trkpt>
      <trkpt lat="45.7186" lon="4.57077">
        <ele>770</ele>
        <time>2010-04-05T01:22:56Z</time>
      </trkpt>
      <trkpt lat="45.71842" lon="4.57071">
        <ele>770</ele>
        <time>2010-04-05T01:22:59Z</time>
      </trkpt>
      <trkpt lat="45.71825" lon="4.57076">
        <ele>771</ele>
        <time>2010-04-05T01:23:03Z</time>
      </trkpt>
      <trkpt lat="45.71804" lon="4.57093">
        <ele>773</ele>
        <time>2010-04-05T01:23:11Z</time>
      </trkpt>
      <trkpt lat="45.71781" lon="4.57117">
        <ele>775</ele>
        <time>2010-04-05T01:23:20Z</time>
      </trkpt>
      <trkpt lat="45.71758" lon="4.57129">
        <ele>776</ele>
        <time>2010-04-05T01:23:26Z</time>
      </trkpt>
      <trkpt lat="45.71734" lon="4.57141">
        <ele>778</ele>
        <time>2010-04-05T01:23:34Z</time>
      </trkpt>
      <trkpt lat="45.7171" lon="4.57154">
        <ele>779</ele>
        <time>2010-04-05T01:23:40Z</time>
      </trkpt>
      <trkpt lat="45.71685" lon="4.57167">
        <ele>781</ele>
        <time>2010-04-05T01:23:48Z</time>
      </trkpt>
      <trkpt lat="45.7166" lon="4.5718">
        <ele>782</ele>
        <time>2010-04-05T01:23:54Z</time>
      </trkpt>
      <trkpt lat="45.71631" lon="4.57194">
        <ele>785</ele>
        <time>2010-04-05T01:24:05Z</time>
      </trkpt>
      <trkpt lat="45.71601" lon="4.57204">
        <ele>787</ele>
        <time>2010-04-05T01:24:14Z</time>
      </trkpt>
      <trkpt lat="45.71582" lon="4.57206">
        <ele>789</ele>
        <time>2010-04-05T01:24:21Z</time>
      </trkpt>
      <trkpt lat="45.71568" lon="4.57207">
        <ele>790</ele>
        <time>2010-04-05T01:24:26Z</time>
      </trkpt>
      <trkpt lat="45.71552" lon="4.57197">
        <ele>792</ele>
        <time>2010-04-05T01:24:33Z</time>
      </trkpt>
      <trkpt lat="45.71542" lon="4.57177">
        <ele>793</ele>
        <time>2010-04-05T01:24:38Z</time>
      </trkpt>
      <trkpt lat="45.71535" lon="4.57155">
        <ele>794</ele>
        <time>2010-04-05T01:24:42Z</time>
      </trkpt>
      <trkpt lat="45.71528" lon="4.57121">
        <ele>796</ele>
        <time>2010-04-05T01:24:50Z</time>
      </trkpt>
      <trkpt lat="45.71522" lon="4.57087">
        <ele>797</ele>
        <time>2010-04-05T01:24:56Z</time>
      </trkpt>
      <trkpt lat="45.71514" lon="4.57057">
        <ele>799</ele>
        <time>2010-04-05T01:25:04Z</time>
      </trkpt>
      <trkpt lat="45.71503" lon="4.57024">
        <ele>801</ele>
        <time>2010-04-05T01:25:12Z</time>
      </trkpt>
      <trkpt lat="45.71488" lon="4.56982">
        <ele>803</ele>
        <time>2010-04-05T01:25:21Z</time>
      </trkpt>
      <trkpt lat="45.71475" lon="4.56942">
        <ele>804</ele>
        <time>2010-04-05T01:25:28Z</time>
      </trkpt>
      <trkpt lat="45.71467" lon="4.56909">
        <ele>806</ele>
        <time>2010-04-05T01:25:36Z</time>
      </trkpt>
      <trkpt lat="45.71464" lon="4.56874">
        <ele>808</ele>
        <time>2010-04-05T01:25:44Z</time>
      </trkpt>
      <trkpt lat="45.71466" lon="4.56838">
        <ele>809</ele>
        <time>2010-04-05T01:25:50Z</time>
      </trkpt>
      <trkpt lat="45.71467" lon="4.5683">
        <ele>811</ele>
        <time>2010-04-05T01:25:55Z</time>
      </trkpt>
      <trkpt lat="45.71482" lon="4.56769">
        <ele>813</ele>
        <time>2010-04-05T01:26:06Z</time>
      </trkpt>
      <trkpt lat="45.71489" lon="4.56744">
        <ele>814</ele>
        <time>2010-04-05T01:26:11Z</time>
      </trkpt>
      <trkpt lat="45.71487" lon="4.56683">
        <ele>816</ele>
        <time>2010-04-05T01:26:21Z</time>
      </trkpt>
      <trkpt lat="45.71483" lon="4.56633">
        <ele>819</ele>
        <time>2010-04-05T01:26:33Z</time>
      </trkpt>
      <trkpt lat="45.71479" lon="4.566">
        <ele>820</ele>
        <time>2010-04-05T01:26:39Z</time>
      </trkpt>
      <trkpt lat="45.71474" lon="4.56551">
        <ele>823</ele>
        <time>2010-04-05T01:26:51Z</time>
      </trkpt>
      <trkpt lat="45.71468" lon="4.56495">
        <ele>824</ele>
        <time>2010-04-05T01:26:58Z</time>
      </trkpt>
      <trkpt lat="45.71464" lon="4.56455">
        <ele>826</ele>
        <time>2010-04-05T01:27:07Z</time>
      </trkpt>
      <trkpt lat="45.71466" lon="4.56413">
        <ele>827</ele>
        <time>2010-04-05T01:27:13Z</time>
      </trkpt>
      <trkpt lat="45.71471" lon="4.56371">
        <ele>828</ele>
        <time>2010-04-05T01:27:20Z</time>
      </trkpt>
      <trkpt lat="45.71478" lon="4.56325">
        <ele>830</ele>
        <time>2010-04-05T01:27:29Z</time>
      </trkpt>
      <trkpt lat="45.71484" lon="4.56279">
        <ele>832</ele>
        <time>2010-04-05T01:27:38Z</time>
      </trkpt>
      <trkpt lat="45.71487" lon="4.56236">
        <ele>833</ele>
        <time>2010-04-05T01:27:44Z</time>
      </trkpt>
      <trkpt lat="45.71483" lon="4.56206">
        <ele>835</ele>
        <time>2010-04-05T01:27:52Z</time>
      </trkpt>
      <trkpt lat="45.71477" lon="4.56167">
        <ele>836</ele>
        <time>2010-04-05T01:27:58Z</time>
      </trkpt>
      <trkpt lat="45.71468" lon="4.56129">
        <ele>838</ele>
        <time>2010-04-05T01:28:07Z</time>
      </trkpt>
      <trkpt lat="45.71458" lon="4.5609">
        <ele>839</ele>
        <time>2010-04-05T01:28:13Z</time>
      </trkpt>
      <trkpt lat="45.71455" lon="4.56054">
        <ele>840</ele>
        <time>2010-04-05T01:28:19Z</time>
      </trkpt>
      <trkpt lat="45.71452" lon="4.56018">
        <ele>842</ele>
        <time>2010-04-05T01:28:27Z</time>
      </trkpt>
      <trkpt lat="45.71447" lon="4.55967">
        <ele>843</ele>
        <time>2010-04-05T01:28:34Z</time>
      </trkpt>
      <trkpt lat="45.71441" lon="4.55931">
        <ele>845</ele>
        <time>2010-04-05T01:28:42Z</time>
      </trkpt>
      <trkpt lat="45.71427" lon="4.55894">
        <ele>846</ele>
        <time>2010-04-05T01:28:49Z</time>
      </trkpt>
      <trkpt lat="45.71412" lon="4.55858">
        <ele>848</ele>
        <time>2010-04-05T01:28:57Z</time>
      </trkpt>
      <trkpt lat="45.71388" lon="4.55825">
        <ele>849</ele>
        <time>2010-04-05T01:29:04Z</time>
      </trkpt>
      <trkpt lat="45.71367" lon="4.55797">
        <ele>851</ele>
        <time>2010-04-05T01:29:13Z</time>
      </trkpt>
      <trkpt lat="45.71347" lon="4.55771">
        <ele>853</ele>
        <time>2010-04-05T01:29:21Z</time>
      </trkpt>
      <trkpt lat="45.7133" lon="4.55742">
        <ele>854</ele>
        <time>2010-04-05T01:29:27Z</time>
      </trkpt>
      <trkpt lat="45.71314" lon="4.55702">
        <ele>855</ele>
        <time>2010-04-05T01:29:34Z</time>
      </trkpt>
      <trkpt lat="45.71295" lon="4.55663">
        <ele>857</ele>
        <time>2010-04-05T01:29:43Z</time>
      </trkpt>
      <trkpt lat="45.71272" lon="4.5562">
        <ele>858</ele>
        <time>2010-04-05T01:29:51Z</time>
      </trkpt>
      <trkpt lat="45.71249" lon="4.55576">
        <ele>859</ele>
        <time>2010-04-05T01:29:58Z</time>
      </trkpt>
      <trkpt lat="45.71234" lon="4.55547">
        <ele>861</ele>
        <time>2010-04-05T01:30:06Z</time>
      </trkpt>
      <trkpt lat="45.71213" lon="4.55507">
        <ele>862</ele>
        <time>2010-04-05T01:30:13Z</time>
      </trkpt>
      <trkpt lat="45.71194" lon="4.55482">
        <ele>863</ele>
        <time>2010-04-05T01:30:19Z</time>
      </trkpt>
      <trkpt lat="45.71166" lon="4.55463">
        <ele>864</ele>
        <time>2010-04-05T01:30:26Z</time>
      </trkpt>
      <trkpt lat="45.71133" lon="4.55448">
        <ele>866</ele>
        <time>2010-04-05T01:30:35Z</time>
      </trkpt>
      <trkpt lat="45.71103" lon="4.55439">
        <ele>869</ele>
        <time>2010-04-05T01:30:47Z</time>
      </trkpt>
      <trkpt lat="45.71081" lon="4.55439">
        <ele>869</ele>
        <time>2010-04-05T01:30:50Z</time>
      </trkpt>
      <trkpt lat="45.71032" lon="4.55443">
        <ele>870</ele>
        <time>2010-04-05T01:30:58Z</time>
      </trkpt>
      <trkpt lat="45.70982" lon="4.55446">
        <ele>870</ele>
        <time>2010-04-05T01:31:05Z</time>
      </trkpt>
      <trkpt lat="45.70942" lon="4.55449">
        <ele>870</ele>
        <time>2010-04-05T01:31:10Z</time>
      </trkpt>
      <trkpt lat="45.70879" lon="4.55454">
        <ele>871</ele>
        <time>2010-04-05T01:31:21Z</time>
      </trkpt>
      <trkpt lat="45.70832" lon="4.55457">
        <ele>871</ele>
        <time>2010-04-05T01:31:28Z</time>
      </trkpt>
      <trkpt lat="45.70775" lon="4.55461">
        <ele>873</ele>
        <time>2010-04-05T01:31:40Z</time>
      </trkpt>
      <trkpt lat="45.70749" lon="4.55463">
        <ele>873</ele>
        <time>2010-04-05T01:31:44Z</time>
      </trkpt>
      <trkpt lat="45.70698" lon="4.55466">
        <ele>873</ele>
        <time>2010-04-05T01:31:50Z</time>
      </trkpt>
      <trkpt lat="45.7066" lon="4.55469">
        <ele>875</ele>
        <time>2010-04-05T01:32:00Z</time>
      </trkpt>
      <trkpt lat="45.70609" lon="4.55478">
        <ele>875</ele>
        <time>2010-04-05T01:32:07Z</time>
      </trkpt>
      <trkpt lat="45.70577" lon="4.55497">
        <ele>873</ele>
        <time>2010-04-05T01:32:12Z</time>
      </trkpt>
      <trkpt lat="45.70557" lon="4.55508">
        <ele>872</ele>
        <time>2010-04-05T01:32:15Z</time>
      </trkpt>
      <trkpt lat="45.70528" lon="4.55541">
        <ele>870</ele>
        <time>2010-04-05T01:32:20Z</time>
      </trkpt>
      <trkpt lat="45.70495" lon="4.55603">
        <ele>867</ele>
        <time>2010-04-05T01:32:27Z</time>
      </trkpt>
      <trkpt lat="45.70481" lon="4.55621">
        <ele>866</ele>
        <time>2010-04-05T01:32:29Z</time>
      </trkpt>
      <trkpt lat="45.70465" lon="4.55635">
        <ele>865</ele>
        <time>2010-04-05T01:32:32Z</time>
      </trkpt>
      <trkpt lat="45.70392" lon="4.55671">
        <ele>861</ele>
        <time>2010-04-05T01:32:42Z</time>
      </trkpt>
      <trkpt lat="45.70359" lon="4.55678">
        <ele>859</ele>
        <time>2010-04-05T01:32:47Z</time>
      </trkpt>
      <trkpt lat="45.70305" lon="4.55675">
        <ele>856</ele>
        <time>2010-04-05T01:32:54Z</time>
      </trkpt>
      <trkpt lat="45.70256" lon="4.55659">
        <ele>854</ele>
        <time>2010-04-05T01:33:01Z</time>
      </trkpt>
      <trkpt lat="45.70221" lon="4.55633">
        <ele>852</ele>
        <time>2010-04-05T01:33:06Z</time>
      </trkpt>
      <trkpt lat="45.70208" lon="4.55596">
        <ele>852</ele>
        <time>2010-04-05T01:33:10Z</time>
      </trkpt>
      <trkpt lat="45.70207" lon="4.55583">
        <ele>852</ele>
        <time>2010-04-05T01:33:11Z</time>
      </trkpt>
      <trkpt lat="45.70191" lon="4.55493">
        <ele>849</ele>
        <time>2010-04-05T01:33:20Z</time>
      </trkpt>
      <trkpt lat="45.70184" lon="4.55469">
        <ele>849</ele>
        <time>2010-04-05T01:33:22Z</time>
      </trkpt>
      <trkpt lat="45.70153" lon="4.55409">
        <ele>848</ele>
        <time>2010-04-05T01:33:29Z</time>
      </trkpt>
      <trkpt lat="45.70143" lon="4.5539">
        <ele>848</ele>
        <time>2010-04-05T01:33:31Z</time>
      </trkpt>
      <trkpt lat="45.70121" lon="4.55339">
        <ele>846</ele>
        <time>2010-04-05T01:33:37Z</time>
      </trkpt>
      <trkpt lat="45.70115" lon="4.55294">
        <ele>845</ele>
        <time>2010-04-05T01:33:41Z</time>
      </trkpt>
      <trkpt lat="45.70118" lon="4.55211">
        <ele>843</ele>
        <time>2010-04-05T01:33:49Z</time>
      </trkpt>
      <trkpt lat="45.70117" lon="4.55152">
        <ele>842</ele>
        <time>2010-04-05T01:33:54Z</time>
      </trkpt>
      <trkpt lat="45.70115" lon="4.55139">
        <ele>841</ele>
        <time>2010-04-05T01:33:55Z</time>
      </trkpt>
      <trkpt lat="45.701" lon="4.55066">
        <ele>839</ele>
        <time>2010-04-05T01:34:03Z</time>
      </trkpt>
      <trkpt lat="45.70075" lon="4.54996">
        <ele>837</ele>
        <time>2010-04-05T01:34:10Z</time>
      </trkpt>
      <trkpt lat="45.70048" lon="4.54928">
        <ele>835</ele>
        <time>2010-04-05T01:34:17Z</time>
      </trkpt>
      <trkpt lat="45.7001" lon="4.54869">
        <ele>833</ele>
        <time>2010-04-05T01:34:25Z</time>
      </trkpt>
      <trkpt lat="45.69968" lon="4.54817">
        <ele>832</ele>
        <time>2010-04-05T01:34:32Z</time>
      </trkpt>
      <trkpt lat="45.69946" lon="4.54796">
        <ele>830</ele>
        <time>2010-04-05T01:34:36Z</time>
      </trkpt>
      <trkpt lat="45.69894" lon="4.54775">
        <ele>829</ele>
        <time>2010-04-05T01:34:43Z</time>
      </trkpt>
      <trkpt lat="45.69832" lon="4.54759">
        <ele>827</ele>
        <time>2010-04-05T01:34:51Z</time>
      </trkpt>
      <trkpt lat="45.69796" lon="4.54751">
        <ele>826</ele>
        <time>2010-04-05T01:34:56Z</time>
      </trkpt>
      <trkpt lat="45.69781" lon="4.54739">
        <ele>825</ele>
        <time>2010-04-05T01:34:59Z</time>
      </trkpt>
      <trkpt lat="45.69746" lon="4.54708">
        <ele>824</ele>
        <time>2010-04-05T01:35:04Z</time>
      </trkpt>
      <trkpt lat="45.69711" lon="4.54659">
        <ele>825</ele>
        <time>2010-04-05T01:35:13Z</time>
      </trkpt>
      <trkpt lat="45.69682" lon="4.54611">
        <ele>824</ele>
        <time>2010-04-05T01:35:19Z</time>
      </trkpt>
      <trkpt lat="45.69646" lon="4.54585">
        <ele>822</ele>
        <time>2010-04-05T01:35:24Z</time>
      </trkpt>
      <trkpt lat="45.69586" lon="4.54544">
        <ele>821</ele>
        <time>2010-04-05T01:35:33Z</time>
      </trkpt>
      <trkpt lat="45.69573" lon="4.54534">
        <ele>820</ele>
        <time>2010-04-05T01:35:35Z</time>
      </trkpt>
      <trkpt lat="45.69542" lon="4.54501">
        <ele>819</ele>
        <time>2010-04-05T01:35:40Z</time>
      </trkpt>
      <trkpt lat="45.69537" lon="4.54493">
        <ele>818</ele>
        <time>2010-04-05T01:35:41Z</time>
      </trkpt>
      <trkpt lat="45.69522" lon="4.54434">
        <ele>817</ele>
        <time>2010-04-05T01:35:47Z</time>
      </trkpt>
      <trkpt lat="45.69502" lon="4.54335">
        <ele>814</ele>
        <time>2010-04-05T01:35:57Z</time>
      </trkpt>
      <trkpt lat="45.69476" lon="4.54265">
        <ele>811</ele>
        <time>2010-04-05T01:36:04Z</time>
      </trkpt>
      <trkpt lat="45.69468" lon="4.54244">
        <ele>811</ele>
        <time>2010-04-05T01:36:06Z</time>
      </trkpt>
      <trkpt lat="45.69439" lon="4.54157">
        <ele>808</ele>
        <time>2010-04-05T01:36:15Z</time>
      </trkpt>
      <trkpt lat="45.69428" lon="4.54075">
        <ele>806</ele>
        <time>2010-04-05T01:36:23Z</time>
      </trkpt>
      <trkpt lat="45.69424" lon="4.54015">
        <ele>805</ele>
        <time>2010-04-05T01:36:29Z</time>
      </trkpt>
      <trkpt lat="45.69424" lon="4.5401">
        <ele>803</ele>
        <time>2010-04-05T01:36:29Z</time>
      </trkpt>
      <trkpt lat="45.69422" lon="4.53953">
        <ele>803</ele>
        <time>2010-04-05T01:36:34Z</time>
      </trkpt>
      <trkpt lat="45.69407" lon="4.5391">
        <ele>802</ele>
        <time>2010-04-05T01:36:39Z</time>
      </trkpt>
      <trkpt lat="45.69369" lon="4.5386">
        <ele>799</ele>
        <time>2010-04-05T01:36:46Z</time>
      </trkpt>
      <trkpt lat="45.69329" lon="4.53838">
        <ele>797</ele>
        <time>2010-04-05T01:36:52Z</time>
      </trkpt>
      <trkpt lat="45.6932" lon="4.53835">
        <ele>797</ele>
        <time>2010-04-05T01:36:53Z</time>
      </trkpt>
      <trkpt lat="45.69257" lon="4.53819">
        <ele>794</ele>
        <time>2010-04-05T01:37:01Z</time>
      </trkpt>
      <trkpt lat="45.6921" lon="4.53803">
        <ele>792</ele>
        <time>2010-04-05T01:37:08Z</time>
      </trkpt>
      <trkpt lat="45.69167" lon="4.53769">
        <ele>791</ele>
        <time>2010-04-05T01:37:14Z</time>
      </trkpt>
      <trkpt lat="45.69107" lon="4.53705">
        <ele>789</ele>
        <time>2010-04-05T01:37:24Z</time>
      </trkpt>
      <trkpt lat="45.69055" lon="4.53658">
        <ele>788</ele>
        <time>2010-04-05T01:37:33Z</time>
      </trkpt>
      <trkpt lat="45.68997" lon="4.53598">
        <ele>789</ele>
        <time>2010-04-05T01:37:45Z</time>
      </trkpt>
      <trkpt lat="45.68959" lon="4.53558">
        <ele>789</ele>
        <time>2010-04-05T01:37:51Z</time>
      </trkpt>
      <trkpt lat="45.68932" lon="4.53528">
        <ele>791</ele>
        <time>2010-04-05T01:38:00Z</time>
      </trkpt>
      <trkpt lat="45.68907" lon="4.53503">
        <ele>792</ele>
        <time>2010-04-05T01:38:07Z</time>
      </trkpt>
      <trkpt lat="45.68856" lon="4.53481">
        <ele>794</ele>
        <time>2010-04-05T01:38:19Z</time>
      </trkpt>
      <trkpt lat="45.68828" lon="4.53469">
        <ele>794</ele>
        <time>2010-04-05T01:38:22Z</time>
      </trkpt>
      <trkpt lat="45.68782" lon="4.53444">
        <ele>795</ele>
        <time>2010-04-05T01:38:31Z</time>
      </trkpt>
      <trkpt lat="45.68753" lon="4.53413">
        <ele>796</ele>
        <time>2010-04-05T01:38:39Z</time>
      </trkpt>
      <trkpt lat="45.68722" lon="4.53377">
        <ele>798</ele>
        <time>2010-04-05T01:38:49Z</time>
      </trkpt>
      <trkpt lat="45.68694" lon="4.5334">
        <ele>799</ele>
        <time>2010-04-05T01:38:56Z</time>
      </trkpt>
      <trkpt lat="45.6866" lon="4.53297">
        <ele>800</ele>
        <time>2010-04-05T01:39:05Z</time>
      </trkpt>
      <trkpt lat="45.68643" lon="4.53276">
        <ele>802</ele>
        <time>2010-04-05T01:39:13Z</time>
      </trkpt>
      <trkpt lat="45.68607" lon="4.53226">
        <ele>801</ele>
        <time>2010-04-05T01:39:19Z</time>
      </trkpt>
      <trkpt lat="45.686" lon="4.53216">
        <ele>799</ele>
        <time>2010-04-05T01:39:21Z</time>
      </trkpt>
      <trkpt lat="45.68568" lon="4.53149">
        <ele>798</ele>
        <time>2010-04-05T01:39:28Z</time>
      </trkpt>
      <trkpt lat="45.68543" lon="4.53084">
        <ele>796</ele>
        <time>2010-04-05T01:39:35Z</time>
      </trkpt>
      <trkpt lat="45.68527" lon="4.5306">
        <ele>796</ele>
        <time>2010-04-05T01:39:38Z</time>
      </trkpt>
      <trkpt lat="45.68518" lon="4.53049">
        <ele>796</ele>
        <time>2010-04-05T01:39:40Z</time>
      </trkpt>
      <trkpt lat="45.68514" lon="4.53049">
        <ele>795</ele>
        <time>2010-04-05T01:39:40Z</time>
      </trkpt>
      <trkpt lat="45.68498" lon="4.53069">
        <ele>794</ele>
        <time>2010-04-05T01:39:43Z</time>
      </trkpt>
      <trkpt lat="45.68475" lon="4.53089">
        <ele>794</ele>
        <time>2010-04-05T01:39:47Z</time>
      </trkpt>
      <trkpt lat="45.68466" lon="4.53096">
        <ele>793</ele>
        <time>2010-04-05T01:39:48Z</time>
      </trkpt>
      <trkpt lat="45.68433" lon="4.531">
        <ele>791</ele>
        <time>2010-04-05T01:39:53Z</time>
      </trkpt>
      <trkpt lat="45.68399" lon="4.53113">
        <ele>790</ele>
        <time>2010-04-05T01:39:57Z</time>
      </trkpt>
      <trkpt lat="45.68369" lon="4.53142">
        <ele>789</ele>
        <time>2010-04-05T01:40:02Z</time>
      </trkpt>
      <trkpt lat="45.68343" lon="4.53189">
        <ele>786</ele>
        <time>2010-04-05T01:40:08Z</time>
      </trkpt>
      <trkpt lat="45.6834" lon="4.532">
        <ele>785</ele>
        <time>2010-04-05T01:40:09Z</time>
      </trkpt>
      <trkpt lat="45.68313" lon="4.53237">
        <ele>784</ele>
        <time>2010-04-05T01:40:14Z</time>
      </trkpt>
      <trkpt lat="45.68313" lon="4.53238">
        <ele>783</ele>
        <time>2010-04-05T01:40:14Z</time>
      </trkpt>
      <trkpt lat="45.68257" lon="4.53254">
        <ele>780</ele>
        <time>2010-04-05T01:40:21Z</time>
      </trkpt>
      <trkpt lat="45.68178" lon="4.53277">
        <ele>777</ele>
        <time>2010-04-05T01:40:32Z</time>
      </trkpt>
      <trkpt lat="45.68158" lon="4.53284">
        <ele>776</ele>
        <time>2010-04-05T01:40:35Z</time>
      </trkpt>
      <trkpt lat="45.68099" lon="4.53297">
        <ele>775</ele>
        <time>2010-04-05T01:40:43Z</time>
      </trkpt>
      <trkpt lat="45.68061" lon="4.53307">
        <ele>773</ele>
        <time>2010-04-05T01:40:48Z</time>
      </trkpt>
      <trkpt lat="45.68042" lon="4.53338">
        <ele>772</ele>
        <time>2010-04-05T01:40:52Z</time>
      </trkpt>
      <trkpt lat="45.6803" lon="4.53378">
        <ele>770</ele>
        <time>2010-04-05T01:40:56Z</time>
      </trkpt>
      <trkpt lat="45.68036" lon="4.53406">
        <ele>769</ele>
        <time>2010-04-05T01:40:59Z</time>
      </trkpt>
      <trkpt lat="45.68049" lon="4.53443">
        <ele>767</ele>
        <time>2010-04-05T01:41:03Z</time>
      </trkpt>
      <trkpt lat="45.68065" lon="4.53481">
        <ele>765</ele>
        <time>2010-04-05T01:41:07Z</time>
      </trkpt>
      <trkpt lat="45.6807" lon="4.53526">
        <ele>763</ele>
        <time>2010-04-05T01:41:11Z</time>
      </trkpt>
      <trkpt lat="45.68053" lon="4.53563">
        <ele>762</ele>
        <time>2010-04-05T01:41:15Z</time>
      </trkpt>
      <trkpt lat="45.68047" lon="4.53576">
        <ele>762</ele>
        <time>2010-04-05T01:41:16Z</time>
      </trkpt>
      <trkpt lat="45.68014" lon="4.53642">
        <ele>759</ele>
        <time>2010-04-05T01:41:24Z</time>
      </trkpt>
      <trkpt lat="45.67989" lon="4.53719">
        <ele>755</ele>
        <time>2010-04-05T01:41:32Z</time>
      </trkpt>
      <trkpt lat="45.67968" lon="4.53819">
        <ele>751</ele>
        <time>2010-04-05T01:41:42Z</time>
      </trkpt>
      <trkpt lat="45.6794" lon="4.53893">
        <ele>747</ele>
        <time>2010-04-05T01:41:50Z</time>
      </trkpt>
      <trkpt lat="45.67881" lon="4.53998">
        <ele>742</ele>
        <time>2010-04-05T01:42:02Z</time>
      </trkpt>
      <trkpt lat="45.67867" lon="4.54024">
        <ele>740</ele>
        <time>2010-04-05T01:42:05Z</time>
      </trkpt>
      <trkpt lat="45.67833" lon="4.54094">
        <ele>736</ele>
        <time>2010-04-05T01:42:13Z</time>
      </trkpt>
      <trkpt lat="45.67824" lon="4.54124">
        <ele>735</ele>
        <time>2010-04-05T01:42:16Z</time>
      </trkpt>
      <trkpt lat="45.67819" lon="4.54176">
        <ele>734</ele>
        <time>2010-04-05T01:42:21Z</time>
      </trkpt>
      <trkpt lat="45.67833" lon="4.54203">
        <ele>731</ele>
        <time>2010-04-05T01:42:24Z</time>
      </trkpt>
      <trkpt lat="45.67836" lon="4.54207">
        <ele>730</ele>
        <time>2010-04-05T01:42:25Z</time>
      </trkpt>
      <trkpt lat="45.67874" lon="4.5427">
        <ele>728</ele>
        <time>2010-04-05T01:42:33Z</time>
      </trkpt>
      <trkpt lat="45.67878" lon="4.54285">
        <ele>727</ele>
        <time>2010-04-05T01:42:34Z</time>
      </trkpt>
      <trkpt lat="45.67897" lon="4.54336">
        <ele>724</ele>
        <time>2010-04-05T01:42:39Z</time>
      </trkpt>
      <trkpt lat="45.67907" lon="4.54343">
        <ele>723</ele>
        <time>2010-04-05T01:42:41Z</time>
      </trkpt>
      <trkpt lat="45.67935" lon="4.54365">
        <ele>721</ele>
        <time>2010-04-05T01:42:45Z</time>
      </trkpt>
      <trkpt lat="45.67954" lon="4.54381">
        <ele>720</ele>
        <time>2010-04-05T01:42:48Z</time>
      </trkpt>
      <trkpt lat="45.67998" lon="4.54422">
        <ele>717</ele>
        <time>2010-04-05T01:42:55Z</time>
      </trkpt>
      <trkpt lat="45.68006" lon="4.5443">
        <ele>717</ele>
        <time>2010-04-05T01:42:56Z</time>
      </trkpt>
      <trkpt lat="45.68026" lon="4.54453">
        <ele>715</ele>
        <time>2010-04-05T01:43:00Z</time>
      </trkpt>
      <trkpt lat="45.68026" lon="4.54474">
        <ele>714</ele>
        <time>2010-04-05T01:43:02Z</time>
      </trkpt>
      <trkpt lat="45.68021" lon="4.54485">
        <ele>714</ele>
        <time>2010-04-05T01:43:03Z</time>
      </trkpt>
      <trkpt lat="45.68" lon="4.54511">
        <ele>712</ele>
        <time>2010-04-05T01:43:07Z</time>
      </trkpt>
      <trkpt lat="45.67969" lon="4.54522">
        <ele>710</ele>
        <time>2010-04-05T01:43:11Z</time>
      </trkpt>
      <trkpt lat="45.67891" lon="4.54543">
        <ele>705</ele>
        <time>2010-04-05T01:43:22Z</time>
      </trkpt>
      <trkpt lat="45.6782" lon="4.5457">
        <ele>700</ele>
        <time>2010-04-05T01:43:32Z</time>
      </trkpt>
      <trkpt lat="45.67796" lon="4.54574">
        <ele>700</ele>
        <time>2010-04-05T01:43:35Z</time>
      </trkpt>
      <trkpt lat="45.67697" lon="4.54591">
        <ele>694</ele>
        <time>2010-04-05T01:43:48Z</time>
      </trkpt>
      <trkpt lat="45.67622" lon="4.54613">
        <ele>689</ele>
        <time>2010-04-05T01:43:58Z</time>
      </trkpt>
      <trkpt lat="45.6755" lon="4.54656">
        <ele>685</ele>
        <time>2010-04-05T01:44:09Z</time>
      </trkpt>
      <trkpt lat="45.67491" lon="4.54695">
        <ele>680</ele>
        <time>2010-04-05T01:44:17Z</time>
      </trkpt>
      <trkpt lat="45.67435" lon="4.54743">
        <ele>676</ele>
        <time>2010-04-05T01:44:26Z</time>
      </trkpt>
      <trkpt lat="45.67389" lon="4.54776">
        <ele>674</ele>
        <time>2010-04-05T01:44:33Z</time>
      </trkpt>
      <trkpt lat="45.6738" lon="4.54787">
        <ele>674</ele>
        <time>2010-04-05T01:44:35Z</time>
      </trkpt>
      <trkpt lat="45.6735" lon="4.54826">
        <ele>672</ele>
        <time>2010-04-05T01:44:40Z</time>
      </trkpt>
      <trkpt lat="45.6735" lon="4.54851">
        <ele>671</ele>
        <time>2010-04-05T01:44:42Z</time>
      </trkpt>
      <trkpt lat="45.67357" lon="4.54871">
        <ele>669</ele>
        <time>2010-04-05T01:44:44Z</time>
      </trkpt>
      <trkpt lat="45.67363" lon="4.54882">
        <ele>668</ele>
        <time>2010-04-05T01:44:46Z</time>
      </trkpt>
      <trkpt lat="45.67407" lon="4.54937">
        <ele>664</ele>
        <time>2010-04-05T01:44:53Z</time>
      </trkpt>
      <trkpt lat="45.67431" lon="4.54985">
        <ele>661</ele>
        <time>2010-04-05T01:44:59Z</time>
      </trkpt>
      <trkpt lat="45.67448" lon="4.55039">
        <ele>659</ele>
        <time>2010-04-05T01:45:05Z</time>
      </trkpt>
      <trkpt lat="45.6745" lon="4.55055">
        <ele>659</ele>
        <time>2010-04-05T01:45:06Z</time>
      </trkpt>
      <trkpt lat="45.67444" lon="4.5513">
        <ele>657</ele>
        <time>2010-04-05T01:45:13Z</time>
      </trkpt>
      <trkpt lat="45.67431" lon="4.55171">
        <ele>655</ele>
        <time>2010-04-05T01:45:17Z</time>
      </trkpt>
      <trkpt lat="45.67418" lon="4.5519">
        <ele>655</ele>
        <time>2010-04-05T01:45:20Z</time>
      </trkpt>
      <trkpt lat="45.67397" lon="4.5519">
        <ele>656</ele>
        <time>2010-04-05T01:45:25Z</time>
      </trkpt>
      <trkpt lat="45.67373" lon="4.55174">
        <ele>658</ele>
        <time>2010-04-05T01:45:33Z</time>
      </trkpt>
      <trkpt lat="45.67368" lon="4.55166">
        <ele>658</ele>
        <time>2010-04-05T01:45:34Z</time>
      </trkpt>
      <trkpt lat="45.67343" lon="4.55125">
        <ele>660</ele>
        <time>2010-04-05T01:45:44Z</time>
      </trkpt>
      <trkpt lat="45.67329" lon="4.5511">
        <ele>661</ele>
        <time>2010-04-05T01:45:49Z</time>
      </trkpt>
      <trkpt lat="45.67318" lon="4.55101">
        <ele>661</ele>
        <time>2010-04-05T01:45:51Z</time>
      </trkpt>
      <trkpt lat="45.67306" lon="4.551">
        <ele>662</ele>
        <time>2010-04-05T01:45:55Z</time>
      </trkpt>
      <trkpt lat="45.67283" lon="4.55102">
        <ele>662</ele>
        <time>2010-04-05T01:45:58Z</time>
      </trkpt>
      <trkpt lat="45.67245" lon="4.55117">
        <ele>664</ele>
        <time>2010-04-05T01:46:08Z</time>
      </trkpt>
      <trkpt lat="45.67201" lon="4.5514">
        <ele>665</ele>
        <time>2010-04-05T01:46:16Z</time>
      </trkpt>
      <trkpt lat="45.67165" lon="4.55157">
        <ele>668</ele>
        <time>2010-04-05T01:46:29Z</time>
      </trkpt>
      <trkpt lat="45.6713" lon="4.55173">
        <ele>669</ele>
        <time>2010-04-05T01:46:36Z</time>
      </trkpt>
      <trkpt lat="45.67093" lon="4.55192">
        <ele>671</ele>
        <time>2010-04-05T01:46:46Z</time>
      </trkpt>
      <trkpt lat="45.67055" lon="4.55212">
        <ele>673</ele>
        <time>2010-04-05T01:46:56Z</time>
      </trkpt>
      <trkpt lat="45.6703" lon="4.55225">
        <ele>674</ele>
        <time>2010-04-05T01:47:02Z</time>
      </trkpt>
      <trkpt lat="45.66996" lon="4.5525">
        <ele>675</ele>
        <time>2010-04-05T01:47:10Z</time>
      </trkpt>
      <trkpt lat="45.6697" lon="4.55277">
        <ele>676</ele>
        <time>2010-04-05T01:47:16Z</time>
      </trkpt>
      <trkpt lat="45.66948" lon="4.55311">
        <ele>677</ele>
        <time>2010-04-05T01:47:23Z</time>
      </trkpt>
      <trkpt lat="45.66935" lon="4.55354">
        <ele>677</ele>
        <time>2010-04-05T01:47:28Z</time>
      </trkpt>
      <trkpt lat="45.66911" lon="4.55418">
        <ele>677</ele>
        <time>2010-04-05T01:47:34Z</time>
      </trkpt>
      <trkpt lat="45.66885" lon="4.55492">
        <ele>677</ele>
        <time>2010-04-05T01:47:42Z</time>
      </trkpt>
      <trkpt lat="45.66859" lon="4.5556">
        <ele>677</ele>
        <time>2010-04-05T01:47:49Z</time>
      </trkpt>
      <trkpt lat="45.66834" lon="4.5563">
        <ele>676</ele>
        <time>2010-04-05T01:47:57Z</time>
      </trkpt>
      <trkpt lat="45.66805" lon="4.55703">
        <ele>674</ele>
        <time>2010-04-05T01:48:04Z</time>
      </trkpt>
      <trkpt lat="45.66781" lon="4.55757">
        <ele>674</ele>
        <time>2010-04-05T01:48:10Z</time>
      </trkpt>
      <trkpt lat="45.6674" lon="4.55812">
        <ele>674</ele>
        <time>2010-04-05T01:48:18Z</time>
      </trkpt>
      <trkpt lat="45.66706" lon="4.55858">
        <ele>676</ele>
        <time>2010-04-05T01:48:29Z</time>
      </trkpt>
      <trkpt lat="45.66688" lon="4.55883">
        <ele>678</ele>
        <time>2010-04-05T01:48:37Z</time>
      </trkpt>
      <trkpt lat="45.6666" lon="4.55921">
        <ele>680</ele>
        <time>2010-04-05T01:48:47Z</time>
      </trkpt>
      <trkpt lat="45.66636" lon="4.55954">
        <ele>682</ele>
        <time>2010-04-05T01:48:56Z</time>
      </trkpt>
      <trkpt lat="45.66615" lon="4.55983">
        <ele>684</ele>
        <time>2010-04-05T01:49:05Z</time>
      </trkpt>
      <trkpt lat="45.66591" lon="4.56019">
        <ele>686</ele>
        <time>2010-04-05T01:49:14Z</time>
      </trkpt>
      <trkpt lat="45.66573" lon="4.56035">
        <ele>687</ele>
        <time>2010-04-05T01:49:20Z</time>
      </trkpt>
      <trkpt lat="45.66556" lon="4.56038">
        <ele>688</ele>
        <time>2010-04-05T01:49:24Z</time>
      </trkpt>
      <trkpt lat="45.66552" lon="4.56031">
        <ele>689</ele>
        <time>2010-04-05T01:49:28Z</time>
      </trkpt>
      <trkpt lat="45.6654" lon="4.56">
        <ele>690</ele>
        <time>2010-04-05T01:49:33Z</time>
      </trkpt>
      <trkpt lat="45.6654" lon="4.55972">
        <ele>692</ele>
        <time>2010-04-05T01:49:41Z</time>
      </trkpt>
      <trkpt lat="45.66527" lon="4.55934">
        <ele>693</ele>
        <time>2010-04-05T01:49:47Z</time>
      </trkpt>
      <trkpt lat="45.66513" lon="4.55908">
        <ele>695</ele>
        <time>2010-04-05T01:49:55Z</time>
      </trkpt>
      <trkpt lat="45.6651" lon="4.55878">
        <ele>696</ele>
        <time>2010-04-05T01:50:00Z</time>
      </trkpt>
      <trkpt lat="45.66519" lon="4.55847">
        <ele>697</ele>
        <time>2010-04-05T01:50:06Z</time>
      </trkpt>
      <trkpt lat="45.66533" lon="4.55812">
        <ele>699</ele>
        <time>2010-04-05T01:50:14Z</time>
      </trkpt>
      <trkpt lat="45.66536" lon="4.55787">
        <ele>701</ele>
        <time>2010-04-05T01:50:21Z</time>
      </trkpt>
      <trkpt lat="45.66533" lon="4.55754">
        <ele>702</ele>
        <time>2010-04-05T01:50:27Z</time>
      </trkpt>
      <trkpt lat="45.66521" lon="4.55723">
        <ele>703</ele>
        <time>2010-04-05T01:50:33Z</time>
      </trkpt>
      <trkpt lat="45.66499" lon="4.55698">
        <ele>705</ele>
        <time>2010-04-05T01:50:41Z</time>
      </trkpt>
      <trkpt lat="45.66475" lon="4.55676">
        <ele>706</ele>
        <time>2010-04-05T01:50:47Z</time>
      </trkpt>
      <trkpt lat="45.66444" lon="4.55652">
        <ele>709</ele>
        <time>2010-04-05T01:50:59Z</time>
      </trkpt>
      <trkpt lat="45.66425" lon="4.55636">
        <ele>710</ele>
        <time>2010-04-05T01:51:05Z</time>
      </trkpt>
      <trkpt lat="45.66404" lon="4.55636">
        <ele>711</ele>
        <time>2010-04-05T01:51:10Z</time>
      </trkpt>
      <trkpt lat="45.6639" lon="4.55656">
        <ele>713</ele>
        <time>2010-04-05T01:51:17Z</time>
      </trkpt>
      <trkpt lat="45.66383" lon="4.55683">
        <ele>713</ele>
        <time>2010-04-05T01:51:20Z</time>
      </trkpt>
      <trkpt lat="45.6637" lon="4.55723">
        <ele>714</ele>
        <time>2010-04-05T01:51:26Z</time>
      </trkpt>
      <trkpt lat="45.66369" lon="4.55727">
        <ele>715</ele>
        <time>2010-04-05T01:51:29Z</time>
      </trkpt>
      <trkpt lat="45.66358" lon="4.55774">
        <ele>716</ele>
        <time>2010-04-05T01:51:36Z</time>
      </trkpt>
      <trkpt lat="45.66352" lon="4.55807">
        <ele>717</ele>
        <time>2010-04-05T01:51:42Z</time>
      </trkpt>
      <trkpt lat="45.66342" lon="4.55836">
        <ele>718</ele>
        <time>2010-04-05T01:51:47Z</time>
      </trkpt>
      <trkpt lat="45.66327" lon="4.55882">
        <ele>720</ele>
        <time>2010-04-05T01:51:57Z</time>
      </trkpt>
      <trkpt lat="45.66311" lon="4.55916">
        <ele>721</ele>
        <time>2010-04-05T01:52:03Z</time>
      </trkpt>
      <trkpt lat="45.66295" lon="4.55951">
        <ele>722</ele>
        <time>2010-04-05T01:52:09Z</time>
      </trkpt>
      <trkpt lat="45.66282" lon="4.55975">
        <ele>724</ele>
        <time>2010-04-05T01:52:17Z</time>
      </trkpt>
      <trkpt lat="45.66266" lon="4.56002">
        <ele>725</ele>
        <time>2010-04-05T01:52:23Z</time>
      </trkpt>
      <trkpt lat="45.66248" lon="4.56027">
        <ele>726</ele>
        <time>2010-04-05T01:52:28Z</time>
      </trkpt>
      <trkpt lat="45.66226" lon="4.56045">
        <ele>728</ele>
        <time>2010-04-05T01:52:37Z</time>
      </trkpt>
      <trkpt lat="45.66203" lon="4.56052">
        <ele>730</ele>
        <time>2010-04-05T01:52:45Z</time>
      </trkpt>
      <trkpt lat="45.6618" lon="4.56044">
        <ele>731</ele>
        <time>2010-04-05T01:52:50Z</time>
      </trkpt>
      <trkpt lat="45.6618" lon="4.56044">
        <ele>732</ele>
        <time>2010-04-05T01:52:53Z</time>
      </trkpt>
      <trkpt lat="45.66133" lon="4.56005">
        <ele>733</ele>
        <time>2010-04-05T01:53:02Z</time>
      </trkpt>
      <trkpt lat="45.66109" lon="4.5599">
        <ele>734</ele>
        <time>2010-04-05T01:53:08Z</time>
      </trkpt>
      <trkpt lat="45.6609" lon="4.55978">
        <ele>736</ele>
        <time>2010-04-05T01:53:16Z</time>
      </trkpt>
      <trkpt lat="45.66073" lon="4.55966">
        <ele>737</ele>
        <time>2010-04-05T01:53:21Z</time>
      </trkpt>
      <trkpt lat="45.66068" lon="4.55963">
        <ele>738</ele>
        <time>2010-04-05T01:53:24Z</time>
      </trkpt>
      <trkpt lat="45.66068" lon="4.55963">
        <ele>738</ele>
        <time>2010-04-05T01:53:25Z</time>
      </trkpt>
      <trkpt lat="45.66068" lon="4.55963">
        <ele>738</ele>
        <time>2010-04-05T01:53:26Z</time>
      </trkpt>
      <trkpt lat="45.66068" lon="4.55963">
        <ele>739</ele>
        <time>2010-04-05T01:53:28Z</time>
      </trkpt>
      <trkpt lat="45.66068" lon="4.55963">
        <ele>739</ele>
        <time>2010-04-05T01:53:29Z</time>
      </trkpt>
      <trkpt lat="45.66068" lon="4.55963">
        <ele>739</ele>
        <time>2010-04-05T01:53:30Z</time>
      </trkpt>
      <trkpt lat="45.66068" lon="4.55963">
        <ele>740</ele>
        <time>2010-04-05T01:53:32Z</time>
      </trkpt>
      <trkpt lat="45.66068" lon="4.55963">
        <ele>743</ele>
        <time>2010-04-05T01:53:40Z</time>
      </trkpt>
      <trkpt lat="45.66068" lon="4.55963">
        <ele>744</ele>
        <time>2010-04-05T01:53:42Z</time>
      </trkpt>
      <trkpt lat="45.66068" lon="4.55963">
        <ele>744</ele>
        <time>2010-04-05T01:53:43Z</time>
      </trkpt>
      <trkpt lat="45.66068" lon="4.55963">
        <ele>744</ele>
        <time>2010-04-05T01:53:44Z</time>
      </trkpt>
      <trkpt lat="45.6603" lon="4.55941">
        <ele>744</ele>
        <time>2010-04-05T01:53:50Z</time>
      </trkpt>
      <trkpt lat="45.6603" lon="4.55941">
        <ele>744</ele>
        <time>2010-04-05T01:53:51Z</time>
      </trkpt>
      <trkpt lat="45.6603" lon="4.55941">
        <ele>744</ele>
        <time>2010-04-05T01:53:52Z</time>
      </trkpt>
      <trkpt lat="45.66063" lon="4.55974">
        <ele>761</ele>
        <time>2010-04-05T01:54:38Z</time>
      </trkpt>
      <trkpt lat="45.66063" lon="4.55974">
        <ele>761</ele>
        <time>2010-04-05T01:54:39Z</time>
      </trkpt>
      <trkpt lat="45.66063" lon="4.55974">
        <ele>761</ele>
        <time>2010-04-05T01:54:40Z</time>
      </trkpt>
      <trkpt lat="45.66051" lon="4.55971">
        <ele>761</ele>
        <time>2010-04-05T01:54:41Z</time>
      </trkpt>
      <trkpt lat="45.66051" lon="4.55971">
        <ele>761</ele>
        <time>2010-04-05T01:54:42Z</time>
      </trkpt>
      <trkpt lat="45.66051" lon="4.55969">
        <ele>760</ele>
        <time>2010-04-05T01:54:43Z</time>
      </trkpt>
      <trkpt lat="45.66051" lon="4.55981">
        <ele>761</ele>
        <time>2010-04-05T01:54:46Z</time>
      </trkpt>
      <trkpt lat="45.66051" lon="4.55987">
        <ele>761</ele>
        <time>2010-04-05T01:54:47Z</time>
      </trkpt>
      <trkpt lat="45.66051" lon="4.56001">
        <ele>763</ele>
        <time>2010-04-05T01:54:53Z</time>
      </trkpt>
      <trkpt lat="45.66051" lon="4.56001">
        <ele>763</ele>
        <time>2010-04-05T01:54:53Z</time>
      </trkpt>
      <trkpt lat="45.66051" lon="4.56001">
        <ele>763</ele>
        <time>2010-04-05T01:54:54Z</time>
      </trkpt>
      <trkpt lat="45.66051" lon="4.56001">
        <ele>763</ele>
        <time>2010-04-05T01:54:55Z</time>
      </trkpt>
      <trkpt lat="45.6605" lon="4.56063">
        <ele>763</ele>
        <time>2010-04-05T01:55:01Z</time>
      </trkpt>
      <trkpt lat="45.66054" lon="4.56082">
        <ele>764</ele>
        <time>2010-04-05T01:55:05Z</time>
      </trkpt>
      <trkpt lat="45.66061" lon="4.56119">
        <ele>764</ele>
        <time>2010-04-05T01:55:09Z</time>
      </trkpt>
      <trkpt lat="45.6607" lon="4.56161">
        <ele>764</ele>
        <time>2010-04-05T01:55:13Z</time>
      </trkpt>
      <trkpt lat="45.66074" lon="4.56183">
        <ele>764</ele>
        <time>2010-04-05T01:55:15Z</time>
      </trkpt>
      <trkpt lat="45.66079" lon="4.56223">
        <ele>763</ele>
        <time>2010-04-05T01:55:19Z</time>
      </trkpt>
      <trkpt lat="45.66084" lon="4.56277">
        <ele>762</ele>
        <time>2010-04-05T01:55:24Z</time>
      </trkpt>
      <trkpt lat="45.66088" lon="4.56318">
        <ele>762</ele>
        <time>2010-04-05T01:55:27Z</time>
      </trkpt>
      <trkpt lat="45.66089" lon="4.56333">
        <ele>761</ele>
        <time>2010-04-05T01:55:29Z</time>
      </trkpt>
      <trkpt lat="45.66086" lon="4.56342">
        <ele>761</ele>
        <time>2010-04-05T01:55:30Z</time>
      </trkpt>
      <trkpt lat="45.66058" lon="4.56357">
        <ele>761</ele>
        <time>2010-04-05T01:55:34Z</time>
      </trkpt>
      <trkpt lat="45.66055" lon="4.56359">
        <ele>762</ele>
        <time>2010-04-05T01:55:37Z</time>
      </trkpt>
      <trkpt lat="45.66031" lon="4.56371">
        <ele>761</ele>
        <time>2010-04-05T01:55:40Z</time>
      </trkpt>
      <trkpt lat="45.66005" lon="4.56385">
        <ele>759</ele>
        <time>2010-04-05T01:55:44Z</time>
      </trkpt>
      <trkpt lat="45.65987" lon="4.56391">
        <ele>758</ele>
        <time>2010-04-05T01:55:46Z</time>
      </trkpt>
      <trkpt lat="45.65965" lon="4.56396">
        <ele>756</ele>
        <time>2010-04-05T01:55:49Z</time>
      </trkpt>
      <trkpt lat="45.65965" lon="4.56396">
        <ele>755</ele>
        <time>2010-04-05T01:55:50Z</time>
      </trkpt>
      <trkpt lat="45.65915" lon="4.56396">
        <ele>753</ele>
        <time>2010-04-05T01:55:57Z</time>
      </trkpt>
      <trkpt lat="45.65905" lon="4.56396">
        <ele>752</ele>
        <time>2010-04-05T01:55:58Z</time>
      </trkpt>
      <trkpt lat="45.65897" lon="4.56396">
        <ele>752</ele>
        <time>2010-04-05T01:55:59Z</time>
      </trkpt>
      <trkpt lat="45.65897" lon="4.56396">
        <ele>751</ele>
        <time>2010-04-05T01:56:00Z</time>
      </trkpt>
      <trkpt lat="45.6588" lon="4.56404">
        <ele>751</ele>
        <time>2010-04-05T01:56:03Z</time>
      </trkpt>
      <trkpt lat="45.65874" lon="4.5645">
        <ele>751</ele>
        <time>2010-04-05T01:56:07Z</time>
      </trkpt>
      <trkpt lat="45.65861" lon="4.56489">
        <ele>751</ele>
        <time>2010-04-05T01:56:11Z</time>
      </trkpt>
      <trkpt lat="45.6584" lon="4.56531">
        <ele>752</ele>
        <time>2010-04-05T01:56:18Z</time>
      </trkpt>
      <trkpt lat="45.6582" lon="4.56572">
        <ele>753</ele>
        <time>2010-04-05T01:56:25Z</time>
      </trkpt>
      <trkpt lat="45.65796" lon="4.56609">
        <ele>753</ele>
        <time>2010-04-05T01:56:30Z</time>
      </trkpt>
      <trkpt lat="45.65773" lon="4.56629">
        <ele>755</ele>
        <time>2010-04-05T01:56:38Z</time>
      </trkpt>
      <trkpt lat="45.6576" lon="4.56635">
        <ele>755</ele>
        <time>2010-04-05T01:56:40Z</time>
      </trkpt>
      <trkpt lat="45.65742" lon="4.56641">
        <ele>756</ele>
        <time>2010-04-05T01:56:45Z</time>
      </trkpt>
      <trkpt lat="45.65711" lon="4.56632">
        <ele>757</ele>
        <time>2010-04-05T01:56:52Z</time>
      </trkpt>
      <trkpt lat="45.65699" lon="4.56625">
        <ele>757</ele>
        <time>2010-04-05T01:56:54Z</time>
      </trkpt>
      <trkpt lat="45.65672" lon="4.56623">
        <ele>757</ele>
        <time>2010-04-05T01:56:57Z</time>
      </trkpt>
      <trkpt lat="45.65665" lon="4.56629">
        <ele>758</ele>
        <time>2010-04-05T01:57:01Z</time>
      </trkpt>
      <trkpt lat="45.65649" lon="4.56651">
        <ele>759</ele>
        <time>2010-04-05T01:57:06Z</time>
      </trkpt>
      <trkpt lat="45.65645" lon="4.56662">
        <ele>759</ele>
        <time>2010-04-05T01:57:07Z</time>
      </trkpt>
      <trkpt lat="45.65627" lon="4.56703">
        <ele>760</ele>
        <time>2010-04-05T01:57:14Z</time>
      </trkpt>
      <trkpt lat="45.65611" lon="4.56742">
        <ele>762</ele>
        <time>2010-04-05T01:57:23Z</time>
      </trkpt>
      <trkpt lat="45.65605" lon="4.56755">
        <ele>762</ele>
        <time>2010-04-05T01:57:25Z</time>
      </trkpt>
      <trkpt lat="45.65603" lon="4.56787">
        <ele>763</ele>
        <time>2010-04-05T01:57:30Z</time>
      </trkpt>
      <trkpt lat="45.65605" lon="4.56804">
        <ele>764</ele>
        <time>2010-04-05T01:57:34Z</time>
      </trkpt>
      <trkpt lat="45.65617" lon="4.56849">
        <ele>764</ele>
        <time>2010-04-05T01:57:38Z</time>
      </trkpt>
      <trkpt lat="45.65621" lon="4.56882">
        <ele>765</ele>
        <time>2010-04-05T01:57:44Z</time>
      </trkpt>
      <trkpt lat="45.65612" lon="4.56902">
        <ele>766</ele>
        <time>2010-04-05T01:57:49Z</time>
      </trkpt>
      <trkpt lat="45.65609" lon="4.56906">
        <ele>766</ele>
        <time>2010-04-05T01:57:49Z</time>
      </trkpt>
      <trkpt lat="45.65585" lon="4.56926">
        <ele>766</ele>
        <time>2010-04-05T01:57:53Z</time>
      </trkpt>
      <trkpt lat="45.65551" lon="4.56939">
        <ele>764</ele>
        <time>2010-04-05T01:57:58Z</time>
      </trkpt>
      <trkpt lat="45.65523" lon="4.56945">
        <ele>763</ele>
        <time>2010-04-05T01:58:01Z</time>
      </trkpt>
      <trkpt lat="45.65489" lon="4.56954">
        <ele>761</ele>
        <time>2010-04-05T01:58:06Z</time>
      </trkpt>
      <trkpt lat="45.65445" lon="4.56977">
        <ele>760</ele>
        <time>2010-04-05T01:58:12Z</time>
      </trkpt>
      <trkpt lat="45.65442" lon="4.56993">
        <ele>759</ele>
        <time>2010-04-05T01:58:14Z</time>
      </trkpt>
      <trkpt lat="45.65449" lon="4.5701">
        <ele>759</ele>
        <time>2010-04-05T01:58:16Z</time>
      </trkpt>
      <trkpt lat="45.65461" lon="4.57041">
        <ele>759</ele>
        <time>2010-04-05T01:58:19Z</time>
      </trkpt>
      <trkpt lat="45.65475" lon="4.57076">
        <ele>760</ele>
        <time>2010-04-05T01:58:25Z</time>
      </trkpt>
      <trkpt lat="45.65489" lon="4.57121">
        <ele>758</ele>
        <time>2010-04-05T01:58:30Z</time>
      </trkpt>
      <trkpt lat="45.65491" lon="4.5713">
        <ele>758</ele>
        <time>2010-04-05T01:58:31Z</time>
      </trkpt>
      <trkpt lat="45.65498" lon="4.57165">
        <ele>757</ele>
        <time>2010-04-05T01:58:34Z</time>
      </trkpt>
      <trkpt lat="45.65496" lon="4.57214">
        <ele>756</ele>
        <time>2010-04-05T01:58:39Z</time>
      </trkpt>
      <trkpt lat="45.65492" lon="4.57233">
        <ele>756</ele>
        <time>2010-04-05T01:58:40Z</time>
      </trkpt>
      <trkpt lat="45.65471" lon="4.57274">
        <ele>755</ele>
        <time>2010-04-05T01:58:45Z</time>
      </trkpt>
      <trkpt lat="45.65459" lon="4.57308">
        <ele>754</ele>
        <time>2010-04-05T01:58:49Z</time>
      </trkpt>
      <trkpt lat="45.65462" lon="4.57334">
        <ele>754</ele>
        <time>2010-04-05T01:58:51Z</time>
      </trkpt>
      <trkpt lat="45.65464" lon="4.57342">
        <ele>754</ele>
        <time>2010-04-05T01:58:52Z</time>
      </trkpt>
      <trkpt lat="45.65499" lon="4.57397">
        <ele>752</ele>
        <time>2010-04-05T01:58:59Z</time>
      </trkpt>
      <trkpt lat="45.65508" lon="4.5741">
        <ele>752</ele>
        <time>2010-04-05T01:59:01Z</time>
      </trkpt>
      <trkpt lat="45.65523" lon="4.57451">
        <ele>751</ele>
        <time>2010-04-05T01:59:05Z</time>
      </trkpt>
      <trkpt lat="45.65519" lon="4.5747">
        <ele>750</ele>
        <time>2010-04-05T01:59:07Z</time>
      </trkpt>
      <trkpt lat="45.65515" lon="4.57493">
        <ele>749</ele>
        <time>2010-04-05T01:59:09Z</time>
      </trkpt>
      <trkpt lat="45.6551" lon="4.57516">
        <ele>748</ele>
        <time>2010-04-05T01:59:11Z</time>
      </trkpt>
      <trkpt lat="45.65508" lon="4.57527">
        <ele>747</ele>
        <time>2010-04-05T01:59:12Z</time>
      </trkpt>
      <trkpt lat="45.6549" lon="4.57571">
        <ele>745</ele>
        <time>2010-04-05T01:59:17Z</time>
      </trkpt>
      <trkpt lat="45.65484" lon="4.57579">
        <ele>744</ele>
        <time>2010-04-05T01:59:18Z</time>
      </trkpt>
      <trkpt lat="45.65455" lon="4.57623">
        <ele>742</ele>
        <time>2010-04-05T01:59:24Z</time>
      </trkpt>
      <trkpt lat="45.65457" lon="4.57645">
        <ele>741</ele>
        <time>2010-04-05T01:59:26Z</time>
      </trkpt>
      <trkpt lat="45.65468" lon="4.57718">
        <ele>738</ele>
        <time>2010-04-05T01:59:33Z</time>
      </trkpt>
      <trkpt lat="45.65474" lon="4.57758">
        <ele>736</ele>
        <time>2010-04-05T01:59:37Z</time>
      </trkpt>
      <trkpt lat="45.65493" lon="4.57883">
        <ele>730</ele>
        <time>2010-04-05T01:59:49Z</time>
      </trkpt>
      <trkpt lat="45.65495" lon="4.57897">
        <ele>730</ele>
        <time>2010-04-05T01:59:50Z</time>
      </trkpt>
      <trkpt lat="45.65503" lon="4.57946">
        <ele>728</ele>
        <time>2010-04-05T01:59:55Z</time>
      </trkpt>
      <trkpt lat="45.65502" lon="4.57991">
        <ele>726</ele>
        <time>2010-04-05T01:59:59Z</time>
      </trkpt>
      <trkpt lat="45.65496" lon="4.57998">
        <ele>726</ele>
        <time>2010-04-05T02:00:00Z</time>
      </trkpt>
      <trkpt lat="45.65486" lon="4.58006">
        <ele>725</ele>
        <time>2010-04-05T02:00:01Z</time>
      </trkpt>
      <trkpt lat="45.65456" lon="4.58011">
        <ele>724</ele>
        <time>2010-04-05T02:00:05Z</time>
      </trkpt>
      <trkpt lat="45.65439" lon="4.58014">
        <ele>723</ele>
        <time>2010-04-05T02:00:08Z</time>
      </trkpt>
      <trkpt lat="45.6542" lon="4.58039">
        <ele>721</ele>
        <time>2010-04-05T02:00:11Z</time>
      </trkpt>
      <trkpt lat="45.65412" lon="4.58066">
        <ele>721</ele>
        <time>2010-04-05T02:00:14Z</time>
      </trkpt>
      <trkpt lat="45.65427" lon="4.58101">
        <ele>721</ele>
        <time>2010-04-05T02:00:18Z</time>
      </trkpt>
      <trkpt lat="45.65447" lon="4.58136">
        <ele>721</ele>
        <time>2010-04-05T02:00:22Z</time>
      </trkpt>
      <trkpt lat="45.65449" lon="4.58185">
        <ele>722</ele>
        <time>2010-04-05T02:00:29Z</time>
      </trkpt>
      <trkpt lat="45.65448" lon="4.58214">
        <ele>722</ele>
        <time>2010-04-05T02:00:32Z</time>
      </trkpt>
      <trkpt lat="45.65447" lon="4.58253">
        <ele>722</ele>
        <time>2010-04-05T02:00:35Z</time>
      </trkpt>
      <trkpt lat="45.65446" lon="4.58262">
        <ele>723</ele>
        <time>2010-04-05T02:00:39Z</time>
      </trkpt>
      <trkpt lat="45.6545" lon="4.5828">
        <ele>723</ele>
        <time>2010-04-05T02:00:40Z</time>
      </trkpt>
      <trkpt lat="45.65453" lon="4.58299">
        <ele>723</ele>
        <time>2010-04-05T02:00:42Z</time>
      </trkpt>
      <trkpt lat="45.65458" lon="4.58318">
        <ele>723</ele>
        <time>2010-04-05T02:00:44Z</time>
      </trkpt>
      <trkpt lat="45.65464" lon="4.58369">
        <ele>724</ele>
        <time>2010-04-05T02:00:51Z</time>
      </trkpt>
      <trkpt lat="45.65466" lon="4.58412">
        <ele>724</ele>
        <time>2010-04-05T02:00:55Z</time>
      </trkpt>
      <trkpt lat="45.65458" lon="4.58483">
        <ele>725</ele>
        <time>2010-04-05T02:01:04Z</time>
      </trkpt>
      <trkpt lat="45.65451" lon="4.58513">
        <ele>726</ele>
        <time>2010-04-05T02:01:10Z</time>
      </trkpt>
      <trkpt lat="45.6543" lon="4.58555">
        <ele>725</ele>
        <time>2010-04-05T02:01:15Z</time>
      </trkpt>
      <trkpt lat="45.65395" lon="4.58594">
        <ele>724</ele>
        <time>2010-04-05T02:01:21Z</time>
      </trkpt>
      <trkpt lat="45.65354" lon="4.5862">
        <ele>723</ele>
        <time>2010-04-05T02:01:27Z</time>
      </trkpt>
      <trkpt lat="45.65329" lon="4.58638">
        <ele>722</ele>
        <time>2010-04-05T02:01:30Z</time>
      </trkpt>
      <trkpt lat="45.6531" lon="4.58676">
        <ele>720</ele>
        <time>2010-04-05T02:01:35Z</time>
      </trkpt>
      <trkpt lat="45.65305" lon="4.58697">
        <ele>719</ele>
        <time>2010-04-05T02:01:37Z</time>
      </trkpt>
      <trkpt lat="45.65313" lon="4.58722">
        <ele>718</ele>
        <time>2010-04-05T02:01:39Z</time>
      </trkpt>
      <trkpt lat="45.6533" lon="4.58744">
        <ele>717</ele>
        <time>2010-04-05T02:01:42Z</time>
      </trkpt>
      <trkpt lat="45.65336" lon="4.58747">
        <ele>716</ele>
        <time>2010-04-05T02:01:43Z</time>
      </trkpt>
      <trkpt lat="45.65358" lon="4.58762">
        <ele>715</ele>
        <time>2010-04-05T02:01:47Z</time>
      </trkpt>
      <trkpt lat="45.65389" lon="4.58787">
        <ele>714</ele>
        <time>2010-04-05T02:01:51Z</time>
      </trkpt>
      <trkpt lat="45.65423" lon="4.58845">
        <ele>712</ele>
        <time>2010-04-05T02:01:58Z</time>
      </trkpt>
      <trkpt lat="45.65443" lon="4.58889">
        <ele>710</ele>
        <time>2010-04-05T02:02:03Z</time>
      </trkpt>
      <trkpt lat="45.6547" lon="4.58959">
        <ele>707</ele>
        <time>2010-04-05T02:02:11Z</time>
      </trkpt>
      <trkpt lat="45.65473" lon="4.58971">
        <ele>706</ele>
        <time>2010-04-05T02:02:12Z</time>
      </trkpt>
      <trkpt lat="45.65476" lon="4.59037">
        <ele>704</ele>
        <time>2010-04-05T02:02:18Z</time>
      </trkpt>
      <trkpt lat="45.65476" lon="4.5905">
        <ele>704</ele>
        <time>2010-04-05T02:02:19Z</time>
      </trkpt>
      <trkpt lat="45.6547" lon="4.59085">
        <ele>703</ele>
        <time>2010-04-05T02:02:23Z</time>
      </trkpt>
      <trkpt lat="45.65464" lon="4.59095">
        <ele>702</ele>
        <time>2010-04-05T02:02:24Z</time>
      </trkpt>
      <trkpt lat="45.65452" lon="4.59116">
        <ele>701</ele>
        <time>2010-04-05T02:02:26Z</time>
      </trkpt>
      <trkpt lat="45.65442" lon="4.59135">
        <ele>700</ele>
        <time>2010-04-05T02:02:29Z</time>
      </trkpt>
      <trkpt lat="45.65439" lon="4.59161">
        <ele>699</ele>
        <time>2010-04-05T02:02:31Z</time>
      </trkpt>
      <trkpt lat="45.65445" lon="4.59181">
        <ele>697</ele>
        <time>2010-04-05T02:02:33Z</time>
      </trkpt>
      <trkpt lat="45.65451" lon="4.59192">
        <ele>698</ele>
        <time>2010-04-05T02:02:37Z</time>
      </trkpt>
      <trkpt lat="45.6549" lon="4.59257">
        <ele>695</ele>
        <time>2010-04-05T02:02:45Z</time>
      </trkpt>
      <trkpt lat="45.65511" lon="4.59307">
        <ele>693</ele>
        <time>2010-04-05T02:02:50Z</time>
      </trkpt>
      <trkpt lat="45.65526" lon="4.59345">
        <ele>692</ele>
        <time>2010-04-05T02:02:54Z</time>
      </trkpt>
      <trkpt lat="45.65562" lon="4.59446">
        <ele>688</ele>
        <time>2010-04-05T02:03:05Z</time>
      </trkpt>
      <trkpt lat="45.65585" lon="4.59488">
        <ele>686</ele>
        <time>2010-04-05T02:03:10Z</time>
      </trkpt>
      <trkpt lat="45.65593" lon="4.59494">
        <ele>686</ele>
        <time>2010-04-05T02:03:11Z</time>
      </trkpt>
      <trkpt lat="45.65658" lon="4.59544">
        <ele>682</ele>
        <time>2010-04-05T02:03:21Z</time>
      </trkpt>
      <trkpt lat="45.65665" lon="4.59553">
        <ele>682</ele>
        <time>2010-04-05T02:03:22Z</time>
      </trkpt>
      <trkpt lat="45.6569" lon="4.5959">
        <ele>681</ele>
        <time>2010-04-05T02:03:27Z</time>
      </trkpt>
      <trkpt lat="45.65697" lon="4.59605">
        <ele>680</ele>
        <time>2010-04-05T02:03:29Z</time>
      </trkpt>
      <trkpt lat="45.65699" lon="4.59632">
        <ele>679</ele>
        <time>2010-04-05T02:03:31Z</time>
      </trkpt>
      <trkpt lat="45.65718" lon="4.59675">
        <ele>677</ele>
        <time>2010-04-05T02:03:36Z</time>
      </trkpt>
      <trkpt lat="45.65739" lon="4.59759">
        <ele>673</ele>
        <time>2010-04-05T02:03:44Z</time>
      </trkpt>
      <trkpt lat="45.65761" lon="4.59852">
        <ele>669</ele>
        <time>2010-04-05T02:03:53Z</time>
      </trkpt>
      <trkpt lat="45.65764" lon="4.59863">
        <ele>669</ele>
        <time>2010-04-05T02:03:55Z</time>
      </trkpt>
      <trkpt lat="45.65778" lon="4.59923">
        <ele>666</ele>
        <time>2010-04-05T02:04:00Z</time>
      </trkpt>
      <trkpt lat="45.6578" lon="4.59935">
        <ele>665</ele>
        <time>2010-04-05T02:04:02Z</time>
      </trkpt>
      <trkpt lat="45.65801" lon="4.59974">
        <ele>663</ele>
        <time>2010-04-05T02:04:06Z</time>
      </trkpt>
      <trkpt lat="45.65812" lon="4.59995">
        <ele>661</ele>
        <time>2010-04-05T02:04:09Z</time>
      </trkpt>
      <trkpt lat="45.65829" lon="4.60054">
        <ele>659</ele>
        <time>2010-04-05T02:04:15Z</time>
      </trkpt>
      <trkpt lat="45.6583" lon="4.60067">
        <ele>658</ele>
        <time>2010-04-05T02:04:16Z</time>
      </trkpt>
      <trkpt lat="45.65832" lon="4.6008">
        <ele>658</ele>
        <time>2010-04-05T02:04:17Z</time>
      </trkpt>
      <trkpt lat="45.65841" lon="4.60155">
        <ele>655</ele>
        <time>2010-04-05T02:04:24Z</time>
      </trkpt>
      <trkpt lat="45.65842" lon="4.60168">
        <ele>654</ele>
        <time>2010-04-05T02:04:25Z</time>
      </trkpt>
      <trkpt lat="45.65845" lon="4.60193">
        <ele>653</ele>
        <time>2010-04-05T02:04:28Z</time>
      </trkpt>
      <trkpt lat="45.65837" lon="4.60226">
        <ele>652</ele>
        <time>2010-04-05T02:04:31Z</time>
      </trkpt>
      <trkpt lat="45.65824" lon="4.60245">
        <ele>651</ele>
        <time>2010-04-05T02:04:33Z</time>
      </trkpt>
      <trkpt lat="45.6579" lon="4.60272">
        <ele>649</ele>
        <time>2010-04-05T02:04:39Z</time>
      </trkpt>
      <trkpt lat="45.65756" lon="4.60309">
        <ele>646</ele>
        <time>2010-04-05T02:04:44Z</time>
      </trkpt>
      <trkpt lat="45.6575" lon="4.60322">
        <ele>646</ele>
        <time>2010-04-05T02:04:46Z</time>
      </trkpt>
      <trkpt lat="45.65739" lon="4.6035">
        <ele>644</ele>
        <time>2010-04-05T02:04:49Z</time>
      </trkpt>
      <trkpt lat="45.65725" lon="4.60411">
        <ele>642</ele>
        <time>2010-04-05T02:04:55Z</time>
      </trkpt>
      <trkpt lat="45.6571" lon="4.60486">
        <ele>640</ele>
        <time>2010-04-05T02:05:02Z</time>
      </trkpt>
      <trkpt lat="45.65691" lon="4.60601">
        <ele>636</ele>
        <time>2010-04-05T02:05:13Z</time>
      </trkpt>
      <trkpt lat="45.6569" lon="4.60615">
        <ele>636</ele>
        <time>2010-04-05T02:05:14Z</time>
      </trkpt>
      <trkpt lat="45.65685" lon="4.60642">
        <ele>634</ele>
        <time>2010-04-05T02:05:17Z</time>
      </trkpt>
      <trkpt lat="45.65673" lon="4.60693">
        <ele>632</ele>
        <time>2010-04-05T02:05:22Z</time>
      </trkpt>
      <trkpt lat="45.65667" lon="4.60702">
        <ele>632</ele>
        <time>2010-04-05T02:05:23Z</time>
      </trkpt>
      <trkpt lat="45.65654" lon="4.60722">
        <ele>631</ele>
        <time>2010-04-05T02:05:26Z</time>
      </trkpt>
      <trkpt lat="45.6563" lon="4.60763">
        <ele>629</ele>
        <time>2010-04-05T02:05:31Z</time>
      </trkpt>
      <trkpt lat="45.65628" lon="4.60777">
        <ele>629</ele>
        <time>2010-04-05T02:05:32Z</time>
      </trkpt>
      <trkpt lat="45.65626" lon="4.60804">
        <ele>628</ele>
        <time>2010-04-05T02:05:35Z</time>
      </trkpt>
      <trkpt lat="45.65629" lon="4.60844">
        <ele>626</ele>
        <time>2010-04-05T02:05:38Z</time>
      </trkpt>
      <trkpt lat="45.65637" lon="4.60895">
        <ele>625</ele>
        <time>2010-04-05T02:05:43Z</time>
      </trkpt>
      <trkpt lat="45.65639" lon="4.60907">
        <ele>625</ele>
        <time>2010-04-05T02:05:44Z</time>
      </trkpt>
      <trkpt lat="45.65664" lon="4.60943">
        <ele>623</ele>
        <time>2010-04-05T02:05:49Z</time>
      </trkpt>
      <trkpt lat="45.6567" lon="4.60951">
        <ele>623</ele>
        <time>2010-04-05T02:05:50Z</time>
      </trkpt>
      <trkpt lat="45.65699" lon="4.60983">
        <ele>621</ele>
        <time>2010-04-05T02:05:55Z</time>
      </trkpt>
      <trkpt lat="45.6572" lon="4.61007">
        <ele>620</ele>
        <time>2010-04-05T02:05:59Z</time>
      </trkpt>
      <trkpt lat="45.65741" lon="4.6105">
        <ele>618</ele>
        <time>2010-04-05T02:06:04Z</time>
      </trkpt>
      <trkpt lat="45.65743" lon="4.61062">
        <ele>618</ele>
        <time>2010-04-05T02:06:05Z</time>
      </trkpt>
      <trkpt lat="45.65748" lon="4.61117">
        <ele>616</ele>
        <time>2010-04-05T02:06:10Z</time>
      </trkpt>
      <trkpt lat="45.65749" lon="4.61131">
        <ele>616</ele>
        <time>2010-04-05T02:06:11Z</time>
      </trkpt>
      <trkpt lat="45.65749" lon="4.61171">
        <ele>614</ele>
        <time>2010-04-05T02:06:15Z</time>
      </trkpt>
      <trkpt lat="45.65747" lon="4.61198">
        <ele>614</ele>
        <time>2010-04-05T02:06:18Z</time>
      </trkpt>
      <trkpt lat="45.65746" lon="4.61251">
        <ele>611</ele>
        <time>2010-04-05T02:06:23Z</time>
      </trkpt>
      <trkpt lat="45.65749" lon="4.61263">
        <ele>611</ele>
        <time>2010-04-05T02:06:24Z</time>
      </trkpt>
      <trkpt lat="45.65758" lon="4.61285">
        <ele>610</ele>
        <time>2010-04-05T02:06:26Z</time>
      </trkpt>
      <trkpt lat="45.65776" lon="4.61312">
        <ele>609</ele>
        <time>2010-04-05T02:06:30Z</time>
      </trkpt>
      <trkpt lat="45.65822" lon="4.61376">
        <ele>605</ele>
        <time>2010-04-05T02:06:38Z</time>
      </trkpt>
      <trkpt lat="45.65836" lon="4.61393">
        <ele>603</ele>
        <time>2010-04-05T02:06:41Z</time>
      </trkpt>
      <trkpt lat="45.65896" lon="4.61474">
        <ele>599</ele>
        <time>2010-04-05T02:06:52Z</time>
      </trkpt>
      <trkpt lat="45.65909" lon="4.61493">
        <ele>597</ele>
        <time>2010-04-05T02:06:54Z</time>
      </trkpt>
      <trkpt lat="45.65937" lon="4.61507">
        <ele>596</ele>
        <time>2010-04-05T02:06:58Z</time>
      </trkpt>
      <trkpt lat="45.65945" lon="4.61506">
        <ele>596</ele>
        <time>2010-04-05T02:06:59Z</time>
      </trkpt>
      <trkpt lat="45.65973" lon="4.61504">
        <ele>594</ele>
        <time>2010-04-05T02:07:03Z</time>
      </trkpt>
      <trkpt lat="45.66007" lon="4.61523">
        <ele>591</ele>
        <time>2010-04-05T02:07:08Z</time>
      </trkpt>
      <trkpt lat="45.6601" lon="4.61533">
        <ele>591</ele>
        <time>2010-04-05T02:07:09Z</time>
      </trkpt>
      <trkpt lat="45.66019" lon="4.61589">
        <ele>588</ele>
        <time>2010-04-05T02:07:14Z</time>
      </trkpt>
      <trkpt lat="45.66021" lon="4.61603">
        <ele>588</ele>
        <time>2010-04-05T02:07:15Z</time>
      </trkpt>
      <trkpt lat="45.66021" lon="4.61606">
        <ele>587</ele>
        <time>2010-04-05T02:07:16Z</time>
      </trkpt>
      <trkpt lat="45.66015" lon="4.61661">
        <ele>586</ele>
        <time>2010-04-05T02:07:21Z</time>
      </trkpt>
      <trkpt lat="45.66004" lon="4.61705">
        <ele>583</ele>
        <time>2010-04-05T02:07:25Z</time>
      </trkpt>
      <trkpt lat="45.65978" lon="4.61738">
        <ele>582</ele>
        <time>2010-04-05T02:07:30Z</time>
      </trkpt>
      <trkpt lat="45.65969" lon="4.61744">
        <ele>582</ele>
        <time>2010-04-05T02:07:31Z</time>
      </trkpt>
      <trkpt lat="45.65942" lon="4.61764">
        <ele>580</ele>
        <time>2010-04-05T02:07:35Z</time>
      </trkpt>
      <trkpt lat="45.65911" lon="4.61798">
        <ele>578</ele>
        <time>2010-04-05T02:07:40Z</time>
      </trkpt>
      <trkpt lat="45.65876" lon="4.6187">
        <ele>574</ele>
        <time>2010-04-05T02:07:49Z</time>
      </trkpt>
      <trkpt lat="45.65844" lon="4.6193">
        <ele>571</ele>
        <time>2010-04-05T02:07:56Z</time>
      </trkpt>
      <trkpt lat="45.65811" lon="4.62006">
        <ele>568</ele>
        <time>2010-04-05T02:08:04Z</time>
      </trkpt>
      <trkpt lat="45.65793" lon="4.62042">
        <ele>566</ele>
        <time>2010-04-05T02:08:08Z</time>
      </trkpt>
      <trkpt lat="45.65773" lon="4.62089">
        <ele>564</ele>
        <time>2010-04-05T02:08:13Z</time>
      </trkpt>
      <trkpt lat="45.65762" lon="4.62159">
        <ele>561</ele>
        <time>2010-04-05T02:08:20Z</time>
      </trkpt>
      <trkpt lat="45.65755" lon="4.62199">
        <ele>560</ele>
        <time>2010-04-05T02:08:24Z</time>
      </trkpt>
      <trkpt lat="45.65767" lon="4.62238">
        <ele>558</ele>
        <time>2010-04-05T02:08:28Z</time>
      </trkpt>
      <trkpt lat="45.65778" lon="4.62278">
        <ele>556</ele>
        <time>2010-04-05T02:08:32Z</time>
      </trkpt>
      <trkpt lat="45.65787" lon="4.6232">
        <ele>554</ele>
        <time>2010-04-05T02:08:36Z</time>
      </trkpt>
      <trkpt lat="45.65788" lon="4.62363">
        <ele>552</ele>
        <time>2010-04-05T02:08:40Z</time>
      </trkpt>
      <trkpt lat="45.65786" lon="4.62378">
        <ele>552</ele>
        <time>2010-04-05T02:08:41Z</time>
      </trkpt>
      <trkpt lat="45.65775" lon="4.62404">
        <ele>551</ele>
        <time>2010-04-05T02:08:44Z</time>
      </trkpt>
      <trkpt lat="45.65743" lon="4.62461">
        <ele>547</ele>
        <time>2010-04-05T02:08:51Z</time>
      </trkpt>
      <trkpt lat="45.65714" lon="4.62502">
        <ele>546</ele>
        <time>2010-04-05T02:08:57Z</time>
      </trkpt>
      <trkpt lat="45.65677" lon="4.62572">
        <ele>541</ele>
        <time>2010-04-05T02:09:05Z</time>
      </trkpt>
      <trkpt lat="45.65665" lon="4.62608">
        <ele>539</ele>
        <time>2010-04-05T02:09:08Z</time>
      </trkpt>
      <trkpt lat="45.65669" lon="4.62647">
        <ele>538</ele>
        <time>2010-04-05T02:09:12Z</time>
      </trkpt>
      <trkpt lat="45.65679" lon="4.62662">
        <ele>538</ele>
        <time>2010-04-05T02:09:14Z</time>
      </trkpt>
      <trkpt lat="45.65692" lon="4.6267">
        <ele>538</ele>
        <time>2010-04-05T02:09:16Z</time>
      </trkpt>
      <trkpt lat="45.65766" lon="4.62698">
        <ele>538</ele>
        <time>2010-04-05T02:09:26Z</time>
      </trkpt>
      <trkpt lat="45.65788" lon="4.62707">
        <ele>537</ele>
        <time>2010-04-05T02:09:29Z</time>
      </trkpt>
      <trkpt lat="45.6583" lon="4.62705">
        <ele>535</ele>
        <time>2010-04-05T02:09:35Z</time>
      </trkpt>
      <trkpt lat="45.65876" lon="4.62695">
        <ele>533</ele>
        <time>2010-04-05T02:09:41Z</time>
      </trkpt>
      <trkpt lat="45.65902" lon="4.62695">
        <ele>532</ele>
        <time>2010-04-05T02:09:44Z</time>
      </trkpt>
      <trkpt lat="45.65928" lon="4.62701">
        <ele>530</ele>
        <time>2010-04-05T02:09:48Z</time>
      </trkpt>
      <trkpt lat="45.65934" lon="4.62708">
        <ele>530</ele>
        <time>2010-04-05T02:09:49Z</time>
      </trkpt>
      <trkpt lat="45.65979" lon="4.62762">
        <ele>528</ele>
        <time>2010-04-05T02:09:57Z</time>
      </trkpt>
      <trkpt lat="45.65998" lon="4.62796">
        <ele>526</ele>
        <time>2010-04-05T02:10:01Z</time>
      </trkpt>
      <trkpt lat="45.65996" lon="4.62826">
        <ele>525</ele>
        <time>2010-04-05T02:10:04Z</time>
      </trkpt>
      <trkpt lat="45.65992" lon="4.62846">
        <ele>525</ele>
        <time>2010-04-05T02:10:06Z</time>
      </trkpt>
      <trkpt lat="45.65973" lon="4.62916">
        <ele>522</ele>
        <time>2010-04-05T02:10:13Z</time>
      </trkpt>
      <trkpt lat="45.65968" lon="4.62936">
        <ele>522</ele>
        <time>2010-04-05T02:10:15Z</time>
      </trkpt>
      <trkpt lat="45.65965" lon="4.62962">
        <ele>521</ele>
        <time>2010-04-05T02:10:17Z</time>
      </trkpt>
      <trkpt lat="45.6598" lon="4.62996">
        <ele>520</ele>
        <time>2010-04-05T02:10:21Z</time>
      </trkpt>
      <trkpt lat="45.66036" lon="4.63054">
        <ele>516</ele>
        <time>2010-04-05T02:10:30Z</time>
      </trkpt>
      <trkpt lat="45.66042" lon="4.6306">
        <ele>516</ele>
        <time>2010-04-05T02:10:31Z</time>
      </trkpt>
      <trkpt lat="45.66055" lon="4.631">
        <ele>514</ele>
        <time>2010-04-05T02:10:35Z</time>
      </trkpt>
      <trkpt lat="45.66055" lon="4.63111">
        <ele>513</ele>
        <time>2010-04-05T02:10:36Z</time>
      </trkpt>
      <trkpt lat="45.66052" lon="4.63145">
        <ele>513</ele>
        <time>2010-04-05T02:10:39Z</time>
      </trkpt>
      <trkpt lat="45.66051" lon="4.63147">
        <ele>512</ele>
        <time>2010-04-05T02:10:40Z</time>
      </trkpt>
      <trkpt lat="45.66051" lon="4.63147">
        <ele>512</ele>
        <time>2010-04-05T02:10:41Z</time>
      </trkpt>
      <trkpt lat="45.6606" lon="4.63194">
        <ele>511</ele>
        <time>2010-04-05T02:10:45Z</time>
      </trkpt>
      <trkpt lat="45.6606" lon="4.63194">
        <ele>511</ele>
        <time>2010-04-05T02:10:46Z</time>
      </trkpt>
      <trkpt lat="45.66064" lon="4.63223">
        <ele>510</ele>
        <time>2010-04-05T02:10:49Z</time>
      </trkpt>
      <trkpt lat="45.66054" lon="4.63231">
        <ele>510</ele>
        <time>2010-04-05T02:10:50Z</time>
      </trkpt>
      <trkpt lat="45.66045" lon="4.63236">
        <ele>511</ele>
        <time>2010-04-05T02:10:54Z</time>
      </trkpt>
      <trkpt lat="45.66042" lon="4.63237">
        <ele>509</ele>
        <time>2010-04-05T02:10:54Z</time>
      </trkpt>
      <trkpt lat="45.66003" lon="4.63245">
        <ele>508</ele>
        <time>2010-04-05T02:11:00Z</time>
      </trkpt>
      <trkpt lat="45.65984" lon="4.63237">
        <ele>506</ele>
        <time>2010-04-05T02:11:02Z</time>
      </trkpt>
      <trkpt lat="45.65968" lon="4.63218">
        <ele>504</ele>
        <time>2010-04-05T02:11:05Z</time>
      </trkpt>
      <trkpt lat="45.65965" lon="4.63215">
        <ele>504</ele>
        <time>2010-04-05T02:11:06Z</time>
      </trkpt>
      <trkpt lat="45.65945" lon="4.63142">
        <ele>501</ele>
        <time>2010-04-05T02:11:13Z</time>
      </trkpt>
      <trkpt lat="45.65944" lon="4.63138">
        <ele>500</ele>
        <time>2010-04-05T02:11:13Z</time>
      </trkpt>
      <trkpt lat="45.65944" lon="4.63138">
        <ele>499</ele>
        <time>2010-04-05T02:11:14Z</time>
      </trkpt>
      <trkpt lat="45.65892" lon="4.63062">
        <ele>497</ele>
        <time>2010-04-05T02:11:24Z</time>
      </trkpt>
      <trkpt lat="45.65868" lon="4.63022">
        <ele>494</ele>
        <time>2010-04-05T02:11:29Z</time>
      </trkpt>
      <trkpt lat="45.65862" lon="4.62996">
        <ele>493</ele>
        <time>2010-04-05T02:11:32Z</time>
      </trkpt>
      <trkpt lat="45.65859" lon="4.62969">
        <ele>492</ele>
        <time>2010-04-05T02:11:34Z</time>
      </trkpt>
      <trkpt lat="45.65857" lon="4.62943">
        <ele>491</ele>
        <time>2010-04-05T02:11:37Z</time>
      </trkpt>
      <trkpt lat="45.65847" lon="4.629">
        <ele>489</ele>
        <time>2010-04-05T02:11:41Z</time>
      </trkpt>
      <trkpt lat="45.65836" lon="4.62889">
        <ele>489</ele>
        <time>2010-04-05T02:11:43Z</time>
      </trkpt>
      <trkpt lat="45.65813" lon="4.62891">
        <ele>488</ele>
        <time>2010-04-05T02:11:46Z</time>
      </trkpt>
      <trkpt lat="45.65785" lon="4.62916">
        <ele>487</ele>
        <time>2010-04-05T02:11:50Z</time>
      </trkpt>
      <trkpt lat="45.65754" lon="4.6293">
        <ele>485</ele>
        <time>2010-04-05T02:11:55Z</time>
      </trkpt>
      <trkpt lat="45.65737" lon="4.62927">
        <ele>484</ele>
        <time>2010-04-05T02:11:57Z</time>
      </trkpt>
      <trkpt lat="45.65702" lon="4.629">
        <ele>482</ele>
        <time>2010-04-05T02:12:02Z</time>
      </trkpt>
      <trkpt lat="45.65636" lon="4.62848">
        <ele>478</ele>
        <time>2010-04-05T02:12:12Z</time>
      </trkpt>
      <trkpt lat="45.65559" lon="4.62785">
        <ele>472</ele>
        <time>2010-04-05T02:12:24Z</time>
      </trkpt>
      <trkpt lat="45.65538" lon="4.62769">
        <ele>472</ele>
        <time>2010-04-05T02:12:27Z</time>
      </trkpt>
      <trkpt lat="45.65445" lon="4.627">
        <ele>463</ele>
        <time>2010-04-05T02:12:41Z</time>
      </trkpt>
      <trkpt lat="45.65406" lon="4.62672">
        <ele>462</ele>
        <time>2010-04-05T02:12:47Z</time>
      </trkpt>
      <trkpt lat="45.65388" lon="4.62659">
        <ele>460</ele>
        <time>2010-04-05T02:12:50Z</time>
      </trkpt>
      <trkpt lat="45.65369" lon="4.6266">
        <ele>460</ele>
        <time>2010-04-05T02:12:52Z</time>
      </trkpt>
      <trkpt lat="45.65355" lon="4.6267">
        <ele>460</ele>
        <time>2010-04-05T02:12:55Z</time>
      </trkpt>
      <trkpt lat="45.65349" lon="4.62686">
        <ele>462</ele>
        <time>2010-04-05T02:13:01Z</time>
      </trkpt>
      <trkpt lat="45.65345" lon="4.62701">
        <ele>462</ele>
        <time>2010-04-05T02:13:02Z</time>
      </trkpt>
      <trkpt lat="45.65339" lon="4.6273">
        <ele>464</ele>
        <time>2010-04-05T02:13:10Z</time>
      </trkpt>
      <trkpt lat="45.65339" lon="4.62735">
        <ele>464</ele>
        <time>2010-04-05T02:13:11Z</time>
      </trkpt>
      <trkpt lat="45.65336" lon="4.62771">
        <ele>465</ele>
        <time>2010-04-05T02:13:16Z</time>
      </trkpt>
      <trkpt lat="45.65335" lon="4.62804">
        <ele>466</ele>
        <time>2010-04-05T02:13:22Z</time>
      </trkpt>
      <trkpt lat="45.65337" lon="4.62819">
        <ele>467</ele>
        <time>2010-04-05T02:13:26Z</time>
      </trkpt>
      <trkpt lat="45.65343" lon="4.62842">
        <ele>468</ele>
        <time>2010-04-05T02:13:30Z</time>
      </trkpt>
      <trkpt lat="45.65365" lon="4.62861">
        <ele>469</ele>
        <time>2010-04-05T02:13:36Z</time>
      </trkpt>
      <trkpt lat="45.65385" lon="4.62876">
        <ele>470</ele>
        <time>2010-04-05T02:13:42Z</time>
      </trkpt>
      <trkpt lat="45.654" lon="4.62898">
        <ele>472</ele>
        <time>2010-04-05T02:13:49Z</time>
      </trkpt>
      <trkpt lat="45.65413" lon="4.62918">
        <ele>473</ele>
        <time>2010-04-05T02:13:54Z</time>
      </trkpt>
      <trkpt lat="45.65416" lon="4.62924">
        <ele>475</ele>
        <time>2010-04-05T02:14:00Z</time>
      </trkpt>
      <trkpt lat="45.6542" lon="4.62962">
        <ele>476</ele>
        <time>2010-04-05T02:14:06Z</time>
      </trkpt>
      <trkpt lat="45.6542" lon="4.62962">
        <ele>477</ele>
        <time>2010-04-05T02:14:08Z</time>
      </trkpt>
      <trkpt lat="45.65436" lon="4.63015">
        <ele>479</ele>
        <time>2010-04-05T02:14:18Z</time>
      </trkpt>
      <trkpt lat="45.65448" lon="4.63027">
        <ele>479</ele>
        <time>2010-04-05T02:14:20Z</time>
      </trkpt>
      <trkpt lat="45.65462" lon="4.63038">
        <ele>480</ele>
        <time>2010-04-05T02:14:25Z</time>
      </trkpt>
      <trkpt lat="45.65473" lon="4.63053">
        <ele>481</ele>
        <time>2010-04-05T02:14:29Z</time>
      </trkpt>
      <trkpt lat="45.65487" lon="4.63073">
        <ele>482</ele>
        <time>2010-04-05T02:14:34Z</time>
      </trkpt>
      <trkpt lat="45.65497" lon="4.63095">
        <ele>483</ele>
        <time>2010-04-05T02:14:39Z</time>
      </trkpt>
      <trkpt lat="45.65504" lon="4.63118">
        <ele>484</ele>
        <time>2010-04-05T02:14:44Z</time>
      </trkpt>
      <trkpt lat="45.65512" lon="4.63145">
        <ele>485</ele>
        <time>2010-04-05T02:14:49Z</time>
      </trkpt>
      <trkpt lat="45.65522" lon="4.63176">
        <ele>487</ele>
        <time>2010-04-05T02:14:57Z</time>
      </trkpt>
      <trkpt lat="45.6553" lon="4.63206">
        <ele>489</ele>
        <time>2010-04-05T02:15:05Z</time>
      </trkpt>
      <trkpt lat="45.65532" lon="4.63235">
        <ele>490</ele>
        <time>2010-04-05T02:15:10Z</time>
      </trkpt>
      <trkpt lat="45.65527" lon="4.63264">
        <ele>492</ele>
        <time>2010-04-05T02:15:18Z</time>
      </trkpt>
      <trkpt lat="45.65511" lon="4.63283">
        <ele>493</ele>
        <time>2010-04-05T02:15:23Z</time>
      </trkpt>
      <trkpt lat="45.65494" lon="4.63298">
        <ele>494</ele>
        <time>2010-04-05T02:15:28Z</time>
      </trkpt>
      <trkpt lat="45.65468" lon="4.63316">
        <ele>495</ele>
        <time>2010-04-05T02:15:34Z</time>
      </trkpt>
      <trkpt lat="45.65443" lon="4.63321">
        <ele>497</ele>
        <time>2010-04-05T02:15:42Z</time>
      </trkpt>
      <trkpt lat="45.65426" lon="4.63328">
        <ele>498</ele>
        <time>2010-04-05T02:15:47Z</time>
      </trkpt>
      <trkpt lat="45.6541" lon="4.63339">
        <ele>500</ele>
        <time>2010-04-05T02:15:54Z</time>
      </trkpt>
      <trkpt lat="45.65386" lon="4.63372">
        <ele>501</ele>
        <time>2010-04-05T02:16:01Z</time>
      </trkpt>
      <trkpt lat="45.65374" lon="4.63402">
        <ele>502</ele>
        <time>2010-04-05T02:16:06Z</time>
      </trkpt>
      <trkpt lat="45.65369" lon="4.6343">
        <ele>503</ele>
        <time>2010-04-05T02:16:12Z</time>
      </trkpt>
      <trkpt lat="45.65377" lon="4.63451">
        <ele>504</ele>
        <time>2010-04-05T02:16:16Z</time>
      </trkpt>
      <trkpt lat="45.65399" lon="4.63472">
        <ele>505</ele>
        <time>2010-04-05T02:16:22Z</time>
      </trkpt>
      <trkpt lat="45.65424" lon="4.63494">
        <ele>506</ele>
        <time>2010-04-05T02:16:29Z</time>
      </trkpt>
      <trkpt lat="45.65441" lon="4.63513">
        <ele>508</ele>
        <time>2010-04-05T02:16:36Z</time>
      </trkpt>
      <trkpt lat="45.65461" lon="4.63547">
        <ele>509</ele>
        <time>2010-04-05T02:16:43Z</time>
      </trkpt>
      <trkpt lat="45.65482" lon="4.63585">
        <ele>511</ele>
        <time>2010-04-05T02:16:52Z</time>
      </trkpt>
      <trkpt lat="45.65489" lon="4.63618">
        <ele>512</ele>
        <time>2010-04-05T02:16:58Z</time>
      </trkpt>
      <trkpt lat="45.65482" lon="4.63652">
        <ele>514</ele>
        <time>2010-04-05T02:17:06Z</time>
      </trkpt>
      <trkpt lat="45.65473" lon="4.63677">
        <ele>515</ele>
        <time>2010-04-05T02:17:11Z</time>
      </trkpt>
      <trkpt lat="45.65456" lon="4.63701">
        <ele>517</ele>
        <time>2010-04-05T02:17:19Z</time>
      </trkpt>
      <trkpt lat="45.65434" lon="4.63715">
        <ele>518</ele>
        <time>2010-04-05T02:17:24Z</time>
      </trkpt>
      <trkpt lat="45.65417" lon="4.63726">
        <ele>519</ele>
        <time>2010-04-05T02:17:29Z</time>
      </trkpt>
      <trkpt lat="45.65403" lon="4.63748">
        <ele>520</ele>
        <time>2010-04-05T02:17:34Z</time>
      </trkpt>
      <trkpt lat="45.65393" lon="4.63766">
        <ele>521</ele>
        <time>2010-04-05T02:17:39Z</time>
      </trkpt>
      <trkpt lat="45.6538" lon="4.63788">
        <ele>522</ele>
        <time>2010-04-05T02:17:44Z</time>
      </trkpt>
      <trkpt lat="45.65356" lon="4.63809">
        <ele>524</ele>
        <time>2010-04-05T02:17:53Z</time>
      </trkpt>
      <trkpt lat="45.65332" lon="4.63818">
        <ele>526</ele>
        <time>2010-04-05T02:18:01Z</time>
      </trkpt>
      <trkpt lat="45.65311" lon="4.63823">
        <ele>527</ele>
        <time>2010-04-05T02:18:06Z</time>
      </trkpt>
      <trkpt lat="45.65294" lon="4.63826">
        <ele>528</ele>
        <time>2010-04-05T02:18:11Z</time>
      </trkpt>
      <trkpt lat="45.65276" lon="4.63831">
        <ele>529</ele>
        <time>2010-04-05T02:18:16Z</time>
      </trkpt>
      <trkpt lat="45.65263" lon="4.63845">
        <ele>530</ele>
        <time>2010-04-05T02:18:20Z</time>
      </trkpt>
      <trkpt lat="45.65247" lon="4.63861">
        <ele>531</ele>
        <time>2010-04-05T02:18:25Z</time>
      </trkpt>
      <trkpt lat="45.65229" lon="4.63879">
        <ele>532</ele>
        <time>2010-04-05T02:18:30Z</time>
      </trkpt>
      <trkpt lat="45.65199" lon="4.63895">
        <ele>534</ele>
        <time>2010-04-05T02:18:40Z</time>
      </trkpt>
      <trkpt lat="45.65183" lon="4.63906">
        <ele>534</ele>
        <time>2010-04-05T02:18:42Z</time>
      </trkpt>
      <trkpt lat="45.65181" lon="4.63932">
        <ele>535</ele>
        <time>2010-04-05T02:18:47Z</time>
      </trkpt>
      <trkpt lat="45.65189" lon="4.6396">
        <ele>535</ele>
        <time>2010-04-05T02:18:50Z</time>
      </trkpt>
      <trkpt lat="45.65198" lon="4.63994">
        <ele>537</ele>
        <time>2010-04-05T02:18:58Z</time>
      </trkpt>
      <trkpt lat="45.65209" lon="4.64033">
        <ele>538</ele>
        <time>2010-04-05T02:19:04Z</time>
      </trkpt>
      <trkpt lat="45.65222" lon="4.64079">
        <ele>540</ele>
        <time>2010-04-05T02:19:13Z</time>
      </trkpt>
      <trkpt lat="45.65233" lon="4.64117">
        <ele>542</ele>
        <time>2010-04-05T02:19:22Z</time>
      </trkpt>
      <trkpt lat="45.65246" lon="4.64164">
        <ele>543</ele>
        <time>2010-04-05T02:19:29Z</time>
      </trkpt>
      <trkpt lat="45.65257" lon="4.64203">
        <ele>545</ele>
        <time>2010-04-05T02:19:38Z</time>
      </trkpt>
      <trkpt lat="45.65269" lon="4.64248">
        <ele>547</ele>
        <time>2010-04-05T02:19:47Z</time>
      </trkpt>
      <trkpt lat="45.6527" lon="4.64281">
        <ele>548</ele>
        <time>2010-04-05T02:19:53Z</time>
      </trkpt>
      <trkpt lat="45.65261" lon="4.64306">
        <ele>549</ele>
        <time>2010-04-05T02:19:58Z</time>
      </trkpt>
      <trkpt lat="45.65242" lon="4.64326">
        <ele>550</ele>
        <time>2010-04-05T02:20:03Z</time>
      </trkpt>
      <trkpt lat="45.6522" lon="4.6435">
        <ele>552</ele>
        <time>2010-04-05T02:20:12Z</time>
      </trkpt>
      <trkpt lat="45.65185" lon="4.64389">
        <ele>555</ele>
        <time>2010-04-05T02:20:25Z</time>
      </trkpt>
      <trkpt lat="45.65163" lon="4.64412">
        <ele>556</ele>
        <time>2010-04-05T02:20:31Z</time>
      </trkpt>
      <trkpt lat="45.65135" lon="4.64434">
        <ele>558</ele>
        <time>2010-04-05T02:20:40Z</time>
      </trkpt>
      <trkpt lat="45.65115" lon="4.64445">
        <ele>558</ele>
        <time>2010-04-05T02:20:43Z</time>
      </trkpt>
      <trkpt lat="45.65073" lon="4.64499">
        <ele>559</ele>
        <time>2010-04-05T02:20:53Z</time>
      </trkpt>
      <trkpt lat="45.65073" lon="4.64499">
        <ele>559</ele>
        <time>2010-04-05T02:20:54Z</time>
      </trkpt>
      <trkpt lat="45.65087" lon="4.64524">
        <ele>558</ele>
        <time>2010-04-05T02:20:57Z</time>
      </trkpt>
      <trkpt lat="45.65089" lon="4.64528">
        <ele>558</ele>
        <time>2010-04-05T02:20:57Z</time>
      </trkpt>
      <trkpt lat="45.65097" lon="4.64542">
        <ele>559</ele>
        <time>2010-04-05T02:21:01Z</time>
      </trkpt>
      <trkpt lat="45.65102" lon="4.64552">
        <ele>559</ele>
        <time>2010-04-05T02:21:03Z</time>
      </trkpt>
      <trkpt lat="45.65124" lon="4.64594">
        <ele>558</ele>
        <time>2010-04-05T02:21:07Z</time>
      </trkpt>
      <trkpt lat="45.65143" lon="4.64637">
        <ele>558</ele>
        <time>2010-04-05T02:21:12Z</time>
      </trkpt>
      <trkpt lat="45.65167" lon="4.64694">
        <ele>559</ele>
        <time>2010-04-05T02:21:21Z</time>
      </trkpt>
      <trkpt lat="45.65175" lon="4.64732">
        <ele>560</ele>
        <time>2010-04-05T02:21:27Z</time>
      </trkpt>
      <trkpt lat="45.6518" lon="4.64765">
        <ele>561</ele>
        <time>2010-04-05T02:21:32Z</time>
      </trkpt>
      <trkpt lat="45.65198" lon="4.64786">
        <ele>561</ele>
        <time>2010-04-05T02:21:36Z</time>
      </trkpt>
      <trkpt lat="45.65225" lon="4.64815">
        <ele>561</ele>
        <time>2010-04-05T02:21:40Z</time>
      </trkpt>
      <trkpt lat="45.65245" lon="4.64838">
        <ele>562</ele>
        <time>2010-04-05T02:21:46Z</time>
      </trkpt>
      <trkpt lat="45.65269" lon="4.64865">
        <ele>563</ele>
        <time>2010-04-05T02:21:52Z</time>
      </trkpt>
      <trkpt lat="45.65304" lon="4.64905">
        <ele>564</ele>
        <time>2010-04-05T02:22:01Z</time>
      </trkpt>
      <trkpt lat="45.65333" lon="4.64938">
        <ele>566</ele>
        <time>2010-04-05T02:22:11Z</time>
      </trkpt>
      <trkpt lat="45.65351" lon="4.64959">
        <ele>566</ele>
        <time>2010-04-05T02:22:14Z</time>
      </trkpt>
      <trkpt lat="45.65374" lon="4.64985">
        <ele>566</ele>
        <time>2010-04-05T02:22:18Z</time>
      </trkpt>
      <trkpt lat="45.65392" lon="4.65009">
        <ele>565</ele>
        <time>2010-04-05T02:22:21Z</time>
      </trkpt>
      <trkpt lat="45.65406" lon="4.65029">
        <ele>564</ele>
        <time>2010-04-05T02:22:23Z</time>
      </trkpt>
      <trkpt lat="45.65433" lon="4.65065">
        <ele>560</ele>
        <time>2010-04-05T02:22:28Z</time>
      </trkpt>
      <trkpt lat="45.65448" lon="4.65085">
        <ele>559</ele>
        <time>2010-04-05T02:22:31Z</time>
      </trkpt>
      <trkpt lat="45.65479" lon="4.65123">
        <ele>556</ele>
        <time>2010-04-05T02:22:37Z</time>
      </trkpt>
      <trkpt lat="45.65523" lon="4.65177">
        <ele>550</ele>
        <time>2010-04-05T02:22:44Z</time>
      </trkpt>
      <trkpt lat="45.65571" lon="4.65231">
        <ele>545</ele>
        <time>2010-04-05T02:22:52Z</time>
      </trkpt>
      <trkpt lat="45.65625" lon="4.65277">
        <ele>540</ele>
        <time>2010-04-05T02:23:01Z</time>
      </trkpt>
      <trkpt lat="45.65643" lon="4.65293">
        <ele>538</ele>
        <time>2010-04-05T02:23:04Z</time>
      </trkpt>
      <trkpt lat="45.65653" lon="4.65323">
        <ele>537</ele>
        <time>2010-04-05T02:23:07Z</time>
      </trkpt>
      <trkpt lat="45.65659" lon="4.65403">
        <ele>536</ele>
        <time>2010-04-05T02:23:14Z</time>
      </trkpt>
      <trkpt lat="45.65667" lon="4.65489">
        <ele>535</ele>
        <time>2010-04-05T02:23:22Z</time>
      </trkpt>
      <trkpt lat="45.65685" lon="4.65558">
        <ele>534</ele>
        <time>2010-04-05T02:23:29Z</time>
      </trkpt>
      <trkpt lat="45.65702" lon="4.656">
        <ele>531</ele>
        <time>2010-04-05T02:23:34Z</time>
      </trkpt>
      <trkpt lat="45.65712" lon="4.65619">
        <ele>529</ele>
        <time>2010-04-05T02:23:36Z</time>
      </trkpt>
      <trkpt lat="45.65749" lon="4.65653">
        <ele>528</ele>
        <time>2010-04-05T02:23:42Z</time>
      </trkpt>
      <trkpt lat="45.6581" lon="4.65689">
        <ele>523</ele>
        <time>2010-04-05T02:23:51Z</time>
      </trkpt>
      <trkpt lat="45.65864" lon="4.65727">
        <ele>518</ele>
        <time>2010-04-05T02:23:59Z</time>
      </trkpt>
      <trkpt lat="45.65899" lon="4.6576">
        <ele>516</ele>
        <time>2010-04-05T02:24:04Z</time>
      </trkpt>
      <trkpt lat="45.65929" lon="4.65797">
        <ele>514</ele>
        <time>2010-04-05T02:24:10Z</time>
      </trkpt>
      <trkpt lat="45.65956" lon="4.6585">
        <ele>513</ele>
        <time>2010-04-05T02:24:16Z</time>
      </trkpt>
      <trkpt lat="45.65965" lon="4.65873">
        <ele>513</ele>
        <time>2010-04-05T02:24:18Z</time>
      </trkpt>
      <trkpt lat="45.65997" lon="4.65955">
        <ele>510</ele>
        <time>2010-04-05T02:24:27Z</time>
      </trkpt>
      <trkpt lat="45.66021" lon="4.66026">
        <ele>508</ele>
        <time>2010-04-05T02:24:34Z</time>
      </trkpt>
      <trkpt lat="45.66044" lon="4.66118">
        <ele>507</ele>
        <time>2010-04-05T02:24:44Z</time>
      </trkpt>
      <trkpt lat="45.66062" lon="4.66211">
        <ele>504</ele>
        <time>2010-04-05T02:24:53Z</time>
      </trkpt>
      <trkpt lat="45.66069" lon="4.66288">
        <ele>499</ele>
        <time>2010-04-05T02:25:00Z</time>
      </trkpt>
      <trkpt lat="45.66071" lon="4.66379">
        <ele>493</ele>
        <time>2010-04-05T02:25:08Z</time>
      </trkpt>
      <trkpt lat="45.66071" lon="4.6641">
        <ele>493</ele>
        <time>2010-04-05T02:25:11Z</time>
      </trkpt>
      <trkpt lat="45.66072" lon="4.6644">
        <ele>491</ele>
        <time>2010-04-05T02:25:14Z</time>
      </trkpt>
      <trkpt lat="45.66071" lon="4.66497">
        <ele>489</ele>
        <time>2010-04-05T02:25:19Z</time>
      </trkpt>
      <trkpt lat="45.6606" lon="4.6655">
        <ele>486</ele>
        <time>2010-04-05T02:25:25Z</time>
      </trkpt>
      <trkpt lat="45.66045" lon="4.66568">
        <ele>485</ele>
        <time>2010-04-05T02:25:27Z</time>
      </trkpt>
      <trkpt lat="45.66022" lon="4.66595">
        <ele>483</ele>
        <time>2010-04-05T02:25:31Z</time>
      </trkpt>
      <trkpt lat="45.65996" lon="4.66617">
        <ele>483</ele>
        <time>2010-04-05T02:25:35Z</time>
      </trkpt>
      <trkpt lat="45.65978" lon="4.66637">
        <ele>481</ele>
        <time>2010-04-05T02:25:38Z</time>
      </trkpt>
      <trkpt lat="45.65978" lon="4.66656">
        <ele>481</ele>
        <time>2010-04-05T02:25:40Z</time>
      </trkpt>
      <trkpt lat="45.6599" lon="4.66662">
        <ele>479</ele>
        <time>2010-04-05T02:25:41Z</time>
      </trkpt>
      <trkpt lat="45.66013" lon="4.66661">
        <ele>478</ele>
        <time>2010-04-05T02:25:45Z</time>
      </trkpt>
      <trkpt lat="45.66073" lon="4.66647">
        <ele>475</ele>
        <time>2010-04-05T02:25:53Z</time>
      </trkpt>
      <trkpt lat="45.661" lon="4.66644">
        <ele>473</ele>
        <time>2010-04-05T02:25:56Z</time>
      </trkpt>
      <trkpt lat="45.66129" lon="4.66642">
        <ele>471</ele>
        <time>2010-04-05T02:26:00Z</time>
      </trkpt>
      <trkpt lat="45.66164" lon="4.66651">
        <ele>468</ele>
        <time>2010-04-05T02:26:05Z</time>
      </trkpt>
      <trkpt lat="45.66182" lon="4.66665">
        <ele>467</ele>
        <time>2010-04-05T02:26:08Z</time>
      </trkpt>
      <trkpt lat="45.66188" lon="4.6667">
        <ele>465</ele>
        <time>2010-04-05T02:26:09Z</time>
      </trkpt>
      <trkpt lat="45.66227" lon="4.66724">
        <ele>462</ele>
        <time>2010-04-05T02:26:16Z</time>
      </trkpt>
      <trkpt lat="45.66251" lon="4.66747">
        <ele>459</ele>
        <time>2010-04-05T02:26:20Z</time>
      </trkpt>
      <trkpt lat="45.66299" lon="4.66775">
        <ele>455</ele>
        <time>2010-04-05T02:26:27Z</time>
      </trkpt>
      <trkpt lat="45.66374" lon="4.66791">
        <ele>450</ele>
        <time>2010-04-05T02:26:37Z</time>
      </trkpt>
      <trkpt lat="45.66385" lon="4.66793">
        <ele>450</ele>
        <time>2010-04-05T02:26:38Z</time>
      </trkpt>
      <trkpt lat="45.66419" lon="4.66798">
        <ele>447</ele>
        <time>2010-04-05T02:26:43Z</time>
      </trkpt>
      <trkpt lat="45.66451" lon="4.66803">
        <ele>444</ele>
        <time>2010-04-05T02:26:47Z</time>
      </trkpt>
      <trkpt lat="45.66489" lon="4.66816">
        <ele>444</ele>
        <time>2010-04-05T02:26:52Z</time>
      </trkpt>
      <trkpt lat="45.66544" lon="4.66835">
        <ele>443</ele>
        <time>2010-04-05T02:27:00Z</time>
      </trkpt>
      <trkpt lat="45.66586" lon="4.66862">
        <ele>443</ele>
        <time>2010-04-05T02:27:06Z</time>
      </trkpt>
      <trkpt lat="45.66629" lon="4.66905">
        <ele>443</ele>
        <time>2010-04-05T02:27:13Z</time>
      </trkpt>
      <trkpt lat="45.66643" lon="4.66919">
        <ele>442</ele>
        <time>2010-04-05T02:27:15Z</time>
      </trkpt>
      <trkpt lat="45.66686" lon="4.66984">
        <ele>440</ele>
        <time>2010-04-05T02:27:24Z</time>
      </trkpt>
      <trkpt lat="45.66691" lon="4.66994">
        <ele>439</ele>
        <time>2010-04-05T02:27:25Z</time>
      </trkpt>
      <trkpt lat="45.66703" lon="4.67041">
        <ele>436</ele>
        <time>2010-04-05T02:27:30Z</time>
      </trkpt>
      <trkpt lat="45.66694" lon="4.67133">
        <ele>435</ele>
        <time>2010-04-05T02:27:38Z</time>
      </trkpt>
      <trkpt lat="45.66687" lon="4.67191">
        <ele>434</ele>
        <time>2010-04-05T02:27:44Z</time>
      </trkpt>
      <trkpt lat="45.66689" lon="4.6724">
        <ele>432</ele>
        <time>2010-04-05T02:27:48Z</time>
      </trkpt>
      <trkpt lat="45.6671" lon="4.67312">
        <ele>429</ele>
        <time>2010-04-05T02:27:56Z</time>
      </trkpt>
      <trkpt lat="45.66734" lon="4.6737">
        <ele>426</ele>
        <time>2010-04-05T02:28:02Z</time>
      </trkpt>
      <trkpt lat="45.66792" lon="4.67495">
        <ele>421</ele>
        <time>2010-04-05T02:28:16Z</time>
      </trkpt>
      <trkpt lat="45.66824" lon="4.67563">
        <ele>419</ele>
        <time>2010-04-05T02:28:24Z</time>
      </trkpt>
      <trkpt lat="45.66879" lon="4.67666">
        <ele>415</ele>
        <time>2010-04-05T02:28:36Z</time>
      </trkpt>
      <trkpt lat="45.66885" lon="4.67678">
        <ele>414</ele>
        <time>2010-04-05T02:28:37Z</time>
      </trkpt>
      <trkpt lat="45.66922" lon="4.67748">
        <ele>412</ele>
        <time>2010-04-05T02:28:45Z</time>
      </trkpt>
      <trkpt lat="45.66938" lon="4.67797">
        <ele>411</ele>
        <time>2010-04-05T02:28:50Z</time>
      </trkpt>
      <trkpt lat="45.66951" lon="4.67894">
        <ele>407</ele>
        <time>2010-04-05T02:29:00Z</time>
      </trkpt>
      <trkpt lat="45.66968" lon="4.67966">
        <ele>403</ele>
        <time>2010-04-05T02:29:07Z</time>
      </trkpt>
      <trkpt lat="45.66994" lon="4.68049">
        <ele>401</ele>
        <time>2010-04-05T02:29:15Z</time>
      </trkpt>
      <trkpt lat="45.67001" lon="4.68108">
        <ele>397</ele>
        <time>2010-04-05T02:29:21Z</time>
      </trkpt>
      <trkpt lat="45.67011" lon="4.68185">
        <ele>394</ele>
        <time>2010-04-05T02:29:28Z</time>
      </trkpt>
      <trkpt lat="45.6702" lon="4.68229">
        <ele>393</ele>
        <time>2010-04-05T02:29:32Z</time>
      </trkpt>
      <trkpt lat="45.6703" lon="4.68255">
        <ele>393</ele>
        <time>2010-04-05T02:29:35Z</time>
      </trkpt>
      <trkpt lat="45.6707" lon="4.68333">
        <ele>391</ele>
        <time>2010-04-05T02:29:44Z</time>
      </trkpt>
      <trkpt lat="45.67101" lon="4.68378">
        <ele>390</ele>
        <time>2010-04-05T02:29:50Z</time>
      </trkpt>
      <trkpt lat="45.67127" lon="4.68403">
        <ele>391</ele>
        <time>2010-04-05T02:29:57Z</time>
      </trkpt>
      <trkpt lat="45.67157" lon="4.68426">
        <ele>391</ele>
        <time>2010-04-05T02:30:01Z</time>
      </trkpt>
      <trkpt lat="45.67185" lon="4.68448">
        <ele>391</ele>
        <time>2010-04-05T02:30:05Z</time>
      </trkpt>
      <trkpt lat="45.67203" lon="4.68462">
        <ele>391</ele>
        <time>2010-04-05T02:30:08Z</time>
      </trkpt>
      <trkpt lat="45.67224" lon="4.68477">
        <ele>390</ele>
        <time>2010-04-05T02:30:11Z</time>
      </trkpt>
      <trkpt lat="45.67238" lon="4.68489">
        <ele>390</ele>
        <time>2010-04-05T02:30:13Z</time>
      </trkpt>
      <trkpt lat="45.6725" lon="4.68508">
        <ele>390</ele>
        <time>2010-04-05T02:30:16Z</time>
      </trkpt>
      <trkpt lat="45.67261" lon="4.68513">
        <ele>389</ele>
        <time>2010-04-05T02:30:17Z</time>
      </trkpt>
      <trkpt lat="45.67295" lon="4.68532">
        <ele>387</ele>
        <time>2010-04-05T02:30:22Z</time>
      </trkpt>
      <trkpt lat="45.67305" lon="4.68537">
        <ele>386</ele>
        <time>2010-04-05T02:30:24Z</time>
      </trkpt>
      <trkpt lat="45.67316" lon="4.68553">
        <ele>386</ele>
        <time>2010-04-05T02:30:26Z</time>
      </trkpt>
      <trkpt lat="45.6733" lon="4.68585">
        <ele>386</ele>
        <time>2010-04-05T02:30:29Z</time>
      </trkpt>
      <trkpt lat="45.67341" lon="4.68614">
        <ele>385</ele>
        <time>2010-04-05T02:30:32Z</time>
      </trkpt>
      <trkpt lat="45.67358" lon="4.68657">
        <ele>385</ele>
        <time>2010-04-05T02:30:37Z</time>
      </trkpt>
      <trkpt lat="45.67369" lon="4.68683">
        <ele>384</ele>
        <time>2010-04-05T02:30:40Z</time>
      </trkpt>
      <trkpt lat="45.67383" lon="4.68719">
        <ele>384</ele>
        <time>2010-04-05T02:30:44Z</time>
      </trkpt>
      <trkpt lat="45.67401" lon="4.68764">
        <ele>384</ele>
        <time>2010-04-05T02:30:48Z</time>
      </trkpt>
      <trkpt lat="45.67411" lon="4.68792">
        <ele>384</ele>
        <time>2010-04-05T02:30:51Z</time>
      </trkpt>
      <trkpt lat="45.67414" lon="4.68799">
        <ele>385</ele>
        <time>2010-04-05T02:30:55Z</time>
      </trkpt>
      <trkpt lat="45.67419" lon="4.68819">
        <ele>385</ele>
        <time>2010-04-05T02:30:57Z</time>
      </trkpt>
      <trkpt lat="45.67421" lon="4.68827">
        <ele>385</ele>
        <time>2010-04-05T02:30:57Z</time>
      </trkpt>
      <trkpt lat="45.67428" lon="4.68856">
        <ele>386</ele>
        <time>2010-04-05T02:31:03Z</time>
      </trkpt>
      <trkpt lat="45.67431" lon="4.68886">
        <ele>386</ele>
        <time>2010-04-05T02:31:05Z</time>
      </trkpt>
      <trkpt lat="45.67436" lon="4.68922">
        <ele>387</ele>
        <time>2010-04-05T02:31:11Z</time>
      </trkpt>
      <trkpt lat="45.67447" lon="4.6896">
        <ele>387</ele>
        <time>2010-04-05T02:31:15Z</time>
      </trkpt>
      <trkpt lat="45.67459" lon="4.68997">
        <ele>388</ele>
        <time>2010-04-05T02:31:21Z</time>
      </trkpt>
      <trkpt lat="45.67472" lon="4.69023">
        <ele>388</ele>
        <time>2010-04-05T02:31:24Z</time>
      </trkpt>
      <trkpt lat="45.67497" lon="4.6906">
        <ele>387</ele>
        <time>2010-04-05T02:31:29Z</time>
      </trkpt>
      <trkpt lat="45.67536" lon="4.69096">
        <ele>386</ele>
        <time>2010-04-05T02:31:35Z</time>
      </trkpt>
      <trkpt lat="45.67574" lon="4.6913">
        <ele>385</ele>
        <time>2010-04-05T02:31:41Z</time>
      </trkpt>
      <trkpt lat="45.67604" lon="4.69155">
        <ele>383</ele>
        <time>2010-04-05T02:31:46Z</time>
      </trkpt>
      <trkpt lat="45.67636" lon="4.69172">
        <ele>382</ele>
        <time>2010-04-05T02:31:50Z</time>
      </trkpt>
      <trkpt lat="45.6767" lon="4.69193">
        <ele>381</ele>
        <time>2010-04-05T02:31:55Z</time>
      </trkpt>
      <trkpt lat="45.67708" lon="4.69239">
        <ele>378</ele>
        <time>2010-04-05T02:32:02Z</time>
      </trkpt>
      <trkpt lat="45.67712" lon="4.69245">
        <ele>378</ele>
        <time>2010-04-05T02:32:03Z</time>
      </trkpt>
      <trkpt lat="45.67712" lon="4.69245">
        <ele>378</ele>
        <time>2010-04-05T02:32:04Z</time>
      </trkpt>
      <trkpt lat="45.67741" lon="4.69291">
        <ele>377</ele>
        <time>2010-04-05T02:32:10Z</time>
      </trkpt>
      <trkpt lat="45.67742" lon="4.69292">
        <ele>377</ele>
        <time>2010-04-05T02:32:10Z</time>
      </trkpt>
      <trkpt lat="45.67742" lon="4.69292">
        <ele>376</ele>
        <time>2010-04-05T02:32:11Z</time>
      </trkpt>
      <trkpt lat="45.67726" lon="4.69345">
        <ele>376</ele>
        <time>2010-04-05T02:32:16Z</time>
      </trkpt>
      <trkpt lat="45.67698" lon="4.69379">
        <ele>376</ele>
        <time>2010-04-05T02:32:21Z</time>
      </trkpt>
      <trkpt lat="45.67669" lon="4.69406">
        <ele>375</ele>
        <time>2010-04-05T02:32:26Z</time>
      </trkpt>
      <trkpt lat="45.67616" lon="4.69464">
        <ele>373</ele>
        <time>2010-04-05T02:32:35Z</time>
      </trkpt>
      <trkpt lat="45.67592" lon="4.695">
        <ele>372</ele>
        <time>2010-04-05T02:32:39Z</time>
      </trkpt>
      <trkpt lat="45.67584" lon="4.69515">
        <ele>372</ele>
        <time>2010-04-05T02:32:41Z</time>
      </trkpt>
      <trkpt lat="45.67575" lon="4.69533">
        <ele>372</ele>
        <time>2010-04-05T02:32:43Z</time>
      </trkpt>
      <trkpt lat="45.67575" lon="4.69533">
        <ele>372</ele>
        <time>2010-04-05T02:32:44Z</time>
      </trkpt>
      <trkpt lat="45.67575" lon="4.69533">
        <ele>371</ele>
        <time>2010-04-05T02:32:45Z</time>
      </trkpt>
      <trkpt lat="45.67578" lon="4.69526">
        <ele>372</ele>
        <time>2010-04-05T02:32:48Z</time>
      </trkpt>
    </trkseg>
  </trk>
</gpx>